<?xml version="1.0" encoding="UTF-8" standalone="no" ?>
<gpx xmlns="http://www.topografix.com/GPX/1/1" xmlns:xsi="http://www.w3.org/2001/XMLSchema-instance" xsi:schemaLocation="http://www.topografix.com/GPX/1/1 http://www.topografix.com/GPX/1/1/gpx.xsd" version="1.1" creator="VisuGPX - https://www.visugpx.com">
  <metadata>
    <name>Sortie VTC06 around La Bollène - 14/11/2015</name>
    <desc><![CDATA[Sortie rando/course autour du village de La Bollène Vésubie (06) effectuée par 11 membres du VTC06.
Départ et arrivée au village:
GR52A : Descente direction Lantosque, traversée du Riou, après la Dorgane,  bal 185 et remontée vers la piste de Tardeï jusqu%u2019à bal 189, descente vers parking St Elisabeth, redescente par la route, reprise du sentier bal 205 après la chapelle St Honorat (belle vue du village) et montée à la Serre de la Couala (le fameux Drapeau !) , redescente sur la piste de Malagratta et retour au village par le cimetière.]]></desc>
  </metadata>
  <trk>
    <name><![CDATA[Sortie club VTC06 - la Bollène]]></name>
    <desc><![CDATA[Météo magnifique pour ce grand tour avec le final du Drapeau.
Avec le Prèz Alex, Ricou, JJacques Barbier, Francis VDS, Philippe Séval, 'Tophe Tonso, JClaude David, Thibaut David, Marie, Steph Daniel et Miqueu de La Boulena]]></desc>
    <trkseg>
      <trkpt lat="43.99072" lon="7.33203">
        <ele>695</ele>
        <time>2015-11-14T08:34:17.000Z</time>
      </trkpt>
      <trkpt lat="43.99056" lon="7.33187">
        <ele>693.59997558594</ele>
        <time>2015-11-14T08:34:32.000Z</time>
      </trkpt>
      <trkpt lat="43.9905" lon="7.33179">
        <ele>692.79998779297</ele>
        <time>2015-11-14T08:34:36.000Z</time>
      </trkpt>
      <trkpt lat="43.99055" lon="7.33157">
        <ele>689.59997558594</ele>
        <time>2015-11-14T08:34:45.000Z</time>
      </trkpt>
      <trkpt lat="43.99064" lon="7.33133">
        <ele>689.40002441406</ele>
        <time>2015-11-14T08:34:54.000Z</time>
      </trkpt>
      <trkpt lat="43.99064" lon="7.33131">
        <ele>689.59997558594</ele>
        <time>2015-11-14T08:34:55.000Z</time>
      </trkpt>
      <trkpt lat="43.99068" lon="7.33109">
        <ele>687</ele>
        <time>2015-11-14T08:35:02.000Z</time>
      </trkpt>
      <trkpt lat="43.99083" lon="7.33121">
        <ele>685.20001220703</ele>
        <time>2015-11-14T08:35:10.000Z</time>
      </trkpt>
      <trkpt lat="43.99086" lon="7.33116">
        <ele>683.79998779297</ele>
        <time>2015-11-14T08:35:12.000Z</time>
      </trkpt>
      <trkpt lat="43.99092" lon="7.33108">
        <ele>681</ele>
        <time>2015-11-14T08:35:17.000Z</time>
      </trkpt>
      <trkpt lat="43.99104" lon="7.33118">
        <ele>679.40002441406</ele>
        <time>2015-11-14T08:35:24.000Z</time>
      </trkpt>
      <trkpt lat="43.99111" lon="7.33124">
        <ele>678.40002441406</ele>
        <time>2015-11-14T08:35:30.000Z</time>
      </trkpt>
      <trkpt lat="43.99112" lon="7.33125">
        <ele>678.20001220703</ele>
        <time>2015-11-14T08:35:37.000Z</time>
      </trkpt>
      <trkpt lat="43.99113" lon="7.33123">
        <ele>677.79998779297</ele>
        <time>2015-11-14T08:35:40.000Z</time>
      </trkpt>
      <trkpt lat="43.99104" lon="7.33108">
        <ele>678</ele>
        <time>2015-11-14T08:36:45.000Z</time>
      </trkpt>
      <trkpt lat="43.9909" lon="7.33089">
        <ele>679</ele>
        <time>2015-11-14T08:36:54.000Z</time>
      </trkpt>
      <trkpt lat="43.99082" lon="7.33074">
        <ele>678.59997558594</ele>
        <time>2015-11-14T08:37:01.000Z</time>
      </trkpt>
      <trkpt lat="43.99075" lon="7.33069">
        <ele>679.40002441406</ele>
        <time>2015-11-14T08:37:05.000Z</time>
      </trkpt>
      <trkpt lat="43.99058" lon="7.33054">
        <ele>681.20001220703</ele>
        <time>2015-11-14T08:37:16.000Z</time>
      </trkpt>
      <trkpt lat="43.99042" lon="7.3304">
        <ele>682.79998779297</ele>
        <time>2015-11-14T08:37:26.000Z</time>
      </trkpt>
      <trkpt lat="43.99028" lon="7.33022">
        <ele>683.40002441406</ele>
        <time>2015-11-14T08:37:36.000Z</time>
      </trkpt>
      <trkpt lat="43.99015" lon="7.33005">
        <ele>678.79998779297</ele>
        <time>2015-11-14T08:37:45.000Z</time>
      </trkpt>
      <trkpt lat="43.98998" lon="7.32991">
        <ele>672.20001220703</ele>
        <time>2015-11-14T08:37:55.000Z</time>
      </trkpt>
      <trkpt lat="43.9898" lon="7.32979">
        <ele>666</ele>
        <time>2015-11-14T08:38:04.000Z</time>
      </trkpt>
      <trkpt lat="43.98961" lon="7.3297">
        <ele>660</ele>
        <time>2015-11-14T08:38:13.000Z</time>
      </trkpt>
      <trkpt lat="43.9896" lon="7.32968">
        <ele>659.40002441406</ele>
        <time>2015-11-14T08:38:14.000Z</time>
      </trkpt>
      <trkpt lat="43.98955" lon="7.3296">
        <ele>657</ele>
        <time>2015-11-14T08:38:19.000Z</time>
      </trkpt>
      <trkpt lat="43.98969" lon="7.32943">
        <ele>658.59997558594</ele>
        <time>2015-11-14T08:38:32.000Z</time>
      </trkpt>
      <trkpt lat="43.98973" lon="7.32943">
        <ele>659.40002441406</ele>
        <time>2015-11-14T08:38:34.000Z</time>
      </trkpt>
      <trkpt lat="43.98991" lon="7.32946">
        <ele>662.40002441406</ele>
        <time>2015-11-14T08:38:44.000Z</time>
      </trkpt>
      <trkpt lat="43.98992" lon="7.32945">
        <ele>662.20001220703</ele>
        <time>2015-11-14T08:38:45.000Z</time>
      </trkpt>
      <trkpt lat="43.98998" lon="7.32941">
        <ele>662</ele>
        <time>2015-11-14T08:38:49.000Z</time>
      </trkpt>
      <trkpt lat="43.98997" lon="7.32938">
        <ele>661.20001220703</ele>
        <time>2015-11-14T08:38:52.000Z</time>
      </trkpt>
      <trkpt lat="43.9899" lon="7.32935">
        <ele>659.40002441406</ele>
        <time>2015-11-14T08:38:58.000Z</time>
      </trkpt>
      <trkpt lat="43.98997" lon="7.32925">
        <ele>657.40002441406</ele>
        <time>2015-11-14T08:39:08.000Z</time>
      </trkpt>
      <trkpt lat="43.98998" lon="7.32925">
        <ele>657.59997558594</ele>
        <time>2015-11-14T08:39:11.000Z</time>
      </trkpt>
      <trkpt lat="43.99009" lon="7.32931">
        <ele>660.59997558594</ele>
        <time>2015-11-14T08:39:19.000Z</time>
      </trkpt>
      <trkpt lat="43.99003" lon="7.32907">
        <ele>654.40002441406</ele>
        <time>2015-11-14T08:39:29.000Z</time>
      </trkpt>
      <trkpt lat="43.99002" lon="7.32906">
        <ele>654</ele>
        <time>2015-11-14T08:39:30.000Z</time>
      </trkpt>
      <trkpt lat="43.98987" lon="7.32887">
        <ele>649.59997558594</ele>
        <time>2015-11-14T08:39:40.000Z</time>
      </trkpt>
      <trkpt lat="43.98981" lon="7.32884">
        <ele>648.40002441406</ele>
        <time>2015-11-14T08:39:44.000Z</time>
      </trkpt>
      <trkpt lat="43.98972" lon="7.32877">
        <ele>646.40002441406</ele>
        <time>2015-11-14T08:39:50.000Z</time>
      </trkpt>
      <trkpt lat="43.98954" lon="7.32868">
        <ele>643</ele>
        <time>2015-11-14T08:40:00.000Z</time>
      </trkpt>
      <trkpt lat="43.98952" lon="7.32865">
        <ele>642.20001220703</ele>
        <time>2015-11-14T08:40:02.000Z</time>
      </trkpt>
      <trkpt lat="43.9895" lon="7.3284">
        <ele>638.40002441406</ele>
        <time>2015-11-14T08:40:12.000Z</time>
      </trkpt>
      <trkpt lat="43.98949" lon="7.32821">
        <ele>635.20001220703</ele>
        <time>2015-11-14T08:40:23.000Z</time>
      </trkpt>
      <trkpt lat="43.98947" lon="7.32815">
        <ele>634.59997558594</ele>
        <time>2015-11-14T08:40:26.000Z</time>
      </trkpt>
      <trkpt lat="43.98931" lon="7.32797">
        <ele>631.20001220703</ele>
        <time>2015-11-14T08:40:38.000Z</time>
      </trkpt>
      <trkpt lat="43.9893" lon="7.32794">
        <ele>630.79998779297</ele>
        <time>2015-11-14T08:40:39.000Z</time>
      </trkpt>
      <trkpt lat="43.9892" lon="7.32771">
        <ele>627.20001220703</ele>
        <time>2015-11-14T08:40:48.000Z</time>
      </trkpt>
      <trkpt lat="43.98916" lon="7.32756">
        <ele>625.20001220703</ele>
        <time>2015-11-14T08:40:55.000Z</time>
      </trkpt>
      <trkpt lat="43.98915" lon="7.32752">
        <ele>624.59997558594</ele>
        <time>2015-11-14T08:41:33.000Z</time>
      </trkpt>
      <trkpt lat="43.98898" lon="7.3274">
        <ele>621.79998779297</ele>
        <time>2015-11-14T08:41:43.000Z</time>
      </trkpt>
      <trkpt lat="43.98888" lon="7.32736">
        <ele>620.40002441406</ele>
        <time>2015-11-14T08:41:48.000Z</time>
      </trkpt>
      <trkpt lat="43.9887" lon="7.32733">
        <ele>618</ele>
        <time>2015-11-14T08:42:06.000Z</time>
      </trkpt>
      <trkpt lat="43.98853" lon="7.32723">
        <ele>615</ele>
        <time>2015-11-14T08:42:15.000Z</time>
      </trkpt>
      <trkpt lat="43.98853" lon="7.32723">
        <ele>615</ele>
        <time>2015-11-14T08:42:17.000Z</time>
      </trkpt>
      <trkpt lat="43.9885" lon="7.32722">
        <ele>614.20001220703</ele>
        <time>2015-11-14T08:42:20.000Z</time>
      </trkpt>
      <trkpt lat="43.98843" lon="7.32718">
        <ele>612.79998779297</ele>
        <time>2015-11-14T08:42:25.000Z</time>
      </trkpt>
      <trkpt lat="43.98829" lon="7.32704">
        <ele>609.40002441406</ele>
        <time>2015-11-14T08:42:34.000Z</time>
      </trkpt>
      <trkpt lat="43.98817" lon="7.32684">
        <ele>606.79998779297</ele>
        <time>2015-11-14T08:42:44.000Z</time>
      </trkpt>
      <trkpt lat="43.98805" lon="7.3267">
        <ele>604.20001220703</ele>
        <time>2015-11-14T08:42:53.000Z</time>
      </trkpt>
      <trkpt lat="43.9879" lon="7.32666">
        <ele>600.59997558594</ele>
        <time>2015-11-14T08:43:03.000Z</time>
      </trkpt>
      <trkpt lat="43.98774" lon="7.32653">
        <ele>597.20001220703</ele>
        <time>2015-11-14T08:43:12.000Z</time>
      </trkpt>
      <trkpt lat="43.9876" lon="7.32634">
        <ele>592.79998779297</ele>
        <time>2015-11-14T08:43:20.000Z</time>
      </trkpt>
      <trkpt lat="43.98745" lon="7.32615">
        <ele>588</ele>
        <time>2015-11-14T08:43:29.000Z</time>
      </trkpt>
      <trkpt lat="43.98728" lon="7.32601">
        <ele>582.40002441406</ele>
        <time>2015-11-14T08:43:40.000Z</time>
      </trkpt>
      <trkpt lat="43.98727" lon="7.326">
        <ele>582</ele>
        <time>2015-11-14T08:43:41.000Z</time>
      </trkpt>
      <trkpt lat="43.9872" lon="7.32597">
        <ele>579.20001220703</ele>
        <time>2015-11-14T08:43:46.000Z</time>
      </trkpt>
      <trkpt lat="43.98709" lon="7.32596">
        <ele>575</ele>
        <time>2015-11-14T08:43:53.000Z</time>
      </trkpt>
      <trkpt lat="43.98692" lon="7.32586">
        <ele>568.40002441406</ele>
        <time>2015-11-14T08:44:06.000Z</time>
      </trkpt>
      <trkpt lat="43.98688" lon="7.32583">
        <ele>567.20001220703</ele>
        <time>2015-11-14T08:44:09.000Z</time>
      </trkpt>
      <trkpt lat="43.98686" lon="7.3258">
        <ele>566.40002441406</ele>
        <time>2015-11-14T08:44:11.000Z</time>
      </trkpt>
      <trkpt lat="43.98679" lon="7.32567">
        <ele>563.59997558594</ele>
        <time>2015-11-14T08:44:19.000Z</time>
      </trkpt>
      <trkpt lat="43.98683" lon="7.3255">
        <ele>566.59997558594</ele>
        <time>2015-11-14T08:44:29.000Z</time>
      </trkpt>
      <trkpt lat="43.98682" lon="7.3254">
        <ele>567.20001220703</ele>
        <time>2015-11-14T08:44:34.000Z</time>
      </trkpt>
      <trkpt lat="43.98683" lon="7.32535">
        <ele>567.79998779297</ele>
        <time>2015-11-14T08:44:38.000Z</time>
      </trkpt>
      <trkpt lat="43.98684" lon="7.32529">
        <ele>568.79998779297</ele>
        <time>2015-11-14T08:44:42.000Z</time>
      </trkpt>
      <trkpt lat="43.98682" lon="7.32516">
        <ele>568.59997558594</ele>
        <time>2015-11-14T08:44:49.000Z</time>
      </trkpt>
      <trkpt lat="43.98673" lon="7.32495">
        <ele>566</ele>
        <time>2015-11-14T08:44:57.000Z</time>
      </trkpt>
      <trkpt lat="43.98668" lon="7.32491">
        <ele>564.20001220703</ele>
        <time>2015-11-14T08:45:02.000Z</time>
      </trkpt>
      <trkpt lat="43.98663" lon="7.32488">
        <ele>562.20001220703</ele>
        <time>2015-11-14T08:45:06.000Z</time>
      </trkpt>
      <trkpt lat="43.98652" lon="7.3248">
        <ele>558.40002441406</ele>
        <time>2015-11-14T08:45:20.000Z</time>
      </trkpt>
      <trkpt lat="43.98652" lon="7.32505">
        <ele>554.20001220703</ele>
        <time>2015-11-14T08:45:35.000Z</time>
      </trkpt>
      <trkpt lat="43.98651" lon="7.32514">
        <ele>553.20001220703</ele>
        <time>2015-11-14T08:45:38.000Z</time>
      </trkpt>
      <trkpt lat="43.98648" lon="7.32527">
        <ele>550.40002441406</ele>
        <time>2015-11-14T08:45:44.000Z</time>
      </trkpt>
      <trkpt lat="43.98646" lon="7.32538">
        <ele>549</ele>
        <time>2015-11-14T08:45:48.000Z</time>
      </trkpt>
      <trkpt lat="43.98638" lon="7.3256">
        <ele>545.59997558594</ele>
        <time>2015-11-14T08:45:58.000Z</time>
      </trkpt>
      <trkpt lat="43.98633" lon="7.32568">
        <ele>543.40002441406</ele>
        <time>2015-11-14T08:46:03.000Z</time>
      </trkpt>
      <trkpt lat="43.98625" lon="7.32581">
        <ele>540.20001220703</ele>
        <time>2015-11-14T08:46:12.000Z</time>
      </trkpt>
      <trkpt lat="43.98615" lon="7.32587">
        <ele>535.20001220703</ele>
        <time>2015-11-14T08:46:20.000Z</time>
      </trkpt>
      <trkpt lat="43.98609" lon="7.326">
        <ele>534</ele>
        <time>2015-11-14T08:46:29.000Z</time>
      </trkpt>
      <trkpt lat="43.98608" lon="7.32603">
        <ele>533.79998779297</ele>
        <time>2015-11-14T08:46:31.000Z</time>
      </trkpt>
      <trkpt lat="43.986" lon="7.32627">
        <ele>536</ele>
        <time>2015-11-14T08:46:51.000Z</time>
      </trkpt>
      <trkpt lat="43.98589" lon="7.32636">
        <ele>537.79998779297</ele>
        <time>2015-11-14T08:47:05.000Z</time>
      </trkpt>
      <trkpt lat="43.98577" lon="7.32635">
        <ele>540.20001220703</ele>
        <time>2015-11-14T08:47:12.000Z</time>
      </trkpt>
      <trkpt lat="43.98569" lon="7.32633">
        <ele>542.20001220703</ele>
        <time>2015-11-14T08:47:16.000Z</time>
      </trkpt>
      <trkpt lat="43.98566" lon="7.32622">
        <ele>541.20001220703</ele>
        <time>2015-11-14T08:47:23.000Z</time>
      </trkpt>
      <trkpt lat="43.98568" lon="7.32613">
        <ele>540.40002441406</ele>
        <time>2015-11-14T08:47:27.000Z</time>
      </trkpt>
      <trkpt lat="43.98567" lon="7.32603">
        <ele>540.20001220703</ele>
        <time>2015-11-14T08:47:31.000Z</time>
      </trkpt>
      <trkpt lat="43.98566" lon="7.32594">
        <ele>540</ele>
        <time>2015-11-14T08:47:35.000Z</time>
      </trkpt>
      <trkpt lat="43.98563" lon="7.32579">
        <ele>539.79998779297</ele>
        <time>2015-11-14T08:47:41.000Z</time>
      </trkpt>
      <trkpt lat="43.98561" lon="7.32567">
        <ele>538.40002441406</ele>
        <time>2015-11-14T08:47:48.000Z</time>
      </trkpt>
      <trkpt lat="43.98559" lon="7.32551">
        <ele>536.59997558594</ele>
        <time>2015-11-14T08:47:54.000Z</time>
      </trkpt>
      <trkpt lat="43.98558" lon="7.32547">
        <ele>536</ele>
        <time>2015-11-14T08:47:56.000Z</time>
      </trkpt>
      <trkpt lat="43.98544" lon="7.32536">
        <ele>536.59997558594</ele>
        <time>2015-11-14T08:48:14.000Z</time>
      </trkpt>
      <trkpt lat="43.98541" lon="7.32531">
        <ele>536.40002441406</ele>
        <time>2015-11-14T08:48:19.000Z</time>
      </trkpt>
      <trkpt lat="43.98538" lon="7.32526">
        <ele>536.20001220703</ele>
        <time>2015-11-14T08:48:31.000Z</time>
      </trkpt>
      <trkpt lat="43.98538" lon="7.32523">
        <ele>535.59997558594</ele>
        <time>2015-11-14T08:48:36.000Z</time>
      </trkpt>
      <trkpt lat="43.98537" lon="7.32504">
        <ele>533.79998779297</ele>
        <time>2015-11-14T08:48:47.000Z</time>
      </trkpt>
      <trkpt lat="43.98535" lon="7.32504">
        <ele>533.79998779297</ele>
        <time>2015-11-14T08:48:58.000Z</time>
      </trkpt>
      <trkpt lat="43.98529" lon="7.325">
        <ele>534</ele>
        <time>2015-11-14T08:49:06.000Z</time>
      </trkpt>
      <trkpt lat="43.98513" lon="7.32487">
        <ele>535.59997558594</ele>
        <time>2015-11-14T08:49:21.000Z</time>
      </trkpt>
      <trkpt lat="43.98509" lon="7.32483">
        <ele>536.20001220703</ele>
        <time>2015-11-14T08:49:25.000Z</time>
      </trkpt>
      <trkpt lat="43.98504" lon="7.32476">
        <ele>536.59997558594</ele>
        <time>2015-11-14T08:49:30.000Z</time>
      </trkpt>
      <trkpt lat="43.98501" lon="7.32474">
        <ele>537</ele>
        <time>2015-11-14T08:49:32.000Z</time>
      </trkpt>
      <trkpt lat="43.98492" lon="7.32467">
        <ele>538.40002441406</ele>
        <time>2015-11-14T08:49:41.000Z</time>
      </trkpt>
      <trkpt lat="43.98489" lon="7.32462">
        <ele>538.59997558594</ele>
        <time>2015-11-14T08:49:45.000Z</time>
      </trkpt>
      <trkpt lat="43.9848" lon="7.32445">
        <ele>538.79998779297</ele>
        <time>2015-11-14T08:49:52.000Z</time>
      </trkpt>
      <trkpt lat="43.98474" lon="7.32441">
        <ele>539.79998779297</ele>
        <time>2015-11-14T08:49:55.000Z</time>
      </trkpt>
      <trkpt lat="43.98465" lon="7.32433">
        <ele>540.79998779297</ele>
        <time>2015-11-14T08:49:59.000Z</time>
      </trkpt>
      <trkpt lat="43.98454" lon="7.32413">
        <ele>541.20001220703</ele>
        <time>2015-11-14T08:50:08.000Z</time>
      </trkpt>
      <trkpt lat="43.9845" lon="7.32386">
        <ele>536.79998779297</ele>
        <time>2015-11-14T08:50:17.000Z</time>
      </trkpt>
      <trkpt lat="43.98441" lon="7.32362">
        <ele>534.40002441406</ele>
        <time>2015-11-14T08:50:26.000Z</time>
      </trkpt>
      <trkpt lat="43.98427" lon="7.32342">
        <ele>536.79998779297</ele>
        <time>2015-11-14T08:50:35.000Z</time>
      </trkpt>
      <trkpt lat="43.98421" lon="7.3234">
        <ele>539</ele>
        <time>2015-11-14T08:50:38.000Z</time>
      </trkpt>
      <trkpt lat="43.98415" lon="7.3234">
        <ele>541.59997558594</ele>
        <time>2015-11-14T08:50:41.000Z</time>
      </trkpt>
      <trkpt lat="43.98398" lon="7.32339">
        <ele>549.59997558594</ele>
        <time>2015-11-14T08:50:50.000Z</time>
      </trkpt>
      <trkpt lat="43.98385" lon="7.32321">
        <ele>551.79998779297</ele>
        <time>2015-11-14T08:50:58.000Z</time>
      </trkpt>
      <trkpt lat="43.98382" lon="7.32309">
        <ele>551.20001220703</ele>
        <time>2015-11-14T08:51:03.000Z</time>
      </trkpt>
      <trkpt lat="43.98366" lon="7.32299">
        <ele>556.79998779297</ele>
        <time>2015-11-14T08:51:28.000Z</time>
      </trkpt>
      <trkpt lat="43.98352" lon="7.32282">
        <ele>560.40002441406</ele>
        <time>2015-11-14T08:51:50.000Z</time>
      </trkpt>
      <trkpt lat="43.98337" lon="7.32268">
        <ele>565.79998779297</ele>
        <time>2015-11-14T08:52:12.000Z</time>
      </trkpt>
      <trkpt lat="43.98325" lon="7.3225">
        <ele>569.20001220703</ele>
        <time>2015-11-14T08:52:32.000Z</time>
      </trkpt>
      <trkpt lat="43.98314" lon="7.3223">
        <ele>569.79998779297</ele>
        <time>2015-11-14T08:52:52.000Z</time>
      </trkpt>
      <trkpt lat="43.98303" lon="7.32218">
        <ele>572</ele>
        <time>2015-11-14T08:53:06.000Z</time>
      </trkpt>
      <trkpt lat="43.98287" lon="7.32206">
        <ele>577.20001220703</ele>
        <time>2015-11-14T08:53:23.000Z</time>
      </trkpt>
      <trkpt lat="43.98279" lon="7.32205">
        <ele>581</ele>
        <time>2015-11-14T08:53:30.000Z</time>
      </trkpt>
      <trkpt lat="43.98276" lon="7.32217">
        <ele>586.40002441406</ele>
        <time>2015-11-14T08:53:42.000Z</time>
      </trkpt>
      <trkpt lat="43.98277" lon="7.32217">
        <ele>585.59997558594</ele>
        <time>2015-11-14T08:53:45.000Z</time>
      </trkpt>
      <trkpt lat="43.98284" lon="7.32241">
        <ele>589</ele>
        <time>2015-11-14T08:53:57.000Z</time>
      </trkpt>
      <trkpt lat="43.98279" lon="7.3225">
        <ele>594.40002441406</ele>
        <time>2015-11-14T08:54:04.000Z</time>
      </trkpt>
      <trkpt lat="43.98278" lon="7.32253">
        <ele>595.59997558594</ele>
        <time>2015-11-14T08:54:06.000Z</time>
      </trkpt>
      <trkpt lat="43.98276" lon="7.32256">
        <ele>598</ele>
        <time>2015-11-14T08:54:10.000Z</time>
      </trkpt>
      <trkpt lat="43.9827" lon="7.32259">
        <ele>600.40002441406</ele>
        <time>2015-11-14T08:54:16.000Z</time>
      </trkpt>
      <trkpt lat="43.98268" lon="7.32261">
        <ele>601.79998779297</ele>
        <time>2015-11-14T08:54:20.000Z</time>
      </trkpt>
      <trkpt lat="43.98264" lon="7.32267">
        <ele>604.20001220703</ele>
        <time>2015-11-14T08:54:26.000Z</time>
      </trkpt>
      <trkpt lat="43.98265" lon="7.32276">
        <ele>606.59997558594</ele>
        <time>2015-11-14T08:54:32.000Z</time>
      </trkpt>
      <trkpt lat="43.98265" lon="7.32297">
        <ele>613</ele>
        <time>2015-11-14T08:54:44.000Z</time>
      </trkpt>
      <trkpt lat="43.98265" lon="7.32301">
        <ele>614</ele>
        <time>2015-11-14T08:54:47.000Z</time>
      </trkpt>
      <trkpt lat="43.98263" lon="7.32304">
        <ele>615.79998779297</ele>
        <time>2015-11-14T08:54:52.000Z</time>
      </trkpt>
      <trkpt lat="43.98262" lon="7.3231">
        <ele>617.59997558594</ele>
        <time>2015-11-14T08:54:59.000Z</time>
      </trkpt>
      <trkpt lat="43.98261" lon="7.32316">
        <ele>619.40002441406</ele>
        <time>2015-11-14T08:55:04.000Z</time>
      </trkpt>
      <trkpt lat="43.98259" lon="7.32321">
        <ele>622.20001220703</ele>
        <time>2015-11-14T08:55:08.000Z</time>
      </trkpt>
      <trkpt lat="43.98256" lon="7.32319">
        <ele>622.59997558594</ele>
        <time>2015-11-14T08:55:14.000Z</time>
      </trkpt>
      <trkpt lat="43.98245" lon="7.32306">
        <ele>620.40002441406</ele>
        <time>2015-11-14T08:55:26.000Z</time>
      </trkpt>
      <trkpt lat="43.9824" lon="7.32318">
        <ele>627.40002441406</ele>
        <time>2015-11-14T08:55:34.000Z</time>
      </trkpt>
      <trkpt lat="43.98241" lon="7.32319">
        <ele>627.59997558594</ele>
        <time>2015-11-14T08:55:35.000Z</time>
      </trkpt>
      <trkpt lat="43.98241" lon="7.32324">
        <ele>629.40002441406</ele>
        <time>2015-11-14T08:55:39.000Z</time>
      </trkpt>
      <trkpt lat="43.98239" lon="7.32314">
        <ele>625.59997558594</ele>
        <time>2015-11-14T08:55:53.000Z</time>
      </trkpt>
      <trkpt lat="43.98237" lon="7.3231">
        <ele>624.79998779297</ele>
        <time>2015-11-14T08:55:56.000Z</time>
      </trkpt>
      <trkpt lat="43.98238" lon="7.32308">
        <ele>623.79998779297</ele>
        <time>2015-11-14T08:56:06.000Z</time>
      </trkpt>
      <trkpt lat="43.98238" lon="7.32308">
        <ele>623.59997558594</ele>
        <time>2015-11-14T08:56:13.000Z</time>
      </trkpt>
      <trkpt lat="43.98235" lon="7.32308">
        <ele>624.79998779297</ele>
        <time>2015-11-14T08:56:17.000Z</time>
      </trkpt>
      <trkpt lat="43.98231" lon="7.32306">
        <ele>625.20001220703</ele>
        <time>2015-11-14T08:56:21.000Z</time>
      </trkpt>
      <trkpt lat="43.98231" lon="7.32303">
        <ele>624</ele>
        <time>2015-11-14T08:56:25.000Z</time>
      </trkpt>
      <trkpt lat="43.98228" lon="7.32303">
        <ele>624.79998779297</ele>
        <time>2015-11-14T08:56:30.000Z</time>
      </trkpt>
      <trkpt lat="43.98227" lon="7.32302">
        <ele>624.79998779297</ele>
        <time>2015-11-14T08:56:31.000Z</time>
      </trkpt>
      <trkpt lat="43.98223" lon="7.32306">
        <ele>627.79998779297</ele>
        <time>2015-11-14T08:56:34.000Z</time>
      </trkpt>
      <trkpt lat="43.98223" lon="7.32316">
        <ele>632.40002441406</ele>
        <time>2015-11-14T08:56:46.000Z</time>
      </trkpt>
      <trkpt lat="43.98224" lon="7.3232">
        <ele>633.59997558594</ele>
        <time>2015-11-14T08:56:50.000Z</time>
      </trkpt>
      <trkpt lat="43.98227" lon="7.32327">
        <ele>635.79998779297</ele>
        <time>2015-11-14T08:56:54.000Z</time>
      </trkpt>
      <trkpt lat="43.98229" lon="7.32336">
        <ele>638</ele>
        <time>2015-11-14T08:56:58.000Z</time>
      </trkpt>
      <trkpt lat="43.98227" lon="7.32335">
        <ele>638.20001220703</ele>
        <time>2015-11-14T08:57:02.000Z</time>
      </trkpt>
      <trkpt lat="43.98211" lon="7.32321">
        <ele>638.40002441406</ele>
        <time>2015-11-14T08:57:16.000Z</time>
      </trkpt>
      <trkpt lat="43.98198" lon="7.32314">
        <ele>639.59997558594</ele>
        <time>2015-11-14T08:57:26.000Z</time>
      </trkpt>
      <trkpt lat="43.98187" lon="7.32311">
        <ele>640.40002441406</ele>
        <time>2015-11-14T08:57:33.000Z</time>
      </trkpt>
      <trkpt lat="43.98173" lon="7.32309">
        <ele>639</ele>
        <time>2015-11-14T08:57:44.000Z</time>
      </trkpt>
      <trkpt lat="43.9816" lon="7.32313">
        <ele>639.79998779297</ele>
        <time>2015-11-14T08:57:52.000Z</time>
      </trkpt>
      <trkpt lat="43.98147" lon="7.32316">
        <ele>640</ele>
        <time>2015-11-14T08:57:59.000Z</time>
      </trkpt>
      <trkpt lat="43.98153" lon="7.32318">
        <ele>641.40002441406</ele>
        <time>2015-11-14T08:58:04.000Z</time>
      </trkpt>
      <trkpt lat="43.98157" lon="7.32316">
        <ele>640.79998779297</ele>
        <time>2015-11-14T08:58:06.000Z</time>
      </trkpt>
      <trkpt lat="43.98162" lon="7.32316">
        <ele>641.20001220703</ele>
        <time>2015-11-14T08:58:10.000Z</time>
      </trkpt>
      <trkpt lat="43.98162" lon="7.32317">
        <ele>641.40002441406</ele>
        <time>2015-11-14T08:58:12.000Z</time>
      </trkpt>
      <trkpt lat="43.98168" lon="7.32322">
        <ele>644</ele>
        <time>2015-11-14T08:58:19.000Z</time>
      </trkpt>
      <trkpt lat="43.98172" lon="7.32326">
        <ele>645.79998779297</ele>
        <time>2015-11-14T08:58:25.000Z</time>
      </trkpt>
      <trkpt lat="43.98185" lon="7.32345">
        <ele>653.40002441406</ele>
        <time>2015-11-14T08:58:36.000Z</time>
      </trkpt>
      <trkpt lat="43.98196" lon="7.32363">
        <ele>658.40002441406</ele>
        <time>2015-11-14T08:58:45.000Z</time>
      </trkpt>
      <trkpt lat="43.9819" lon="7.32362">
        <ele>659.59997558594</ele>
        <time>2015-11-14T08:58:56.000Z</time>
      </trkpt>
      <trkpt lat="43.98187" lon="7.32361">
        <ele>658.79998779297</ele>
        <time>2015-11-14T08:58:59.000Z</time>
      </trkpt>
      <trkpt lat="43.98172" lon="7.32356">
        <ele>656.20001220703</ele>
        <time>2015-11-14T08:59:08.000Z</time>
      </trkpt>
      <trkpt lat="43.98153" lon="7.32361">
        <ele>656</ele>
        <time>2015-11-14T08:59:20.000Z</time>
      </trkpt>
      <trkpt lat="43.98135" lon="7.32362">
        <ele>654.79998779297</ele>
        <time>2015-11-14T08:59:30.000Z</time>
      </trkpt>
      <trkpt lat="43.98133" lon="7.32362">
        <ele>654.59997558594</ele>
        <time>2015-11-14T08:59:31.000Z</time>
      </trkpt>
      <trkpt lat="43.98123" lon="7.32371">
        <ele>656.79998779297</ele>
        <time>2015-11-14T08:59:37.000Z</time>
      </trkpt>
      <trkpt lat="43.98126" lon="7.32374">
        <ele>658</ele>
        <time>2015-11-14T08:59:41.000Z</time>
      </trkpt>
      <trkpt lat="43.98132" lon="7.32377">
        <ele>659.59997558594</ele>
        <time>2015-11-14T08:59:46.000Z</time>
      </trkpt>
      <trkpt lat="43.98138" lon="7.32378">
        <ele>660.40002441406</ele>
        <time>2015-11-14T08:59:50.000Z</time>
      </trkpt>
      <trkpt lat="43.98155" lon="7.32384">
        <ele>663.79998779297</ele>
        <time>2015-11-14T09:00:01.000Z</time>
      </trkpt>
      <trkpt lat="43.98161" lon="7.32386">
        <ele>665</ele>
        <time>2015-11-14T09:00:05.000Z</time>
      </trkpt>
      <trkpt lat="43.98167" lon="7.32389">
        <ele>666.59997558594</ele>
        <time>2015-11-14T09:00:09.000Z</time>
      </trkpt>
      <trkpt lat="43.98172" lon="7.32392">
        <ele>668.20001220703</ele>
        <time>2015-11-14T09:00:12.000Z</time>
      </trkpt>
      <trkpt lat="43.98187" lon="7.32408">
        <ele>674.59997558594</ele>
        <time>2015-11-14T09:00:22.000Z</time>
      </trkpt>
      <trkpt lat="43.98188" lon="7.32409">
        <ele>675.20001220703</ele>
        <time>2015-11-14T09:00:23.000Z</time>
      </trkpt>
      <trkpt lat="43.98192" lon="7.32415">
        <ele>677</ele>
        <time>2015-11-14T09:00:27.000Z</time>
      </trkpt>
      <trkpt lat="43.98191" lon="7.32423">
        <ele>680.20001220703</ele>
        <time>2015-11-14T09:00:36.000Z</time>
      </trkpt>
      <trkpt lat="43.98173" lon="7.32421">
        <ele>678</ele>
        <time>2015-11-14T09:00:48.000Z</time>
      </trkpt>
      <trkpt lat="43.98171" lon="7.32422">
        <ele>678</ele>
        <time>2015-11-14T09:00:49.000Z</time>
      </trkpt>
      <trkpt lat="43.9816" lon="7.32423">
        <ele>677.59997558594</ele>
        <time>2015-11-14T09:00:56.000Z</time>
      </trkpt>
      <trkpt lat="43.98148" lon="7.32426">
        <ele>677.40002441406</ele>
        <time>2015-11-14T09:01:04.000Z</time>
      </trkpt>
      <trkpt lat="43.98142" lon="7.32431">
        <ele>678.79998779297</ele>
        <time>2015-11-14T09:01:08.000Z</time>
      </trkpt>
      <trkpt lat="43.98127" lon="7.32446">
        <ele>683.40002441406</ele>
        <time>2015-11-14T09:01:18.000Z</time>
      </trkpt>
      <trkpt lat="43.98113" lon="7.32461">
        <ele>688.40002441406</ele>
        <time>2015-11-14T09:01:28.000Z</time>
      </trkpt>
      <trkpt lat="43.981" lon="7.32478">
        <ele>693.40002441406</ele>
        <time>2015-11-14T09:01:39.000Z</time>
      </trkpt>
      <trkpt lat="43.98101" lon="7.32479">
        <ele>693.79998779297</ele>
        <time>2015-11-14T09:01:42.000Z</time>
      </trkpt>
      <trkpt lat="43.98109" lon="7.32475">
        <ele>693.59997558594</ele>
        <time>2015-11-14T09:01:48.000Z</time>
      </trkpt>
      <trkpt lat="43.98128" lon="7.32471">
        <ele>693</ele>
        <time>2015-11-14T09:02:01.000Z</time>
      </trkpt>
      <trkpt lat="43.98145" lon="7.32475">
        <ele>695.40002441406</ele>
        <time>2015-11-14T09:02:25.000Z</time>
      </trkpt>
      <trkpt lat="43.98146" lon="7.32476">
        <ele>695.79998779297</ele>
        <time>2015-11-14T09:02:26.000Z</time>
      </trkpt>
      <trkpt lat="43.98162" lon="7.32489">
        <ele>701.40002441406</ele>
        <time>2015-11-14T09:02:39.000Z</time>
      </trkpt>
      <trkpt lat="43.98166" lon="7.32492">
        <ele>702.79998779297</ele>
        <time>2015-11-14T09:02:43.000Z</time>
      </trkpt>
      <trkpt lat="43.98167" lon="7.32493">
        <ele>703.40002441406</ele>
        <time>2015-11-14T09:02:44.000Z</time>
      </trkpt>
      <trkpt lat="43.98176" lon="7.32507">
        <ele>709.40002441406</ele>
        <time>2015-11-14T09:02:53.000Z</time>
      </trkpt>
      <trkpt lat="43.98177" lon="7.32509">
        <ele>710</ele>
        <time>2015-11-14T09:02:54.000Z</time>
      </trkpt>
      <trkpt lat="43.98179" lon="7.32518">
        <ele>713.79998779297</ele>
        <time>2015-11-14T09:03:00.000Z</time>
      </trkpt>
      <trkpt lat="43.9818" lon="7.32523">
        <ele>716</ele>
        <time>2015-11-14T09:03:04.000Z</time>
      </trkpt>
      <trkpt lat="43.98178" lon="7.32529">
        <ele>718.20001220703</ele>
        <time>2015-11-14T09:03:17.000Z</time>
      </trkpt>
      <trkpt lat="43.98169" lon="7.32526">
        <ele>716.79998779297</ele>
        <time>2015-11-14T09:03:25.000Z</time>
      </trkpt>
      <trkpt lat="43.98155" lon="7.3253">
        <ele>717.79998779297</ele>
        <time>2015-11-14T09:03:34.000Z</time>
      </trkpt>
      <trkpt lat="43.98137" lon="7.32538">
        <ele>720.20001220703</ele>
        <time>2015-11-14T09:03:46.000Z</time>
      </trkpt>
      <trkpt lat="43.98135" lon="7.32538">
        <ele>720.20001220703</ele>
        <time>2015-11-14T09:03:47.000Z</time>
      </trkpt>
      <trkpt lat="43.9812" lon="7.32552">
        <ele>725</ele>
        <time>2015-11-14T09:03:58.000Z</time>
      </trkpt>
      <trkpt lat="43.98116" lon="7.32556">
        <ele>726.40002441406</ele>
        <time>2015-11-14T09:04:01.000Z</time>
      </trkpt>
      <trkpt lat="43.98101" lon="7.32571">
        <ele>731.20001220703</ele>
        <time>2015-11-14T09:04:13.000Z</time>
      </trkpt>
      <trkpt lat="43.98095" lon="7.32578">
        <ele>733.59997558594</ele>
        <time>2015-11-14T09:04:18.000Z</time>
      </trkpt>
      <trkpt lat="43.98078" lon="7.32589">
        <ele>737.40002441406</ele>
        <time>2015-11-14T09:04:29.000Z</time>
      </trkpt>
      <trkpt lat="43.9806" lon="7.32599">
        <ele>740.59997558594</ele>
        <time>2015-11-14T09:04:42.000Z</time>
      </trkpt>
      <trkpt lat="43.98044" lon="7.32614">
        <ele>746.20001220703</ele>
        <time>2015-11-14T09:04:54.000Z</time>
      </trkpt>
      <trkpt lat="43.98038" lon="7.32621">
        <ele>749.59997558594</ele>
        <time>2015-11-14T09:05:05.000Z</time>
      </trkpt>
      <trkpt lat="43.98043" lon="7.32616">
        <ele>747.59997558594</ele>
        <time>2015-11-14T09:05:12.000Z</time>
      </trkpt>
      <trkpt lat="43.98045" lon="7.32615">
        <ele>747</ele>
        <time>2015-11-14T09:05:15.000Z</time>
      </trkpt>
      <trkpt lat="43.98056" lon="7.32617">
        <ele>748.59997558594</ele>
        <time>2015-11-14T09:05:28.000Z</time>
      </trkpt>
      <trkpt lat="43.98067" lon="7.32617">
        <ele>749.20001220703</ele>
        <time>2015-11-14T09:05:40.000Z</time>
      </trkpt>
      <trkpt lat="43.98071" lon="7.32615">
        <ele>748.59997558594</ele>
        <time>2015-11-14T09:05:44.000Z</time>
      </trkpt>
      <trkpt lat="43.98077" lon="7.32615">
        <ele>749</ele>
        <time>2015-11-14T09:05:49.000Z</time>
      </trkpt>
      <trkpt lat="43.98083" lon="7.32616">
        <ele>750</ele>
        <time>2015-11-14T09:05:55.000Z</time>
      </trkpt>
      <trkpt lat="43.98085" lon="7.32617">
        <ele>751</ele>
        <time>2015-11-14T09:05:57.000Z</time>
      </trkpt>
      <trkpt lat="43.98092" lon="7.32621">
        <ele>753</ele>
        <time>2015-11-14T09:06:03.000Z</time>
      </trkpt>
      <trkpt lat="43.98093" lon="7.3262">
        <ele>752.79998779297</ele>
        <time>2015-11-14T09:06:04.000Z</time>
      </trkpt>
      <trkpt lat="43.98097" lon="7.32621">
        <ele>753.40002441406</ele>
        <time>2015-11-14T09:06:09.000Z</time>
      </trkpt>
      <trkpt lat="43.98101" lon="7.32622">
        <ele>754.40002441406</ele>
        <time>2015-11-14T09:06:17.000Z</time>
      </trkpt>
      <trkpt lat="43.98105" lon="7.32622">
        <ele>754.79998779297</ele>
        <time>2015-11-14T09:06:22.000Z</time>
      </trkpt>
      <trkpt lat="43.98109" lon="7.32623">
        <ele>755.20001220703</ele>
        <time>2015-11-14T09:06:28.000Z</time>
      </trkpt>
      <trkpt lat="43.98117" lon="7.32622">
        <ele>754.79998779297</ele>
        <time>2015-11-14T09:06:34.000Z</time>
      </trkpt>
      <trkpt lat="43.98129" lon="7.3263">
        <ele>757.79998779297</ele>
        <time>2015-11-14T09:06:43.000Z</time>
      </trkpt>
      <trkpt lat="43.98139" lon="7.32636">
        <ele>760</ele>
        <time>2015-11-14T09:06:57.000Z</time>
      </trkpt>
      <trkpt lat="43.98144" lon="7.32638">
        <ele>760.79998779297</ele>
        <time>2015-11-14T09:07:03.000Z</time>
      </trkpt>
      <trkpt lat="43.98156" lon="7.32651">
        <ele>766.40002441406</ele>
        <time>2015-11-14T09:07:18.000Z</time>
      </trkpt>
      <trkpt lat="43.9816" lon="7.32656">
        <ele>768.40002441406</ele>
        <time>2015-11-14T09:07:22.000Z</time>
      </trkpt>
      <trkpt lat="43.98164" lon="7.32662">
        <ele>771.40002441406</ele>
        <time>2015-11-14T09:07:29.000Z</time>
      </trkpt>
      <trkpt lat="43.98174" lon="7.32683">
        <ele>779</ele>
        <time>2015-11-14T09:07:45.000Z</time>
      </trkpt>
      <trkpt lat="43.98175" lon="7.32692">
        <ele>782.40002441406</ele>
        <time>2015-11-14T09:07:52.000Z</time>
      </trkpt>
      <trkpt lat="43.98174" lon="7.32695">
        <ele>783.59997558594</ele>
        <time>2015-11-14T09:07:56.000Z</time>
      </trkpt>
      <trkpt lat="43.98177" lon="7.32695">
        <ele>783.59997558594</ele>
        <time>2015-11-14T09:08:02.000Z</time>
      </trkpt>
      <trkpt lat="43.98182" lon="7.32696">
        <ele>783.79998779297</ele>
        <time>2015-11-14T09:08:12.000Z</time>
      </trkpt>
      <trkpt lat="43.98184" lon="7.32696">
        <ele>783.59997558594</ele>
        <time>2015-11-14T09:08:14.000Z</time>
      </trkpt>
      <trkpt lat="43.98191" lon="7.32698">
        <ele>784</ele>
        <time>2015-11-14T09:09:08.000Z</time>
      </trkpt>
      <trkpt lat="43.98189" lon="7.32697">
        <ele>783.79998779297</ele>
        <time>2015-11-14T09:09:45.000Z</time>
      </trkpt>
      <trkpt lat="43.98179" lon="7.32692">
        <ele>782.20001220703</ele>
        <time>2015-11-14T09:10:57.000Z</time>
      </trkpt>
      <trkpt lat="43.98171" lon="7.3269">
        <ele>781.59997558594</ele>
        <time>2015-11-14T09:11:03.000Z</time>
      </trkpt>
      <trkpt lat="43.98156" lon="7.32688">
        <ele>781.59997558594</ele>
        <time>2015-11-14T09:11:13.000Z</time>
      </trkpt>
      <trkpt lat="43.98149" lon="7.32689">
        <ele>782.20001220703</ele>
        <time>2015-11-14T09:11:21.000Z</time>
      </trkpt>
      <trkpt lat="43.98145" lon="7.3269">
        <ele>782.79998779297</ele>
        <time>2015-11-14T09:11:26.000Z</time>
      </trkpt>
      <trkpt lat="43.98138" lon="7.32692">
        <ele>783.79998779297</ele>
        <time>2015-11-14T09:11:35.000Z</time>
      </trkpt>
      <trkpt lat="43.98132" lon="7.32692">
        <ele>784.59997558594</ele>
        <time>2015-11-14T09:11:42.000Z</time>
      </trkpt>
      <trkpt lat="43.9812" lon="7.32691">
        <ele>785.79998779297</ele>
        <time>2015-11-14T09:11:53.000Z</time>
      </trkpt>
      <trkpt lat="43.9811" lon="7.32698">
        <ele>790.59997558594</ele>
        <time>2015-11-14T09:11:59.000Z</time>
      </trkpt>
      <trkpt lat="43.98107" lon="7.32701">
        <ele>792.20001220703</ele>
        <time>2015-11-14T09:12:02.000Z</time>
      </trkpt>
      <trkpt lat="43.98117" lon="7.32708">
        <ele>794.40002441406</ele>
        <time>2015-11-14T09:12:14.000Z</time>
      </trkpt>
      <trkpt lat="43.9812" lon="7.32712">
        <ele>795.79998779297</ele>
        <time>2015-11-14T09:12:19.000Z</time>
      </trkpt>
      <trkpt lat="43.98125" lon="7.32716">
        <ele>797.20001220703</ele>
        <time>2015-11-14T09:12:24.000Z</time>
      </trkpt>
      <trkpt lat="43.98136" lon="7.3273">
        <ele>802.40002441406</ele>
        <time>2015-11-14T09:12:41.000Z</time>
      </trkpt>
      <trkpt lat="43.98149" lon="7.32749">
        <ele>809.79998779297</ele>
        <time>2015-11-14T09:12:53.000Z</time>
      </trkpt>
      <trkpt lat="43.98149" lon="7.3275">
        <ele>810.40002441406</ele>
        <time>2015-11-14T09:12:54.000Z</time>
      </trkpt>
      <trkpt lat="43.98151" lon="7.32756">
        <ele>812.79998779297</ele>
        <time>2015-11-14T09:12:59.000Z</time>
      </trkpt>
      <trkpt lat="43.98152" lon="7.3276">
        <ele>814.40002441406</ele>
        <time>2015-11-14T09:13:02.000Z</time>
      </trkpt>
      <trkpt lat="43.98153" lon="7.32764">
        <ele>815.79998779297</ele>
        <time>2015-11-14T09:13:07.000Z</time>
      </trkpt>
      <trkpt lat="43.98155" lon="7.32767">
        <ele>816.79998779297</ele>
        <time>2015-11-14T09:13:11.000Z</time>
      </trkpt>
      <trkpt lat="43.98159" lon="7.32773">
        <ele>819</ele>
        <time>2015-11-14T09:13:16.000Z</time>
      </trkpt>
      <trkpt lat="43.9816" lon="7.32778">
        <ele>820.79998779297</ele>
        <time>2015-11-14T09:13:19.000Z</time>
      </trkpt>
      <trkpt lat="43.98168" lon="7.3279">
        <ele>825</ele>
        <time>2015-11-14T09:13:29.000Z</time>
      </trkpt>
      <trkpt lat="43.98172" lon="7.32796">
        <ele>827</ele>
        <time>2015-11-14T09:13:33.000Z</time>
      </trkpt>
      <trkpt lat="43.98183" lon="7.32817">
        <ele>834.20001220703</ele>
        <time>2015-11-14T09:13:49.000Z</time>
      </trkpt>
      <trkpt lat="43.98185" lon="7.32823">
        <ele>836.79998779297</ele>
        <time>2015-11-14T09:13:54.000Z</time>
      </trkpt>
      <trkpt lat="43.98191" lon="7.3284">
        <ele>840.20001220703</ele>
        <time>2015-11-14T09:14:07.000Z</time>
      </trkpt>
      <trkpt lat="43.98204" lon="7.32853">
        <ele>834.79998779297</ele>
        <time>2015-11-14T09:14:24.000Z</time>
      </trkpt>
      <trkpt lat="43.98212" lon="7.32859">
        <ele>831.20001220703</ele>
        <time>2015-11-14T09:14:32.000Z</time>
      </trkpt>
      <trkpt lat="43.9822" lon="7.32865">
        <ele>827.59997558594</ele>
        <time>2015-11-14T09:14:41.000Z</time>
      </trkpt>
      <trkpt lat="43.98223" lon="7.3287">
        <ele>826.40002441406</ele>
        <time>2015-11-14T09:14:45.000Z</time>
      </trkpt>
      <trkpt lat="43.98225" lon="7.32871">
        <ele>825.79998779297</ele>
        <time>2015-11-14T09:14:46.000Z</time>
      </trkpt>
      <trkpt lat="43.9823" lon="7.32877">
        <ele>823.40002441406</ele>
        <time>2015-11-14T09:14:52.000Z</time>
      </trkpt>
      <trkpt lat="43.98234" lon="7.32884">
        <ele>822.40002441406</ele>
        <time>2015-11-14T09:14:58.000Z</time>
      </trkpt>
      <trkpt lat="43.98231" lon="7.32887">
        <ele>824.20001220703</ele>
        <time>2015-11-14T09:15:04.000Z</time>
      </trkpt>
      <trkpt lat="43.98224" lon="7.32892">
        <ele>828.59997558594</ele>
        <time>2015-11-14T09:15:10.000Z</time>
      </trkpt>
      <trkpt lat="43.98216" lon="7.32895">
        <ele>833.20001220703</ele>
        <time>2015-11-14T09:15:14.000Z</time>
      </trkpt>
      <trkpt lat="43.98204" lon="7.32908">
        <ele>841.79998779297</ele>
        <time>2015-11-14T09:15:31.000Z</time>
      </trkpt>
      <trkpt lat="43.98202" lon="7.32909">
        <ele>842.79998779297</ele>
        <time>2015-11-14T09:15:35.000Z</time>
      </trkpt>
      <trkpt lat="43.98204" lon="7.32897">
        <ele>840.20001220703</ele>
        <time>2015-11-14T09:15:52.000Z</time>
      </trkpt>
      <trkpt lat="43.982" lon="7.32896">
        <ele>842.40002441406</ele>
        <time>2015-11-14T09:16:20.000Z</time>
      </trkpt>
      <trkpt lat="43.98189" lon="7.3289">
        <ele>847</ele>
        <time>2015-11-14T09:17:26.000Z</time>
      </trkpt>
      <trkpt lat="43.98179" lon="7.32898">
        <ele>850.79998779297</ele>
        <time>2015-11-14T09:18:04.000Z</time>
      </trkpt>
      <trkpt lat="43.98173" lon="7.32891">
        <ele>851.59997558594</ele>
        <time>2015-11-14T09:18:14.000Z</time>
      </trkpt>
      <trkpt lat="43.98169" lon="7.32896">
        <ele>854</ele>
        <time>2015-11-14T09:18:19.000Z</time>
      </trkpt>
      <trkpt lat="43.98159" lon="7.32908">
        <ele>861.59997558594</ele>
        <time>2015-11-14T09:18:35.000Z</time>
      </trkpt>
      <trkpt lat="43.98152" lon="7.32906">
        <ele>864.20001220703</ele>
        <time>2015-11-14T09:18:46.000Z</time>
      </trkpt>
      <trkpt lat="43.98142" lon="7.32914">
        <ele>870.79998779297</ele>
        <time>2015-11-14T09:18:53.000Z</time>
      </trkpt>
      <trkpt lat="43.98127" lon="7.32929">
        <ele>874.40002441406</ele>
        <time>2015-11-14T09:19:00.000Z</time>
      </trkpt>
      <trkpt lat="43.98112" lon="7.32944">
        <ele>885.40002441406</ele>
        <time>2015-11-14T09:19:09.000Z</time>
      </trkpt>
      <trkpt lat="43.98109" lon="7.32946">
        <ele>887.40002441406</ele>
        <time>2015-11-14T09:19:11.000Z</time>
      </trkpt>
      <trkpt lat="43.98102" lon="7.32957">
        <ele>890.40002441406</ele>
        <time>2015-11-14T09:19:17.000Z</time>
      </trkpt>
      <trkpt lat="43.98093" lon="7.32976">
        <ele>893.40002441406</ele>
        <time>2015-11-14T09:19:28.000Z</time>
      </trkpt>
      <trkpt lat="43.98094" lon="7.32972">
        <ele>893</ele>
        <time>2015-11-14T09:19:37.000Z</time>
      </trkpt>
      <trkpt lat="43.98105" lon="7.3295">
        <ele>889.20001220703</ele>
        <time>2015-11-14T09:19:46.000Z</time>
      </trkpt>
      <trkpt lat="43.98116" lon="7.32929">
        <ele>881.20001220703</ele>
        <time>2015-11-14T09:19:55.000Z</time>
      </trkpt>
      <trkpt lat="43.9813" lon="7.3291">
        <ele>875.40002441406</ele>
        <time>2015-11-14T09:20:03.000Z</time>
      </trkpt>
      <trkpt lat="43.98131" lon="7.32909">
        <ele>874.59997558594</ele>
        <time>2015-11-14T09:20:04.000Z</time>
      </trkpt>
      <trkpt lat="43.98124" lon="7.32891">
        <ele>872.59997558594</ele>
        <time>2015-11-14T09:20:14.000Z</time>
      </trkpt>
      <trkpt lat="43.9812" lon="7.32894">
        <ele>875</ele>
        <time>2015-11-14T09:20:17.000Z</time>
      </trkpt>
      <trkpt lat="43.98107" lon="7.32913">
        <ele>885.79998779297</ele>
        <time>2015-11-14T09:20:28.000Z</time>
      </trkpt>
      <trkpt lat="43.98101" lon="7.32923">
        <ele>888.20001220703</ele>
        <time>2015-11-14T09:20:37.000Z</time>
      </trkpt>
      <trkpt lat="43.981" lon="7.32918">
        <ele>887.79998779297</ele>
        <time>2015-11-14T09:20:44.000Z</time>
      </trkpt>
      <trkpt lat="43.98093" lon="7.32913">
        <ele>888.79998779297</ele>
        <time>2015-11-14T09:20:57.000Z</time>
      </trkpt>
      <trkpt lat="43.98091" lon="7.32921">
        <ele>890</ele>
        <time>2015-11-14T09:21:00.000Z</time>
      </trkpt>
      <trkpt lat="43.98081" lon="7.32944">
        <ele>893.79998779297</ele>
        <time>2015-11-14T09:21:10.000Z</time>
      </trkpt>
      <trkpt lat="43.98072" lon="7.32968">
        <ele>899.40002441406</ele>
        <time>2015-11-14T09:21:21.000Z</time>
      </trkpt>
      <trkpt lat="43.98072" lon="7.32971">
        <ele>900.59997558594</ele>
        <time>2015-11-14T09:21:22.000Z</time>
      </trkpt>
      <trkpt lat="43.98067" lon="7.32986">
        <ele>909.40002441406</ele>
        <time>2015-11-14T09:21:29.000Z</time>
      </trkpt>
      <trkpt lat="43.98065" lon="7.32992">
        <ele>912.79998779297</ele>
        <time>2015-11-14T09:21:32.000Z</time>
      </trkpt>
      <trkpt lat="43.98066" lon="7.32985">
        <ele>909.20001220703</ele>
        <time>2015-11-14T09:21:37.000Z</time>
      </trkpt>
      <trkpt lat="43.98066" lon="7.32983">
        <ele>908.59997558594</ele>
        <time>2015-11-14T09:21:38.000Z</time>
      </trkpt>
      <trkpt lat="43.98069" lon="7.32963">
        <ele>898.79998779297</ele>
        <time>2015-11-14T09:21:47.000Z</time>
      </trkpt>
      <trkpt lat="43.98068" lon="7.32959">
        <ele>898</ele>
        <time>2015-11-14T09:21:49.000Z</time>
      </trkpt>
      <trkpt lat="43.98065" lon="7.32936">
        <ele>896.40002441406</ele>
        <time>2015-11-14T09:21:58.000Z</time>
      </trkpt>
      <trkpt lat="43.9806" lon="7.3296">
        <ele>902.59997558594</ele>
        <time>2015-11-14T09:22:10.000Z</time>
      </trkpt>
      <trkpt lat="43.98053" lon="7.32983">
        <ele>915.40002441406</ele>
        <time>2015-11-14T09:22:21.000Z</time>
      </trkpt>
      <trkpt lat="43.98051" lon="7.3299">
        <ele>919.20001220703</ele>
        <time>2015-11-14T09:22:25.000Z</time>
      </trkpt>
      <trkpt lat="43.9805" lon="7.32971">
        <ele>912.40002441406</ele>
        <time>2015-11-14T09:22:34.000Z</time>
      </trkpt>
      <trkpt lat="43.98048" lon="7.32957">
        <ele>908</ele>
        <time>2015-11-14T09:22:40.000Z</time>
      </trkpt>
      <trkpt lat="43.9804" lon="7.32961">
        <ele>913.59997558594</ele>
        <time>2015-11-14T09:22:50.000Z</time>
      </trkpt>
      <trkpt lat="43.98038" lon="7.3297">
        <ele>918.40002441406</ele>
        <time>2015-11-14T09:22:54.000Z</time>
      </trkpt>
      <trkpt lat="43.98036" lon="7.32977">
        <ele>922.20001220703</ele>
        <time>2015-11-14T09:22:58.000Z</time>
      </trkpt>
      <trkpt lat="43.98033" lon="7.33003">
        <ele>931</ele>
        <time>2015-11-14T09:23:14.000Z</time>
      </trkpt>
      <trkpt lat="43.9803" lon="7.33018">
        <ele>934.59997558594</ele>
        <time>2015-11-14T09:23:23.000Z</time>
      </trkpt>
      <trkpt lat="43.9803" lon="7.33029">
        <ele>936</ele>
        <time>2015-11-14T09:23:28.000Z</time>
      </trkpt>
      <trkpt lat="43.98029" lon="7.3303">
        <ele>936.59997558594</ele>
        <time>2015-11-14T09:23:29.000Z</time>
      </trkpt>
      <trkpt lat="43.98026" lon="7.33009">
        <ele>936</ele>
        <time>2015-11-14T09:23:45.000Z</time>
      </trkpt>
      <trkpt lat="43.98026" lon="7.32998">
        <ele>935.20001220703</ele>
        <time>2015-11-14T09:23:50.000Z</time>
      </trkpt>
      <trkpt lat="43.98023" lon="7.32984">
        <ele>930.40002441406</ele>
        <time>2015-11-14T09:23:56.000Z</time>
      </trkpt>
      <trkpt lat="43.9802" lon="7.32979">
        <ele>928.20001220703</ele>
        <time>2015-11-14T09:24:01.000Z</time>
      </trkpt>
      <trkpt lat="43.98016" lon="7.32976">
        <ele>927</ele>
        <time>2015-11-14T09:24:07.000Z</time>
      </trkpt>
      <trkpt lat="43.98017" lon="7.32992">
        <ele>933.59997558594</ele>
        <time>2015-11-14T09:24:50.000Z</time>
      </trkpt>
      <trkpt lat="43.98013" lon="7.32985">
        <ele>930.40002441406</ele>
        <time>2015-11-14T09:24:58.000Z</time>
      </trkpt>
      <trkpt lat="43.98005" lon="7.32987">
        <ele>931.59997558594</ele>
        <time>2015-11-14T09:25:15.000Z</time>
      </trkpt>
      <trkpt lat="43.98001" lon="7.33011">
        <ele>939.40002441406</ele>
        <time>2015-11-14T09:25:40.000Z</time>
      </trkpt>
      <trkpt lat="43.97991" lon="7.33023">
        <ele>941.40002441406</ele>
        <time>2015-11-14T09:26:04.000Z</time>
      </trkpt>
      <trkpt lat="43.97985" lon="7.33027">
        <ele>942.40002441406</ele>
        <time>2015-11-14T09:26:21.000Z</time>
      </trkpt>
      <trkpt lat="43.9798" lon="7.33035">
        <ele>943.79998779297</ele>
        <time>2015-11-14T09:26:37.000Z</time>
      </trkpt>
      <trkpt lat="43.97973" lon="7.33048">
        <ele>954</ele>
        <time>2015-11-14T09:26:59.000Z</time>
      </trkpt>
      <trkpt lat="43.97966" lon="7.33051">
        <ele>959.40002441406</ele>
        <time>2015-11-14T09:27:15.000Z</time>
      </trkpt>
      <trkpt lat="43.97951" lon="7.33063">
        <ele>973.59997558594</ele>
        <time>2015-11-14T09:27:38.000Z</time>
      </trkpt>
      <trkpt lat="43.97944" lon="7.33069">
        <ele>980.59997558594</ele>
        <time>2015-11-14T09:27:44.000Z</time>
      </trkpt>
      <trkpt lat="43.9795" lon="7.33077">
        <ele>981.59997558594</ele>
        <time>2015-11-14T09:27:51.000Z</time>
      </trkpt>
      <trkpt lat="43.97953" lon="7.33076">
        <ele>980</ele>
        <time>2015-11-14T09:27:56.000Z</time>
      </trkpt>
      <trkpt lat="43.97949" lon="7.33078">
        <ele>982.79998779297</ele>
        <time>2015-11-14T09:28:01.000Z</time>
      </trkpt>
      <trkpt lat="43.97947" lon="7.33079">
        <ele>984.59997558594</ele>
        <time>2015-11-14T09:28:04.000Z</time>
      </trkpt>
      <trkpt lat="43.97945" lon="7.33082">
        <ele>985.79998779297</ele>
        <time>2015-11-14T09:28:11.000Z</time>
      </trkpt>
      <trkpt lat="43.97939" lon="7.33085">
        <ele>989.79998779297</ele>
        <time>2015-11-14T09:28:21.000Z</time>
      </trkpt>
      <trkpt lat="43.97937" lon="7.33091">
        <ele>992.40002441406</ele>
        <time>2015-11-14T09:28:26.000Z</time>
      </trkpt>
      <trkpt lat="43.97932" lon="7.33096">
        <ele>995.59997558594</ele>
        <time>2015-11-14T09:28:34.000Z</time>
      </trkpt>
      <trkpt lat="43.97918" lon="7.33096">
        <ele>1000.200012207</ele>
        <time>2015-11-14T09:28:59.000Z</time>
      </trkpt>
      <trkpt lat="43.97918" lon="7.33098">
        <ele>1001.200012207</ele>
        <time>2015-11-14T09:29:01.000Z</time>
      </trkpt>
      <trkpt lat="43.97917" lon="7.33104">
        <ele>1002.799987793</ele>
        <time>2015-11-14T09:29:07.000Z</time>
      </trkpt>
      <trkpt lat="43.97916" lon="7.3313">
        <ele>1010</ele>
        <time>2015-11-14T09:29:38.000Z</time>
      </trkpt>
      <trkpt lat="43.97909" lon="7.33151">
        <ele>1025.5999755859</ele>
        <time>2015-11-14T09:30:07.000Z</time>
      </trkpt>
      <trkpt lat="43.97899" lon="7.33173">
        <ele>1041</ele>
        <time>2015-11-14T09:30:24.000Z</time>
      </trkpt>
      <trkpt lat="43.97886" lon="7.33192">
        <ele>1050.4000244141</ele>
        <time>2015-11-14T09:30:42.000Z</time>
      </trkpt>
      <trkpt lat="43.97882" lon="7.33217">
        <ele>1060.5999755859</ele>
        <time>2015-11-14T09:31:03.000Z</time>
      </trkpt>
      <trkpt lat="43.97881" lon="7.33219">
        <ele>1062</ele>
        <time>2015-11-14T09:31:05.000Z</time>
      </trkpt>
      <trkpt lat="43.9788" lon="7.33225">
        <ele>1064.5999755859</ele>
        <time>2015-11-14T09:31:10.000Z</time>
      </trkpt>
      <trkpt lat="43.97877" lon="7.33229">
        <ele>1068.1999511719</ele>
        <time>2015-11-14T09:31:14.000Z</time>
      </trkpt>
      <trkpt lat="43.97877" lon="7.33232">
        <ele>1068.8000488281</ele>
        <time>2015-11-14T09:31:16.000Z</time>
      </trkpt>
      <trkpt lat="43.97875" lon="7.33243">
        <ele>1073</ele>
        <time>2015-11-14T09:31:24.000Z</time>
      </trkpt>
      <trkpt lat="43.97875" lon="7.33245">
        <ele>1073.1999511719</ele>
        <time>2015-11-14T09:31:25.000Z</time>
      </trkpt>
      <trkpt lat="43.97878" lon="7.33256">
        <ele>1072.5999755859</ele>
        <time>2015-11-14T09:31:32.000Z</time>
      </trkpt>
      <trkpt lat="43.97881" lon="7.33269">
        <ele>1072.5999755859</ele>
        <time>2015-11-14T09:31:42.000Z</time>
      </trkpt>
      <trkpt lat="43.97881" lon="7.33271">
        <ele>1072.5999755859</ele>
        <time>2015-11-14T09:31:43.000Z</time>
      </trkpt>
      <trkpt lat="43.97883" lon="7.33297">
        <ele>1068.5999755859</ele>
        <time>2015-11-14T09:31:55.000Z</time>
      </trkpt>
      <trkpt lat="43.97884" lon="7.33305">
        <ele>1067.5999755859</ele>
        <time>2015-11-14T09:31:59.000Z</time>
      </trkpt>
      <trkpt lat="43.97882" lon="7.33313">
        <ele>1068</ele>
        <time>2015-11-14T09:32:04.000Z</time>
      </trkpt>
      <trkpt lat="43.97882" lon="7.33327">
        <ele>1066.8000488281</ele>
        <time>2015-11-14T09:32:12.000Z</time>
      </trkpt>
      <trkpt lat="43.97888" lon="7.33348">
        <ele>1062.8000488281</ele>
        <time>2015-11-14T09:32:25.000Z</time>
      </trkpt>
      <trkpt lat="43.9789" lon="7.33353">
        <ele>1062.1999511719</ele>
        <time>2015-11-14T09:32:28.000Z</time>
      </trkpt>
      <trkpt lat="43.9789" lon="7.33359">
        <ele>1062.1999511719</ele>
        <time>2015-11-14T09:32:32.000Z</time>
      </trkpt>
      <trkpt lat="43.9789" lon="7.33362">
        <ele>1062.4000244141</ele>
        <time>2015-11-14T09:32:34.000Z</time>
      </trkpt>
      <trkpt lat="43.9789" lon="7.33372">
        <ele>1059.8000488281</ele>
        <time>2015-11-14T09:32:40.000Z</time>
      </trkpt>
      <trkpt lat="43.9789" lon="7.33388">
        <ele>1055.4000244141</ele>
        <time>2015-11-14T09:32:50.000Z</time>
      </trkpt>
      <trkpt lat="43.97872" lon="7.33396">
        <ele>1059.1999511719</ele>
        <time>2015-11-14T09:33:05.000Z</time>
      </trkpt>
      <trkpt lat="43.97859" lon="7.334">
        <ele>1062.4000244141</ele>
        <time>2015-11-14T09:33:17.000Z</time>
      </trkpt>
      <trkpt lat="43.97841" lon="7.33402">
        <ele>1069</ele>
        <time>2015-11-14T09:33:29.000Z</time>
      </trkpt>
      <trkpt lat="43.97827" lon="7.33403">
        <ele>1074.5999755859</ele>
        <time>2015-11-14T09:33:37.000Z</time>
      </trkpt>
      <trkpt lat="43.9782" lon="7.33405">
        <ele>1077.1999511719</ele>
        <time>2015-11-14T09:33:42.000Z</time>
      </trkpt>
      <trkpt lat="43.97809" lon="7.33411">
        <ele>1080.5999755859</ele>
        <time>2015-11-14T09:33:50.000Z</time>
      </trkpt>
      <trkpt lat="43.978" lon="7.33411">
        <ele>1084.1999511719</ele>
        <time>2015-11-14T09:33:56.000Z</time>
      </trkpt>
      <trkpt lat="43.97783" lon="7.33423">
        <ele>1087.4000244141</ele>
        <time>2015-11-14T09:34:06.000Z</time>
      </trkpt>
      <trkpt lat="43.97782" lon="7.33424">
        <ele>1087.5999755859</ele>
        <time>2015-11-14T09:34:07.000Z</time>
      </trkpt>
      <trkpt lat="43.9777" lon="7.33439">
        <ele>1087.8000488281</ele>
        <time>2015-11-14T09:34:15.000Z</time>
      </trkpt>
      <trkpt lat="43.97767" lon="7.33461">
        <ele>1082.1999511719</ele>
        <time>2015-11-14T09:34:22.000Z</time>
      </trkpt>
      <trkpt lat="43.97762" lon="7.33485">
        <ele>1076.4000244141</ele>
        <time>2015-11-14T09:34:30.000Z</time>
      </trkpt>
      <trkpt lat="43.97753" lon="7.33498">
        <ele>1077.5999755859</ele>
        <time>2015-11-14T09:34:40.000Z</time>
      </trkpt>
      <trkpt lat="43.97738" lon="7.33509">
        <ele>1081.5999755859</ele>
        <time>2015-11-14T09:34:50.000Z</time>
      </trkpt>
      <trkpt lat="43.97729" lon="7.33511">
        <ele>1085.1999511719</ele>
        <time>2015-11-14T09:35:20.000Z</time>
      </trkpt>
      <trkpt lat="43.97729" lon="7.33507">
        <ele>1086.5999755859</ele>
        <time>2015-11-14T09:35:37.000Z</time>
      </trkpt>
      <trkpt lat="43.97714" lon="7.33525">
        <ele>1088.1999511719</ele>
        <time>2015-11-14T09:35:58.000Z</time>
      </trkpt>
      <trkpt lat="43.97713" lon="7.33525">
        <ele>1089</ele>
        <time>2015-11-14T09:35:59.000Z</time>
      </trkpt>
      <trkpt lat="43.97705" lon="7.33542">
        <ele>1089.1999511719</ele>
        <time>2015-11-14T09:36:09.000Z</time>
      </trkpt>
      <trkpt lat="43.97692" lon="7.33561">
        <ele>1091.5999755859</ele>
        <time>2015-11-14T09:36:18.000Z</time>
      </trkpt>
      <trkpt lat="43.97674" lon="7.33571">
        <ele>1099.8000488281</ele>
        <time>2015-11-14T09:36:25.000Z</time>
      </trkpt>
      <trkpt lat="43.97673" lon="7.33572">
        <ele>1100.8000488281</ele>
        <time>2015-11-14T09:36:26.000Z</time>
      </trkpt>
      <trkpt lat="43.97665" lon="7.33584">
        <ele>1105</ele>
        <time>2015-11-14T09:36:33.000Z</time>
      </trkpt>
      <trkpt lat="43.97665" lon="7.33601">
        <ele>1101.8000488281</ele>
        <time>2015-11-14T09:36:40.000Z</time>
      </trkpt>
      <trkpt lat="43.97664" lon="7.33626">
        <ele>1098</ele>
        <time>2015-11-14T09:36:49.000Z</time>
      </trkpt>
      <trkpt lat="43.97661" lon="7.33652">
        <ele>1093.8000488281</ele>
        <time>2015-11-14T09:36:59.000Z</time>
      </trkpt>
      <trkpt lat="43.9766" lon="7.33655">
        <ele>1093.8000488281</ele>
        <time>2015-11-14T09:37:00.000Z</time>
      </trkpt>
      <trkpt lat="43.97654" lon="7.33674">
        <ele>1094</ele>
        <time>2015-11-14T09:37:09.000Z</time>
      </trkpt>
      <trkpt lat="43.97638" lon="7.33686">
        <ele>1102</ele>
        <time>2015-11-14T09:37:19.000Z</time>
      </trkpt>
      <trkpt lat="43.97627" lon="7.33702">
        <ele>1102.5999755859</ele>
        <time>2015-11-14T09:37:27.000Z</time>
      </trkpt>
      <trkpt lat="43.97613" lon="7.33721">
        <ele>1102.4000244141</ele>
        <time>2015-11-14T09:37:37.000Z</time>
      </trkpt>
      <trkpt lat="43.97613" lon="7.33724">
        <ele>1101.4000244141</ele>
        <time>2015-11-14T09:37:38.000Z</time>
      </trkpt>
      <trkpt lat="43.97608" lon="7.33734">
        <ele>1100</ele>
        <time>2015-11-14T09:37:42.000Z</time>
      </trkpt>
      <trkpt lat="43.97597" lon="7.33748">
        <ele>1101.1999511719</ele>
        <time>2015-11-14T09:37:50.000Z</time>
      </trkpt>
      <trkpt lat="43.97588" lon="7.33765">
        <ele>1099.5999755859</ele>
        <time>2015-11-14T09:37:57.000Z</time>
      </trkpt>
      <trkpt lat="43.97571" lon="7.33776">
        <ele>1104.5999755859</ele>
        <time>2015-11-14T09:38:07.000Z</time>
      </trkpt>
      <trkpt lat="43.97558" lon="7.33787">
        <ele>1109.1999511719</ele>
        <time>2015-11-14T09:38:15.000Z</time>
      </trkpt>
      <trkpt lat="43.97542" lon="7.33801">
        <ele>1115</ele>
        <time>2015-11-14T09:38:24.000Z</time>
      </trkpt>
      <trkpt lat="43.97528" lon="7.3382">
        <ele>1118.8000488281</ele>
        <time>2015-11-14T09:38:35.000Z</time>
      </trkpt>
      <trkpt lat="43.97525" lon="7.33824">
        <ele>1119</ele>
        <time>2015-11-14T09:38:37.000Z</time>
      </trkpt>
      <trkpt lat="43.97521" lon="7.33829">
        <ele>1120</ele>
        <time>2015-11-14T09:38:41.000Z</time>
      </trkpt>
      <trkpt lat="43.97514" lon="7.3383">
        <ele>1125.1999511719</ele>
        <time>2015-11-14T09:38:47.000Z</time>
      </trkpt>
      <trkpt lat="43.97511" lon="7.33831">
        <ele>1127.4000244141</ele>
        <time>2015-11-14T09:38:50.000Z</time>
      </trkpt>
      <trkpt lat="43.97507" lon="7.33832">
        <ele>1130.5999755859</ele>
        <time>2015-11-14T09:38:55.000Z</time>
      </trkpt>
      <trkpt lat="43.97502" lon="7.33832">
        <ele>1134.4000244141</ele>
        <time>2015-11-14T09:38:59.000Z</time>
      </trkpt>
      <trkpt lat="43.97488" lon="7.33845">
        <ele>1143.1999511719</ele>
        <time>2015-11-14T09:39:10.000Z</time>
      </trkpt>
      <trkpt lat="43.97484" lon="7.33855">
        <ele>1145</ele>
        <time>2015-11-14T09:40:44.000Z</time>
      </trkpt>
      <trkpt lat="43.97478" lon="7.33879">
        <ele>1145.1999511719</ele>
        <time>2015-11-14T09:41:02.000Z</time>
      </trkpt>
      <trkpt lat="43.97476" lon="7.33882">
        <ele>1146.4000244141</ele>
        <time>2015-11-14T09:41:04.000Z</time>
      </trkpt>
      <trkpt lat="43.9747" lon="7.33887">
        <ele>1149.5999755859</ele>
        <time>2015-11-14T09:41:11.000Z</time>
      </trkpt>
      <trkpt lat="43.97465" lon="7.33893">
        <ele>1152.1999511719</ele>
        <time>2015-11-14T09:41:19.000Z</time>
      </trkpt>
      <trkpt lat="43.9746" lon="7.33919">
        <ele>1152.5999755859</ele>
        <time>2015-11-14T09:41:30.000Z</time>
      </trkpt>
      <trkpt lat="43.9746" lon="7.33922">
        <ele>1153.1999511719</ele>
        <time>2015-11-14T09:41:31.000Z</time>
      </trkpt>
      <trkpt lat="43.97468" lon="7.33947">
        <ele>1153.8000488281</ele>
        <time>2015-11-14T09:41:40.000Z</time>
      </trkpt>
      <trkpt lat="43.97479" lon="7.33969">
        <ele>1150.8000488281</ele>
        <time>2015-11-14T09:41:51.000Z</time>
      </trkpt>
      <trkpt lat="43.97483" lon="7.33972">
        <ele>1148.8000488281</ele>
        <time>2015-11-14T09:41:53.000Z</time>
      </trkpt>
      <trkpt lat="43.97499" lon="7.33986">
        <ele>1140.1999511719</ele>
        <time>2015-11-14T09:42:02.000Z</time>
      </trkpt>
      <trkpt lat="43.97511" lon="7.34007">
        <ele>1136.1999511719</ele>
        <time>2015-11-14T09:42:12.000Z</time>
      </trkpt>
      <trkpt lat="43.97517" lon="7.34015">
        <ele>1134</ele>
        <time>2015-11-14T09:42:16.000Z</time>
      </trkpt>
      <trkpt lat="43.97532" lon="7.34033">
        <ele>1126.4000244141</ele>
        <time>2015-11-14T09:42:25.000Z</time>
      </trkpt>
      <trkpt lat="43.97544" lon="7.34052">
        <ele>1122.1999511719</ele>
        <time>2015-11-14T09:42:36.000Z</time>
      </trkpt>
      <trkpt lat="43.97545" lon="7.34055">
        <ele>1121.8000488281</ele>
        <time>2015-11-14T09:42:38.000Z</time>
      </trkpt>
      <trkpt lat="43.97555" lon="7.34076">
        <ele>1118.8000488281</ele>
        <time>2015-11-14T09:42:48.000Z</time>
      </trkpt>
      <trkpt lat="43.9756" lon="7.34093">
        <ele>1117.1999511719</ele>
        <time>2015-11-14T09:42:55.000Z</time>
      </trkpt>
      <trkpt lat="43.97555" lon="7.34118">
        <ele>1121.8000488281</ele>
        <time>2015-11-14T09:43:04.000Z</time>
      </trkpt>
      <trkpt lat="43.97553" lon="7.34121">
        <ele>1122.8000488281</ele>
        <time>2015-11-14T09:43:06.000Z</time>
      </trkpt>
      <trkpt lat="43.97542" lon="7.34143">
        <ele>1126.5999755859</ele>
        <time>2015-11-14T09:43:16.000Z</time>
      </trkpt>
      <trkpt lat="43.97531" lon="7.34164">
        <ele>1130.5999755859</ele>
        <time>2015-11-14T09:43:26.000Z</time>
      </trkpt>
      <trkpt lat="43.97524" lon="7.34188">
        <ele>1128.5999755859</ele>
        <time>2015-11-14T09:43:35.000Z</time>
      </trkpt>
      <trkpt lat="43.97509" lon="7.34203">
        <ele>1134.5999755859</ele>
        <time>2015-11-14T09:43:45.000Z</time>
      </trkpt>
      <trkpt lat="43.97491" lon="7.34212">
        <ele>1144.1999511719</ele>
        <time>2015-11-14T09:43:55.000Z</time>
      </trkpt>
      <trkpt lat="43.97474" lon="7.34225">
        <ele>1150.5999755859</ele>
        <time>2015-11-14T09:44:05.000Z</time>
      </trkpt>
      <trkpt lat="43.97463" lon="7.34247">
        <ele>1150.5999755859</ele>
        <time>2015-11-14T09:44:15.000Z</time>
      </trkpt>
      <trkpt lat="43.97455" lon="7.3427">
        <ele>1147.4000244141</ele>
        <time>2015-11-14T09:44:24.000Z</time>
      </trkpt>
      <trkpt lat="43.97443" lon="7.34289">
        <ele>1146.1999511719</ele>
        <time>2015-11-14T09:44:34.000Z</time>
      </trkpt>
      <trkpt lat="43.97424" lon="7.34292">
        <ele>1156.1999511719</ele>
        <time>2015-11-14T09:44:45.000Z</time>
      </trkpt>
      <trkpt lat="43.9741" lon="7.34307">
        <ele>1158.4000244141</ele>
        <time>2015-11-14T09:44:56.000Z</time>
      </trkpt>
      <trkpt lat="43.97402" lon="7.34331">
        <ele>1154.8000488281</ele>
        <time>2015-11-14T09:45:05.000Z</time>
      </trkpt>
      <trkpt lat="43.97386" lon="7.34341">
        <ele>1161.1999511719</ele>
        <time>2015-11-14T09:45:16.000Z</time>
      </trkpt>
      <trkpt lat="43.97371" lon="7.3434">
        <ele>1170.8000488281</ele>
        <time>2015-11-14T09:45:24.000Z</time>
      </trkpt>
      <trkpt lat="43.97364" lon="7.34342">
        <ele>1174.8000488281</ele>
        <time>2015-11-14T09:45:28.000Z</time>
      </trkpt>
      <trkpt lat="43.97353" lon="7.3435">
        <ele>1178.5999755859</ele>
        <time>2015-11-14T09:45:35.000Z</time>
      </trkpt>
      <trkpt lat="43.97349" lon="7.34367">
        <ele>1175.4000244141</ele>
        <time>2015-11-14T09:45:42.000Z</time>
      </trkpt>
      <trkpt lat="43.97348" lon="7.34383">
        <ele>1170.8000488281</ele>
        <time>2015-11-14T09:45:48.000Z</time>
      </trkpt>
      <trkpt lat="43.97341" lon="7.34398">
        <ele>1170</ele>
        <time>2015-11-14T09:45:54.000Z</time>
      </trkpt>
      <trkpt lat="43.97326" lon="7.34407">
        <ele>1177.1999511719</ele>
        <time>2015-11-14T09:46:02.000Z</time>
      </trkpt>
      <trkpt lat="43.97309" lon="7.34421">
        <ele>1185.1999511719</ele>
        <time>2015-11-14T09:46:12.000Z</time>
      </trkpt>
      <trkpt lat="43.97293" lon="7.34436">
        <ele>1192.4000244141</ele>
        <time>2015-11-14T09:46:22.000Z</time>
      </trkpt>
      <trkpt lat="43.97276" lon="7.34451">
        <ele>1201.1999511719</ele>
        <time>2015-11-14T09:46:32.000Z</time>
      </trkpt>
      <trkpt lat="43.97263" lon="7.3447">
        <ele>1205.1999511719</ele>
        <time>2015-11-14T09:46:41.000Z</time>
      </trkpt>
      <trkpt lat="43.97255" lon="7.34493">
        <ele>1206.8000488281</ele>
        <time>2015-11-14T09:46:48.000Z</time>
      </trkpt>
      <trkpt lat="43.97247" lon="7.34518">
        <ele>1213.8000488281</ele>
        <time>2015-11-14T09:46:57.000Z</time>
      </trkpt>
      <trkpt lat="43.97244" lon="7.34541">
        <ele>1219.5999755859</ele>
        <time>2015-11-14T09:47:06.000Z</time>
      </trkpt>
      <trkpt lat="43.97248" lon="7.34546">
        <ele>1218</ele>
        <time>2015-11-14T09:47:10.000Z</time>
      </trkpt>
      <trkpt lat="43.97253" lon="7.34548">
        <ele>1215</ele>
        <time>2015-11-14T09:47:13.000Z</time>
      </trkpt>
      <trkpt lat="43.97274" lon="7.34557">
        <ele>1203</ele>
        <time>2015-11-14T09:47:21.000Z</time>
      </trkpt>
      <trkpt lat="43.97291" lon="7.34571">
        <ele>1196.1999511719</ele>
        <time>2015-11-14T09:47:28.000Z</time>
      </trkpt>
      <trkpt lat="43.97308" lon="7.34583">
        <ele>1190</ele>
        <time>2015-11-14T09:47:38.000Z</time>
      </trkpt>
      <trkpt lat="43.97313" lon="7.34588">
        <ele>1190.1999511719</ele>
        <time>2015-11-14T09:47:41.000Z</time>
      </trkpt>
      <trkpt lat="43.97324" lon="7.34603">
        <ele>1193.8000488281</ele>
        <time>2015-11-14T09:47:48.000Z</time>
      </trkpt>
      <trkpt lat="43.97335" lon="7.34611">
        <ele>1193</ele>
        <time>2015-11-14T09:47:54.000Z</time>
      </trkpt>
      <trkpt lat="43.9735" lon="7.34609">
        <ele>1184</ele>
        <time>2015-11-14T09:48:02.000Z</time>
      </trkpt>
      <trkpt lat="43.97369" lon="7.34616">
        <ele>1179.8000488281</ele>
        <time>2015-11-14T09:48:13.000Z</time>
      </trkpt>
      <trkpt lat="43.97384" lon="7.3463">
        <ele>1182</ele>
        <time>2015-11-14T09:48:21.000Z</time>
      </trkpt>
      <trkpt lat="43.97395" lon="7.34652">
        <ele>1191.1999511719</ele>
        <time>2015-11-14T09:48:30.000Z</time>
      </trkpt>
      <trkpt lat="43.97397" lon="7.34654">
        <ele>1191.4000244141</ele>
        <time>2015-11-14T09:48:31.000Z</time>
      </trkpt>
      <trkpt lat="43.97415" lon="7.34663">
        <ele>1189.8000488281</ele>
        <time>2015-11-14T09:48:41.000Z</time>
      </trkpt>
      <trkpt lat="43.9743" lon="7.34676">
        <ele>1191.5999755859</ele>
        <time>2015-11-14T09:48:49.000Z</time>
      </trkpt>
      <trkpt lat="43.97444" lon="7.34687">
        <ele>1191.8000488281</ele>
        <time>2015-11-14T09:48:56.000Z</time>
      </trkpt>
      <trkpt lat="43.97461" lon="7.34702">
        <ele>1192.5999755859</ele>
        <time>2015-11-14T09:49:05.000Z</time>
      </trkpt>
      <trkpt lat="43.97472" lon="7.34712">
        <ele>1193.5999755859</ele>
        <time>2015-11-14T09:49:14.000Z</time>
      </trkpt>
      <trkpt lat="43.97483" lon="7.34715">
        <ele>1189.5999755859</ele>
        <time>2015-11-14T09:49:19.000Z</time>
      </trkpt>
      <trkpt lat="43.97502" lon="7.34719">
        <ele>1184.4000244141</ele>
        <time>2015-11-14T09:49:29.000Z</time>
      </trkpt>
      <trkpt lat="43.97504" lon="7.34726">
        <ele>1186.4000244141</ele>
        <time>2015-11-14T09:49:32.000Z</time>
      </trkpt>
      <trkpt lat="43.97509" lon="7.34737">
        <ele>1190.1999511719</ele>
        <time>2015-11-14T09:49:37.000Z</time>
      </trkpt>
      <trkpt lat="43.97526" lon="7.3475">
        <ele>1188.4000244141</ele>
        <time>2015-11-14T09:49:45.000Z</time>
      </trkpt>
      <trkpt lat="43.97543" lon="7.34761">
        <ele>1181</ele>
        <time>2015-11-14T09:49:54.000Z</time>
      </trkpt>
      <trkpt lat="43.97546" lon="7.34769">
        <ele>1178.4000244141</ele>
        <time>2015-11-14T09:49:58.000Z</time>
      </trkpt>
      <trkpt lat="43.97535" lon="7.34786">
        <ele>1183.4000244141</ele>
        <time>2015-11-14T09:50:07.000Z</time>
      </trkpt>
      <trkpt lat="43.97525" lon="7.34787">
        <ele>1187.8000488281</ele>
        <time>2015-11-14T09:50:12.000Z</time>
      </trkpt>
      <trkpt lat="43.97508" lon="7.34794">
        <ele>1196</ele>
        <time>2015-11-14T09:50:20.000Z</time>
      </trkpt>
      <trkpt lat="43.97491" lon="7.34805">
        <ele>1204.4000244141</ele>
        <time>2015-11-14T09:50:28.000Z</time>
      </trkpt>
      <trkpt lat="43.97476" lon="7.34819">
        <ele>1214.4000244141</ele>
        <time>2015-11-14T09:50:36.000Z</time>
      </trkpt>
      <trkpt lat="43.97472" lon="7.34825">
        <ele>1217.8000488281</ele>
        <time>2015-11-14T09:50:39.000Z</time>
      </trkpt>
      <trkpt lat="43.97467" lon="7.34826">
        <ele>1220.5999755859</ele>
        <time>2015-11-14T09:52:27.000Z</time>
      </trkpt>
      <trkpt lat="43.97472" lon="7.34829">
        <ele>1217.8000488281</ele>
        <time>2015-11-14T09:54:29.000Z</time>
      </trkpt>
      <trkpt lat="43.97474" lon="7.3483">
        <ele>1216.4000244141</ele>
        <time>2015-11-14T09:54:32.000Z</time>
      </trkpt>
      <trkpt lat="43.97473" lon="7.34846">
        <ele>1214.5999755859</ele>
        <time>2015-11-14T09:54:39.000Z</time>
      </trkpt>
      <trkpt lat="43.97468" lon="7.34869">
        <ele>1213</ele>
        <time>2015-11-14T09:54:49.000Z</time>
      </trkpt>
      <trkpt lat="43.97469" lon="7.34878">
        <ele>1211.1999511719</ele>
        <time>2015-11-14T09:54:53.000Z</time>
      </trkpt>
      <trkpt lat="43.97465" lon="7.34904">
        <ele>1208</ele>
        <time>2015-11-14T09:55:03.000Z</time>
      </trkpt>
      <trkpt lat="43.97467" lon="7.34922">
        <ele>1203.8000488281</ele>
        <time>2015-11-14T09:55:09.000Z</time>
      </trkpt>
      <trkpt lat="43.97471" lon="7.34941">
        <ele>1198</ele>
        <time>2015-11-14T09:55:17.000Z</time>
      </trkpt>
      <trkpt lat="43.97483" lon="7.34961">
        <ele>1187</ele>
        <time>2015-11-14T09:55:26.000Z</time>
      </trkpt>
      <trkpt lat="43.97487" lon="7.34985">
        <ele>1179</ele>
        <time>2015-11-14T09:55:32.000Z</time>
      </trkpt>
      <trkpt lat="43.97485" lon="7.35011">
        <ele>1174.5999755859</ele>
        <time>2015-11-14T09:55:40.000Z</time>
      </trkpt>
      <trkpt lat="43.97482" lon="7.35015">
        <ele>1175</ele>
        <time>2015-11-14T09:55:42.000Z</time>
      </trkpt>
      <trkpt lat="43.97477" lon="7.35037">
        <ele>1173.4000244141</ele>
        <time>2015-11-14T09:55:48.000Z</time>
      </trkpt>
      <trkpt lat="43.97466" lon="7.35057">
        <ele>1173.5999755859</ele>
        <time>2015-11-14T09:55:55.000Z</time>
      </trkpt>
      <trkpt lat="43.97462" lon="7.3507">
        <ele>1172.8000488281</ele>
        <time>2015-11-14T09:55:59.000Z</time>
      </trkpt>
      <trkpt lat="43.97454" lon="7.35096">
        <ele>1170.1999511719</ele>
        <time>2015-11-14T09:56:06.000Z</time>
      </trkpt>
      <trkpt lat="43.9745" lon="7.35107">
        <ele>1168.8000488281</ele>
        <time>2015-11-14T09:56:10.000Z</time>
      </trkpt>
      <trkpt lat="43.97445" lon="7.35124">
        <ele>1166.1999511719</ele>
        <time>2015-11-14T09:56:20.000Z</time>
      </trkpt>
      <trkpt lat="43.97432" lon="7.35143">
        <ele>1167.5999755859</ele>
        <time>2015-11-14T09:56:29.000Z</time>
      </trkpt>
      <trkpt lat="43.97424" lon="7.35163">
        <ele>1166</ele>
        <time>2015-11-14T09:56:36.000Z</time>
      </trkpt>
      <trkpt lat="43.97424" lon="7.35166">
        <ele>1165.5999755859</ele>
        <time>2015-11-14T09:56:38.000Z</time>
      </trkpt>
      <trkpt lat="43.97416" lon="7.35179">
        <ele>1171.1999511719</ele>
        <time>2015-11-14T09:56:46.000Z</time>
      </trkpt>
      <trkpt lat="43.97414" lon="7.35182">
        <ele>1172.8000488281</ele>
        <time>2015-11-14T09:56:48.000Z</time>
      </trkpt>
      <trkpt lat="43.97411" lon="7.3519">
        <ele>1175.1999511719</ele>
        <time>2015-11-14T09:56:52.000Z</time>
      </trkpt>
      <trkpt lat="43.9741" lon="7.35193">
        <ele>1176</ele>
        <time>2015-11-14T09:56:54.000Z</time>
      </trkpt>
      <trkpt lat="43.9742" lon="7.35211">
        <ele>1172</ele>
        <time>2015-11-14T09:57:48.000Z</time>
      </trkpt>
      <trkpt lat="43.97435" lon="7.35225">
        <ele>1165.4000244141</ele>
        <time>2015-11-14T09:57:57.000Z</time>
      </trkpt>
      <trkpt lat="43.97441" lon="7.35228">
        <ele>1162.4000244141</ele>
        <time>2015-11-14T09:57:59.000Z</time>
      </trkpt>
      <trkpt lat="43.97453" lon="7.35231">
        <ele>1157.5999755859</ele>
        <time>2015-11-14T09:58:04.000Z</time>
      </trkpt>
      <trkpt lat="43.97471" lon="7.35242">
        <ele>1151.8000488281</ele>
        <time>2015-11-14T09:58:11.000Z</time>
      </trkpt>
      <trkpt lat="43.97488" lon="7.35249">
        <ele>1146</ele>
        <time>2015-11-14T09:58:16.000Z</time>
      </trkpt>
      <trkpt lat="43.97508" lon="7.35255">
        <ele>1140.1999511719</ele>
        <time>2015-11-14T09:58:24.000Z</time>
      </trkpt>
      <trkpt lat="43.97511" lon="7.35256">
        <ele>1139.5999755859</ele>
        <time>2015-11-14T09:58:25.000Z</time>
      </trkpt>
      <trkpt lat="43.97515" lon="7.35259">
        <ele>1139</ele>
        <time>2015-11-14T09:58:27.000Z</time>
      </trkpt>
      <trkpt lat="43.97519" lon="7.35263">
        <ele>1138.8000488281</ele>
        <time>2015-11-14T09:58:29.000Z</time>
      </trkpt>
      <trkpt lat="43.97536" lon="7.35276">
        <ele>1133</ele>
        <time>2015-11-14T09:58:36.000Z</time>
      </trkpt>
      <trkpt lat="43.97554" lon="7.35278">
        <ele>1121</ele>
        <time>2015-11-14T09:58:43.000Z</time>
      </trkpt>
      <trkpt lat="43.97572" lon="7.35273">
        <ele>1112.5999755859</ele>
        <time>2015-11-14T09:58:50.000Z</time>
      </trkpt>
      <trkpt lat="43.97575" lon="7.35272">
        <ele>1111.4000244141</ele>
        <time>2015-11-14T09:58:51.000Z</time>
      </trkpt>
      <trkpt lat="43.97583" lon="7.35267">
        <ele>1107.4000244141</ele>
        <time>2015-11-14T09:58:56.000Z</time>
      </trkpt>
      <trkpt lat="43.97587" lon="7.35264">
        <ele>1105.4000244141</ele>
        <time>2015-11-14T09:59:00.000Z</time>
      </trkpt>
      <trkpt lat="43.97585" lon="7.35248">
        <ele>1104.8000488281</ele>
        <time>2015-11-14T09:59:11.000Z</time>
      </trkpt>
      <trkpt lat="43.97578" lon="7.35235">
        <ele>1106.5999755859</ele>
        <time>2015-11-14T09:59:25.000Z</time>
      </trkpt>
      <trkpt lat="43.9759" lon="7.35221">
        <ele>1098.5999755859</ele>
        <time>2015-11-14T09:59:40.000Z</time>
      </trkpt>
      <trkpt lat="43.97592" lon="7.35216">
        <ele>1096</ele>
        <time>2015-11-14T09:59:47.000Z</time>
      </trkpt>
      <trkpt lat="43.97592" lon="7.35215">
        <ele>1095.5999755859</ele>
        <time>2015-11-14T09:59:48.000Z</time>
      </trkpt>
      <trkpt lat="43.97587" lon="7.35214">
        <ele>1098.5999755859</ele>
        <time>2015-11-14T09:59:54.000Z</time>
      </trkpt>
      <trkpt lat="43.976" lon="7.35202">
        <ele>1087.4000244141</ele>
        <time>2015-11-14T10:00:05.000Z</time>
      </trkpt>
      <trkpt lat="43.9761" lon="7.35195">
        <ele>1080</ele>
        <time>2015-11-14T10:00:09.000Z</time>
      </trkpt>
      <trkpt lat="43.97628" lon="7.35181">
        <ele>1066.5999755859</ele>
        <time>2015-11-14T10:00:15.000Z</time>
      </trkpt>
      <trkpt lat="43.97646" lon="7.35177">
        <ele>1059</ele>
        <time>2015-11-14T10:00:21.000Z</time>
      </trkpt>
      <trkpt lat="43.97647" lon="7.35179">
        <ele>1058.5999755859</ele>
        <time>2015-11-14T10:00:22.000Z</time>
      </trkpt>
      <trkpt lat="43.9765" lon="7.35196">
        <ele>1059.4000244141</ele>
        <time>2015-11-14T10:00:26.000Z</time>
      </trkpt>
      <trkpt lat="43.97651" lon="7.35207">
        <ele>1060</ele>
        <time>2015-11-14T10:00:29.000Z</time>
      </trkpt>
      <trkpt lat="43.9765" lon="7.35232">
        <ele>1067.1999511719</ele>
        <time>2015-11-14T10:00:35.000Z</time>
      </trkpt>
      <trkpt lat="43.97649" lon="7.35237">
        <ele>1069</ele>
        <time>2015-11-14T10:00:36.000Z</time>
      </trkpt>
      <trkpt lat="43.97646" lon="7.35244">
        <ele>1072.5999755859</ele>
        <time>2015-11-14T10:00:38.000Z</time>
      </trkpt>
      <trkpt lat="43.9764" lon="7.35271">
        <ele>1080.4000244141</ele>
        <time>2015-11-14T10:00:45.000Z</time>
      </trkpt>
      <trkpt lat="43.97634" lon="7.35298">
        <ele>1086.4000244141</ele>
        <time>2015-11-14T10:00:52.000Z</time>
      </trkpt>
      <trkpt lat="43.97636" lon="7.35324">
        <ele>1087.5999755859</ele>
        <time>2015-11-14T10:01:00.000Z</time>
      </trkpt>
      <trkpt lat="43.97637" lon="7.35333">
        <ele>1088.4000244141</ele>
        <time>2015-11-14T10:01:06.000Z</time>
      </trkpt>
      <trkpt lat="43.97644" lon="7.3535">
        <ele>1090.4000244141</ele>
        <time>2015-11-14T10:01:19.000Z</time>
      </trkpt>
      <trkpt lat="43.97656" lon="7.35354">
        <ele>1085.1999511719</ele>
        <time>2015-11-14T10:02:12.000Z</time>
      </trkpt>
      <trkpt lat="43.97658" lon="7.35353">
        <ele>1084</ele>
        <time>2015-11-14T10:02:13.000Z</time>
      </trkpt>
      <trkpt lat="43.9766" lon="7.35343">
        <ele>1080.4000244141</ele>
        <time>2015-11-14T10:02:36.000Z</time>
      </trkpt>
      <trkpt lat="43.97661" lon="7.35344">
        <ele>1079.8000488281</ele>
        <time>2015-11-14T10:02:48.000Z</time>
      </trkpt>
      <trkpt lat="43.97663" lon="7.35342">
        <ele>1078.4000244141</ele>
        <time>2015-11-14T10:02:55.000Z</time>
      </trkpt>
      <trkpt lat="43.97677" lon="7.35322">
        <ele>1067</ele>
        <time>2015-11-14T10:03:02.000Z</time>
      </trkpt>
      <trkpt lat="43.97691" lon="7.35302">
        <ele>1056.8000488281</ele>
        <time>2015-11-14T10:03:08.000Z</time>
      </trkpt>
      <trkpt lat="43.97705" lon="7.35284">
        <ele>1057.4000244141</ele>
        <time>2015-11-14T10:03:14.000Z</time>
      </trkpt>
      <trkpt lat="43.97716" lon="7.35263">
        <ele>1055.8000488281</ele>
        <time>2015-11-14T10:03:20.000Z</time>
      </trkpt>
      <trkpt lat="43.97728" lon="7.35243">
        <ele>1051.4000244141</ele>
        <time>2015-11-14T10:03:27.000Z</time>
      </trkpt>
      <trkpt lat="43.97734" lon="7.35234">
        <ele>1051.1999511719</ele>
        <time>2015-11-14T10:03:31.000Z</time>
      </trkpt>
      <trkpt lat="43.97742" lon="7.35211">
        <ele>1048.4000244141</ele>
        <time>2015-11-14T10:03:38.000Z</time>
      </trkpt>
      <trkpt lat="43.97756" lon="7.35192">
        <ele>1038.4000244141</ele>
        <time>2015-11-14T10:03:46.000Z</time>
      </trkpt>
      <trkpt lat="43.97772" lon="7.35178">
        <ele>1029.8000488281</ele>
        <time>2015-11-14T10:03:53.000Z</time>
      </trkpt>
      <trkpt lat="43.97773" lon="7.35175">
        <ele>1028.5999755859</ele>
        <time>2015-11-14T10:03:54.000Z</time>
      </trkpt>
      <trkpt lat="43.97782" lon="7.35164">
        <ele>1025.8000488281</ele>
        <time>2015-11-14T10:03:59.000Z</time>
      </trkpt>
      <trkpt lat="43.978" lon="7.35153">
        <ele>1027.5999755859</ele>
        <time>2015-11-14T10:04:07.000Z</time>
      </trkpt>
      <trkpt lat="43.97806" lon="7.35146">
        <ele>1027.1999511719</ele>
        <time>2015-11-14T10:04:14.000Z</time>
      </trkpt>
      <trkpt lat="43.97816" lon="7.3513">
        <ele>1026.1999511719</ele>
        <time>2015-11-14T10:04:33.000Z</time>
      </trkpt>
      <trkpt lat="43.97834" lon="7.3512">
        <ele>1024.4000244141</ele>
        <time>2015-11-14T10:04:40.000Z</time>
      </trkpt>
      <trkpt lat="43.9785" lon="7.35107">
        <ele>1019.4000244141</ele>
        <time>2015-11-14T10:04:48.000Z</time>
      </trkpt>
      <trkpt lat="43.97853" lon="7.35106">
        <ele>1019.4000244141</ele>
        <time>2015-11-14T10:04:49.000Z</time>
      </trkpt>
      <trkpt lat="43.9786" lon="7.35101">
        <ele>1017.799987793</ele>
        <time>2015-11-14T10:04:53.000Z</time>
      </trkpt>
      <trkpt lat="43.97876" lon="7.35086">
        <ele>1016.4000244141</ele>
        <time>2015-11-14T10:05:03.000Z</time>
      </trkpt>
      <trkpt lat="43.9789" lon="7.35068">
        <ele>1016</ele>
        <time>2015-11-14T10:05:12.000Z</time>
      </trkpt>
      <trkpt lat="43.97903" lon="7.35049">
        <ele>1014.200012207</ele>
        <time>2015-11-14T10:05:21.000Z</time>
      </trkpt>
      <trkpt lat="43.97919" lon="7.35038">
        <ele>1014.200012207</ele>
        <time>2015-11-14T10:05:29.000Z</time>
      </trkpt>
      <trkpt lat="43.97939" lon="7.35034">
        <ele>1017.4000244141</ele>
        <time>2015-11-14T10:05:36.000Z</time>
      </trkpt>
      <trkpt lat="43.97958" lon="7.35031">
        <ele>1012.5999755859</ele>
        <time>2015-11-14T10:05:43.000Z</time>
      </trkpt>
      <trkpt lat="43.97973" lon="7.35024">
        <ele>1007</ele>
        <time>2015-11-14T10:05:55.000Z</time>
      </trkpt>
      <trkpt lat="43.97983" lon="7.35034">
        <ele>1009.200012207</ele>
        <time>2015-11-14T10:06:55.000Z</time>
      </trkpt>
      <trkpt lat="43.97995" lon="7.35053">
        <ele>1013.5999755859</ele>
        <time>2015-11-14T10:07:04.000Z</time>
      </trkpt>
      <trkpt lat="43.97997" lon="7.35055">
        <ele>1014.4000244141</ele>
        <time>2015-11-14T10:07:06.000Z</time>
      </trkpt>
      <trkpt lat="43.98008" lon="7.35076">
        <ele>1020.799987793</ele>
        <time>2015-11-14T10:07:19.000Z</time>
      </trkpt>
      <trkpt lat="43.98008" lon="7.35079">
        <ele>1022</ele>
        <time>2015-11-14T10:07:20.000Z</time>
      </trkpt>
      <trkpt lat="43.9801" lon="7.35106">
        <ele>1021.4000244141</ele>
        <time>2015-11-14T10:07:29.000Z</time>
      </trkpt>
      <trkpt lat="43.98009" lon="7.35112">
        <ele>1021.4000244141</ele>
        <time>2015-11-14T10:07:31.000Z</time>
      </trkpt>
      <trkpt lat="43.97997" lon="7.3513">
        <ele>1023.5999755859</ele>
        <time>2015-11-14T10:07:40.000Z</time>
      </trkpt>
      <trkpt lat="43.97996" lon="7.35131">
        <ele>1023.799987793</ele>
        <time>2015-11-14T10:07:41.000Z</time>
      </trkpt>
      <trkpt lat="43.9799" lon="7.3514">
        <ele>1027.1999511719</ele>
        <time>2015-11-14T10:07:46.000Z</time>
      </trkpt>
      <trkpt lat="43.97991" lon="7.35153">
        <ele>1029.8000488281</ele>
        <time>2015-11-14T10:07:51.000Z</time>
      </trkpt>
      <trkpt lat="43.97989" lon="7.35165">
        <ele>1033</ele>
        <time>2015-11-14T10:07:55.000Z</time>
      </trkpt>
      <trkpt lat="43.97985" lon="7.35181">
        <ele>1037</ele>
        <time>2015-11-14T10:08:00.000Z</time>
      </trkpt>
      <trkpt lat="43.97983" lon="7.35207">
        <ele>1040.1999511719</ele>
        <time>2015-11-14T10:08:07.000Z</time>
      </trkpt>
      <trkpt lat="43.97982" lon="7.35234">
        <ele>1044</ele>
        <time>2015-11-14T10:08:15.000Z</time>
      </trkpt>
      <trkpt lat="43.97983" lon="7.35239">
        <ele>1044</ele>
        <time>2015-11-14T10:08:17.000Z</time>
      </trkpt>
      <trkpt lat="43.97998" lon="7.35253">
        <ele>1039.5999755859</ele>
        <time>2015-11-14T10:08:28.000Z</time>
      </trkpt>
      <trkpt lat="43.98" lon="7.35252">
        <ele>1038.4000244141</ele>
        <time>2015-11-14T10:08:29.000Z</time>
      </trkpt>
      <trkpt lat="43.9802" lon="7.35254">
        <ele>1029</ele>
        <time>2015-11-14T10:08:41.000Z</time>
      </trkpt>
      <trkpt lat="43.98024" lon="7.35251">
        <ele>1025.8000488281</ele>
        <time>2015-11-14T10:08:48.000Z</time>
      </trkpt>
      <trkpt lat="43.98029" lon="7.35245">
        <ele>1022.5999755859</ele>
        <time>2015-11-14T10:08:52.000Z</time>
      </trkpt>
      <trkpt lat="43.98047" lon="7.35238">
        <ele>1017.200012207</ele>
        <time>2015-11-14T10:08:59.000Z</time>
      </trkpt>
      <trkpt lat="43.98049" lon="7.35238">
        <ele>1016.5999755859</ele>
        <time>2015-11-14T10:09:00.000Z</time>
      </trkpt>
      <trkpt lat="43.98067" lon="7.35237">
        <ele>1011.799987793</ele>
        <time>2015-11-14T10:09:07.000Z</time>
      </trkpt>
      <trkpt lat="43.9808" lon="7.35234">
        <ele>1008</ele>
        <time>2015-11-14T10:09:13.000Z</time>
      </trkpt>
      <trkpt lat="43.981" lon="7.35236">
        <ele>1002</ele>
        <time>2015-11-14T10:09:20.000Z</time>
      </trkpt>
      <trkpt lat="43.98112" lon="7.35241">
        <ele>997</ele>
        <time>2015-11-14T10:09:26.000Z</time>
      </trkpt>
      <trkpt lat="43.9813" lon="7.35244">
        <ele>988.79998779297</ele>
        <time>2015-11-14T10:09:33.000Z</time>
      </trkpt>
      <trkpt lat="43.98149" lon="7.35253">
        <ele>981.79998779297</ele>
        <time>2015-11-14T10:09:41.000Z</time>
      </trkpt>
      <trkpt lat="43.98163" lon="7.35268">
        <ele>977.40002441406</ele>
        <time>2015-11-14T10:09:50.000Z</time>
      </trkpt>
      <trkpt lat="43.98171" lon="7.35283">
        <ele>976.40002441406</ele>
        <time>2015-11-14T10:09:57.000Z</time>
      </trkpt>
      <trkpt lat="43.98171" lon="7.35288">
        <ele>977.40002441406</ele>
        <time>2015-11-14T10:10:02.000Z</time>
      </trkpt>
      <trkpt lat="43.98171" lon="7.35303">
        <ele>980.79998779297</ele>
        <time>2015-11-14T10:10:12.000Z</time>
      </trkpt>
      <trkpt lat="43.98171" lon="7.35329">
        <ele>991.20001220703</ele>
        <time>2015-11-14T10:10:20.000Z</time>
      </trkpt>
      <trkpt lat="43.98172" lon="7.35332">
        <ele>991.40002441406</ele>
        <time>2015-11-14T10:10:21.000Z</time>
      </trkpt>
      <trkpt lat="43.98178" lon="7.35355">
        <ele>988.59997558594</ele>
        <time>2015-11-14T10:10:29.000Z</time>
      </trkpt>
      <trkpt lat="43.98175" lon="7.35365">
        <ele>992</ele>
        <time>2015-11-14T10:10:33.000Z</time>
      </trkpt>
      <trkpt lat="43.98174" lon="7.35367">
        <ele>993.20001220703</ele>
        <time>2015-11-14T10:10:34.000Z</time>
      </trkpt>
      <trkpt lat="43.98174" lon="7.35392">
        <ele>994.59997558594</ele>
        <time>2015-11-14T10:10:43.000Z</time>
      </trkpt>
      <trkpt lat="43.98175" lon="7.35417">
        <ele>998</ele>
        <time>2015-11-14T10:10:52.000Z</time>
      </trkpt>
      <trkpt lat="43.98176" lon="7.35432">
        <ele>1002.4000244141</ele>
        <time>2015-11-14T10:10:57.000Z</time>
      </trkpt>
      <trkpt lat="43.98174" lon="7.35444">
        <ele>1007.5999755859</ele>
        <time>2015-11-14T10:11:03.000Z</time>
      </trkpt>
      <trkpt lat="43.98176" lon="7.35447">
        <ele>1007.4000244141</ele>
        <time>2015-11-14T10:11:08.000Z</time>
      </trkpt>
      <trkpt lat="43.98185" lon="7.35446">
        <ele>999.40002441406</ele>
        <time>2015-11-14T10:11:14.000Z</time>
      </trkpt>
      <trkpt lat="43.98203" lon="7.35454">
        <ele>991.20001220703</ele>
        <time>2015-11-14T10:11:21.000Z</time>
      </trkpt>
      <trkpt lat="43.9822" lon="7.3545">
        <ele>982.59997558594</ele>
        <time>2015-11-14T10:11:32.000Z</time>
      </trkpt>
      <trkpt lat="43.98221" lon="7.3545">
        <ele>982</ele>
        <time>2015-11-14T10:11:33.000Z</time>
      </trkpt>
      <trkpt lat="43.98226" lon="7.35448">
        <ele>979.40002441406</ele>
        <time>2015-11-14T10:11:36.000Z</time>
      </trkpt>
      <trkpt lat="43.98232" lon="7.35448">
        <ele>975.59997558594</ele>
        <time>2015-11-14T10:11:41.000Z</time>
      </trkpt>
      <trkpt lat="43.9825" lon="7.35447">
        <ele>965.40002441406</ele>
        <time>2015-11-14T10:11:54.000Z</time>
      </trkpt>
      <trkpt lat="43.98269" lon="7.3545">
        <ele>956.40002441406</ele>
        <time>2015-11-14T10:12:03.000Z</time>
      </trkpt>
      <trkpt lat="43.98289" lon="7.3545">
        <ele>948</ele>
        <time>2015-11-14T10:12:13.000Z</time>
      </trkpt>
      <trkpt lat="43.98299" lon="7.3545">
        <ele>943.79998779297</ele>
        <time>2015-11-14T10:12:19.000Z</time>
      </trkpt>
      <trkpt lat="43.98315" lon="7.35443">
        <ele>936.40002441406</ele>
        <time>2015-11-14T10:12:29.000Z</time>
      </trkpt>
      <trkpt lat="43.98333" lon="7.35438">
        <ele>930.40002441406</ele>
        <time>2015-11-14T10:12:38.000Z</time>
      </trkpt>
      <trkpt lat="43.98353" lon="7.35441">
        <ele>926.59997558594</ele>
        <time>2015-11-14T10:12:46.000Z</time>
      </trkpt>
      <trkpt lat="43.98363" lon="7.3544">
        <ele>922.59997558594</ele>
        <time>2015-11-14T10:12:51.000Z</time>
      </trkpt>
      <trkpt lat="43.98381" lon="7.35447">
        <ele>917.40002441406</ele>
        <time>2015-11-14T10:13:00.000Z</time>
      </trkpt>
      <trkpt lat="43.98385" lon="7.35452">
        <ele>917.20001220703</ele>
        <time>2015-11-14T10:13:04.000Z</time>
      </trkpt>
      <trkpt lat="43.98392" lon="7.35464">
        <ele>918.59997558594</ele>
        <time>2015-11-14T10:13:11.000Z</time>
      </trkpt>
      <trkpt lat="43.984" lon="7.35487">
        <ele>922.79998779297</ele>
        <time>2015-11-14T10:13:20.000Z</time>
      </trkpt>
      <trkpt lat="43.984" lon="7.35512">
        <ele>929</ele>
        <time>2015-11-14T10:13:26.000Z</time>
      </trkpt>
      <trkpt lat="43.98403" lon="7.35537">
        <ele>932.20001220703</ele>
        <time>2015-11-14T10:13:33.000Z</time>
      </trkpt>
      <trkpt lat="43.98406" lon="7.35543">
        <ele>931.79998779297</ele>
        <time>2015-11-14T10:13:38.000Z</time>
      </trkpt>
      <trkpt lat="43.98417" lon="7.35544">
        <ele>927.40002441406</ele>
        <time>2015-11-14T10:15:08.000Z</time>
      </trkpt>
      <trkpt lat="43.98431" lon="7.35528">
        <ele>918.59997558594</ele>
        <time>2015-11-14T10:15:29.000Z</time>
      </trkpt>
      <trkpt lat="43.98439" lon="7.35502">
        <ele>910.79998779297</ele>
        <time>2015-11-14T10:15:41.000Z</time>
      </trkpt>
      <trkpt lat="43.98447" lon="7.35478">
        <ele>910.59997558594</ele>
        <time>2015-11-14T10:15:50.000Z</time>
      </trkpt>
      <trkpt lat="43.98457" lon="7.35463">
        <ele>914.59997558594</ele>
        <time>2015-11-14T10:15:59.000Z</time>
      </trkpt>
      <trkpt lat="43.98458" lon="7.35456">
        <ele>915</ele>
        <time>2015-11-14T10:16:04.000Z</time>
      </trkpt>
      <trkpt lat="43.98463" lon="7.35436">
        <ele>916</ele>
        <time>2015-11-14T10:16:17.000Z</time>
      </trkpt>
      <trkpt lat="43.98465" lon="7.35429">
        <ele>916</ele>
        <time>2015-11-14T10:16:23.000Z</time>
      </trkpt>
      <trkpt lat="43.98465" lon="7.35425">
        <ele>915.59997558594</ele>
        <time>2015-11-14T10:16:26.000Z</time>
      </trkpt>
      <trkpt lat="43.98466" lon="7.35408">
        <ele>915</ele>
        <time>2015-11-14T10:16:37.000Z</time>
      </trkpt>
      <trkpt lat="43.98475" lon="7.35385">
        <ele>918.20001220703</ele>
        <time>2015-11-14T10:16:57.000Z</time>
      </trkpt>
      <trkpt lat="43.98476" lon="7.35359">
        <ele>918.20001220703</ele>
        <time>2015-11-14T10:17:15.000Z</time>
      </trkpt>
      <trkpt lat="43.98471" lon="7.35334">
        <ele>915.59997558594</ele>
        <time>2015-11-14T10:17:29.000Z</time>
      </trkpt>
      <trkpt lat="43.98471" lon="7.35331">
        <ele>915.40002441406</ele>
        <time>2015-11-14T10:17:31.000Z</time>
      </trkpt>
      <trkpt lat="43.98471" lon="7.35328">
        <ele>915.59997558594</ele>
        <time>2015-11-14T10:17:33.000Z</time>
      </trkpt>
      <trkpt lat="43.98466" lon="7.35311">
        <ele>914.59997558594</ele>
        <time>2015-11-14T10:17:43.000Z</time>
      </trkpt>
      <trkpt lat="43.98463" lon="7.35293">
        <ele>914.59997558594</ele>
        <time>2015-11-14T10:17:55.000Z</time>
      </trkpt>
      <trkpt lat="43.98468" lon="7.35288">
        <ele>916.59997558594</ele>
        <time>2015-11-14T10:18:59.000Z</time>
      </trkpt>
      <trkpt lat="43.98472" lon="7.35286">
        <ele>918.40002441406</ele>
        <time>2015-11-14T10:19:13.000Z</time>
      </trkpt>
      <trkpt lat="43.98478" lon="7.35283">
        <ele>920.59997558594</ele>
        <time>2015-11-14T10:19:18.000Z</time>
      </trkpt>
      <trkpt lat="43.98489" lon="7.35277">
        <ele>922.59997558594</ele>
        <time>2015-11-14T10:19:30.000Z</time>
      </trkpt>
      <trkpt lat="43.98509" lon="7.35274">
        <ele>926.40002441406</ele>
        <time>2015-11-14T10:19:42.000Z</time>
      </trkpt>
      <trkpt lat="43.98511" lon="7.35273">
        <ele>926.59997558594</ele>
        <time>2015-11-14T10:19:43.000Z</time>
      </trkpt>
      <trkpt lat="43.98524" lon="7.35254">
        <ele>927.40002441406</ele>
        <time>2015-11-14T10:19:53.000Z</time>
      </trkpt>
      <trkpt lat="43.98522" lon="7.35231">
        <ele>926.59997558594</ele>
        <time>2015-11-14T10:20:06.000Z</time>
      </trkpt>
      <trkpt lat="43.98513" lon="7.35221">
        <ele>923.79998779297</ele>
        <time>2015-11-14T10:20:11.000Z</time>
      </trkpt>
      <trkpt lat="43.98502" lon="7.35201">
        <ele>920</ele>
        <time>2015-11-14T10:20:19.000Z</time>
      </trkpt>
      <trkpt lat="43.98492" lon="7.35177">
        <ele>917.40002441406</ele>
        <time>2015-11-14T10:20:28.000Z</time>
      </trkpt>
      <trkpt lat="43.98484" lon="7.35152">
        <ele>913.20001220703</ele>
        <time>2015-11-14T10:20:37.000Z</time>
      </trkpt>
      <trkpt lat="43.98478" lon="7.35128">
        <ele>908</ele>
        <time>2015-11-14T10:20:46.000Z</time>
      </trkpt>
      <trkpt lat="43.98471" lon="7.35102">
        <ele>904.59997558594</ele>
        <time>2015-11-14T10:20:55.000Z</time>
      </trkpt>
      <trkpt lat="43.98463" lon="7.35079">
        <ele>903</ele>
        <time>2015-11-14T10:21:03.000Z</time>
      </trkpt>
      <trkpt lat="43.98452" lon="7.35058">
        <ele>896.40002441406</ele>
        <time>2015-11-14T10:21:11.000Z</time>
      </trkpt>
      <trkpt lat="43.98437" lon="7.3504">
        <ele>888.79998779297</ele>
        <time>2015-11-14T10:21:19.000Z</time>
      </trkpt>
      <trkpt lat="43.98426" lon="7.35018">
        <ele>884.79998779297</ele>
        <time>2015-11-14T10:21:27.000Z</time>
      </trkpt>
      <trkpt lat="43.98424" lon="7.34993">
        <ele>884.79998779297</ele>
        <time>2015-11-14T10:21:34.000Z</time>
      </trkpt>
      <trkpt lat="43.98425" lon="7.34967">
        <ele>882.59997558594</ele>
        <time>2015-11-14T10:21:41.000Z</time>
      </trkpt>
      <trkpt lat="43.98428" lon="7.34939">
        <ele>879.79998779297</ele>
        <time>2015-11-14T10:21:49.000Z</time>
      </trkpt>
      <trkpt lat="43.98438" lon="7.34917">
        <ele>880.79998779297</ele>
        <time>2015-11-14T10:21:56.000Z</time>
      </trkpt>
      <trkpt lat="43.98455" lon="7.34908">
        <ele>888.59997558594</ele>
        <time>2015-11-14T10:22:03.000Z</time>
      </trkpt>
      <trkpt lat="43.98473" lon="7.349">
        <ele>897.40002441406</ele>
        <time>2015-11-14T10:22:10.000Z</time>
      </trkpt>
      <trkpt lat="43.98481" lon="7.34878">
        <ele>899.20001220703</ele>
        <time>2015-11-14T10:22:17.000Z</time>
      </trkpt>
      <trkpt lat="43.98474" lon="7.34852">
        <ele>892.20001220703</ele>
        <time>2015-11-14T10:22:26.000Z</time>
      </trkpt>
      <trkpt lat="43.98465" lon="7.3483">
        <ele>884.59997558594</ele>
        <time>2015-11-14T10:22:33.000Z</time>
      </trkpt>
      <trkpt lat="43.98454" lon="7.34809">
        <ele>876.59997558594</ele>
        <time>2015-11-14T10:22:40.000Z</time>
      </trkpt>
      <trkpt lat="43.98442" lon="7.3479">
        <ele>868.20001220703</ele>
        <time>2015-11-14T10:22:47.000Z</time>
      </trkpt>
      <trkpt lat="43.98435" lon="7.34765">
        <ele>863.59997558594</ele>
        <time>2015-11-14T10:22:54.000Z</time>
      </trkpt>
      <trkpt lat="43.98437" lon="7.34741">
        <ele>863.20001220703</ele>
        <time>2015-11-14T10:23:01.000Z</time>
      </trkpt>
      <trkpt lat="43.98446" lon="7.34718">
        <ele>867.20001220703</ele>
        <time>2015-11-14T10:23:08.000Z</time>
      </trkpt>
      <trkpt lat="43.98452" lon="7.34694">
        <ele>869</ele>
        <time>2015-11-14T10:23:15.000Z</time>
      </trkpt>
      <trkpt lat="43.98441" lon="7.34673">
        <ele>859.40002441406</ele>
        <time>2015-11-14T10:23:22.000Z</time>
      </trkpt>
      <trkpt lat="43.98434" lon="7.34649">
        <ele>853.79998779297</ele>
        <time>2015-11-14T10:23:29.000Z</time>
      </trkpt>
      <trkpt lat="43.98434" lon="7.34645">
        <ele>853.59997558594</ele>
        <time>2015-11-14T10:23:30.000Z</time>
      </trkpt>
      <trkpt lat="43.98444" lon="7.34623">
        <ele>857.59997558594</ele>
        <time>2015-11-14T10:23:37.000Z</time>
      </trkpt>
      <trkpt lat="43.98446" lon="7.34621">
        <ele>858.79998779297</ele>
        <time>2015-11-14T10:23:38.000Z</time>
      </trkpt>
      <trkpt lat="43.98455" lon="7.34598">
        <ele>863.20001220703</ele>
        <time>2015-11-14T10:23:45.000Z</time>
      </trkpt>
      <trkpt lat="43.98454" lon="7.34594">
        <ele>862</ele>
        <time>2015-11-14T10:23:46.000Z</time>
      </trkpt>
      <trkpt lat="43.98442" lon="7.34573">
        <ele>853.40002441406</ele>
        <time>2015-11-14T10:23:53.000Z</time>
      </trkpt>
      <trkpt lat="43.98439" lon="7.34567">
        <ele>852</ele>
        <time>2015-11-14T10:23:55.000Z</time>
      </trkpt>
      <trkpt lat="43.98435" lon="7.34543">
        <ele>851.59997558594</ele>
        <time>2015-11-14T10:24:02.000Z</time>
      </trkpt>
      <trkpt lat="43.98428" lon="7.34519">
        <ele>850.20001220703</ele>
        <time>2015-11-14T10:24:09.000Z</time>
      </trkpt>
      <trkpt lat="43.9842" lon="7.34497">
        <ele>847.40002441406</ele>
        <time>2015-11-14T10:24:16.000Z</time>
      </trkpt>
      <trkpt lat="43.98413" lon="7.34473">
        <ele>844.40002441406</ele>
        <time>2015-11-14T10:24:23.000Z</time>
      </trkpt>
      <trkpt lat="43.98405" lon="7.34449">
        <ele>842.79998779297</ele>
        <time>2015-11-14T10:24:30.000Z</time>
      </trkpt>
      <trkpt lat="43.98398" lon="7.34426">
        <ele>841.59997558594</ele>
        <time>2015-11-14T10:24:37.000Z</time>
      </trkpt>
      <trkpt lat="43.98391" lon="7.34402">
        <ele>842.79998779297</ele>
        <time>2015-11-14T10:24:44.000Z</time>
      </trkpt>
      <trkpt lat="43.98386" lon="7.34377">
        <ele>846.79998779297</ele>
        <time>2015-11-14T10:24:51.000Z</time>
      </trkpt>
      <trkpt lat="43.98375" lon="7.34356">
        <ele>845.59997558594</ele>
        <time>2015-11-14T10:24:58.000Z</time>
      </trkpt>
      <trkpt lat="43.98363" lon="7.34337">
        <ele>843</ele>
        <time>2015-11-14T10:25:05.000Z</time>
      </trkpt>
      <trkpt lat="43.9835" lon="7.34318">
        <ele>839.79998779297</ele>
        <time>2015-11-14T10:25:12.000Z</time>
      </trkpt>
      <trkpt lat="43.98345" lon="7.34314">
        <ele>838.20001220703</ele>
        <time>2015-11-14T10:25:14.000Z</time>
      </trkpt>
      <trkpt lat="43.98328" lon="7.34305">
        <ele>831.79998779297</ele>
        <time>2015-11-14T10:25:21.000Z</time>
      </trkpt>
      <trkpt lat="43.98311" lon="7.34295">
        <ele>825.40002441406</ele>
        <time>2015-11-14T10:25:28.000Z</time>
      </trkpt>
      <trkpt lat="43.98293" lon="7.34283">
        <ele>819.20001220703</ele>
        <time>2015-11-14T10:25:35.000Z</time>
      </trkpt>
      <trkpt lat="43.98279" lon="7.34266">
        <ele>815.79998779297</ele>
        <time>2015-11-14T10:25:42.000Z</time>
      </trkpt>
      <trkpt lat="43.98281" lon="7.3424">
        <ele>818.59997558594</ele>
        <time>2015-11-14T10:25:49.000Z</time>
      </trkpt>
      <trkpt lat="43.98292" lon="7.34219">
        <ele>821.20001220703</ele>
        <time>2015-11-14T10:25:56.000Z</time>
      </trkpt>
      <trkpt lat="43.98298" lon="7.34194">
        <ele>820.20001220703</ele>
        <time>2015-11-14T10:26:03.000Z</time>
      </trkpt>
      <trkpt lat="43.98295" lon="7.34166">
        <ele>811.59997558594</ele>
        <time>2015-11-14T10:26:10.000Z</time>
      </trkpt>
      <trkpt lat="43.98291" lon="7.34139">
        <ele>806.40002441406</ele>
        <time>2015-11-14T10:26:17.000Z</time>
      </trkpt>
      <trkpt lat="43.98286" lon="7.34112">
        <ele>802</ele>
        <time>2015-11-14T10:26:24.000Z</time>
      </trkpt>
      <trkpt lat="43.98287" lon="7.34109">
        <ele>801.79998779297</ele>
        <time>2015-11-14T10:26:25.000Z</time>
      </trkpt>
      <trkpt lat="43.983" lon="7.34091">
        <ele>803.40002441406</ele>
        <time>2015-11-14T10:26:33.000Z</time>
      </trkpt>
      <trkpt lat="43.98302" lon="7.34091">
        <ele>804.20001220703</ele>
        <time>2015-11-14T10:26:34.000Z</time>
      </trkpt>
      <trkpt lat="43.9831" lon="7.34093">
        <ele>807</ele>
        <time>2015-11-14T10:26:39.000Z</time>
      </trkpt>
      <trkpt lat="43.98314" lon="7.34099">
        <ele>809.20001220703</ele>
        <time>2015-11-14T10:27:47.000Z</time>
      </trkpt>
      <trkpt lat="43.98325" lon="7.34121">
        <ele>816.79998779297</ele>
        <time>2015-11-14T10:27:55.000Z</time>
      </trkpt>
      <trkpt lat="43.9834" lon="7.34139">
        <ele>824.79998779297</ele>
        <time>2015-11-14T10:28:03.000Z</time>
      </trkpt>
      <trkpt lat="43.98356" lon="7.34153">
        <ele>832.20001220703</ele>
        <time>2015-11-14T10:28:11.000Z</time>
      </trkpt>
      <trkpt lat="43.98373" lon="7.3416">
        <ele>838.20001220703</ele>
        <time>2015-11-14T10:28:20.000Z</time>
      </trkpt>
      <trkpt lat="43.98392" lon="7.34163">
        <ele>843.20001220703</ele>
        <time>2015-11-14T10:28:29.000Z</time>
      </trkpt>
      <trkpt lat="43.98409" lon="7.34154">
        <ele>845.79998779297</ele>
        <time>2015-11-14T10:28:37.000Z</time>
      </trkpt>
      <trkpt lat="43.98417" lon="7.34131">
        <ele>841.20001220703</ele>
        <time>2015-11-14T10:28:45.000Z</time>
      </trkpt>
      <trkpt lat="43.98425" lon="7.34107">
        <ele>830.40002441406</ele>
        <time>2015-11-14T10:28:53.000Z</time>
      </trkpt>
      <trkpt lat="43.98442" lon="7.341">
        <ele>827.20001220703</ele>
        <time>2015-11-14T10:29:02.000Z</time>
      </trkpt>
      <trkpt lat="43.9846" lon="7.34095">
        <ele>833.59997558594</ele>
        <time>2015-11-14T10:29:10.000Z</time>
      </trkpt>
      <trkpt lat="43.98475" lon="7.34082">
        <ele>835</ele>
        <time>2015-11-14T10:29:18.000Z</time>
      </trkpt>
      <trkpt lat="43.9849" lon="7.34063">
        <ele>828.40002441406</ele>
        <time>2015-11-14T10:29:25.000Z</time>
      </trkpt>
      <trkpt lat="43.98504" lon="7.34047">
        <ele>823.20001220703</ele>
        <time>2015-11-14T10:29:32.000Z</time>
      </trkpt>
      <trkpt lat="43.9852" lon="7.34033">
        <ele>821.40002441406</ele>
        <time>2015-11-14T10:29:39.000Z</time>
      </trkpt>
      <trkpt lat="43.98539" lon="7.3404">
        <ele>836.79998779297</ele>
        <time>2015-11-14T10:29:47.000Z</time>
      </trkpt>
      <trkpt lat="43.98541" lon="7.34039">
        <ele>837.20001220703</ele>
        <time>2015-11-14T10:29:48.000Z</time>
      </trkpt>
      <trkpt lat="43.9855" lon="7.34017">
        <ele>827</ele>
        <time>2015-11-14T10:29:55.000Z</time>
      </trkpt>
      <trkpt lat="43.98547" lon="7.34001">
        <ele>815.59997558594</ele>
        <time>2015-11-14T10:30:00.000Z</time>
      </trkpt>
      <trkpt lat="43.98548" lon="7.33976">
        <ele>803.40002441406</ele>
        <time>2015-11-14T10:30:08.000Z</time>
      </trkpt>
      <trkpt lat="43.98548" lon="7.3395">
        <ele>790.20001220703</ele>
        <time>2015-11-14T10:30:16.000Z</time>
      </trkpt>
      <trkpt lat="43.98548" lon="7.33925">
        <ele>778.20001220703</ele>
        <time>2015-11-14T10:30:23.000Z</time>
      </trkpt>
      <trkpt lat="43.98556" lon="7.33901">
        <ele>778.79998779297</ele>
        <time>2015-11-14T10:30:30.000Z</time>
      </trkpt>
      <trkpt lat="43.98562" lon="7.33875">
        <ele>782.59997558594</ele>
        <time>2015-11-14T10:30:37.000Z</time>
      </trkpt>
      <trkpt lat="43.98556" lon="7.33851">
        <ele>777.40002441406</ele>
        <time>2015-11-14T10:30:43.000Z</time>
      </trkpt>
      <trkpt lat="43.98544" lon="7.33827">
        <ele>768</ele>
        <time>2015-11-14T10:30:50.000Z</time>
      </trkpt>
      <trkpt lat="43.98534" lon="7.33806">
        <ele>762.20001220703</ele>
        <time>2015-11-14T10:30:56.000Z</time>
      </trkpt>
      <trkpt lat="43.98527" lon="7.33783">
        <ele>759</ele>
        <time>2015-11-14T10:31:02.000Z</time>
      </trkpt>
      <trkpt lat="43.98521" lon="7.33758">
        <ele>757.40002441406</ele>
        <time>2015-11-14T10:31:08.000Z</time>
      </trkpt>
      <trkpt lat="43.98517" lon="7.33732">
        <ele>753.20001220703</ele>
        <time>2015-11-14T10:31:14.000Z</time>
      </trkpt>
      <trkpt lat="43.98524" lon="7.33709">
        <ele>751</ele>
        <time>2015-11-14T10:31:20.000Z</time>
      </trkpt>
      <trkpt lat="43.98538" lon="7.33693">
        <ele>758.79998779297</ele>
        <time>2015-11-14T10:31:26.000Z</time>
      </trkpt>
      <trkpt lat="43.98558" lon="7.33683">
        <ele>773.20001220703</ele>
        <time>2015-11-14T10:31:33.000Z</time>
      </trkpt>
      <trkpt lat="43.98573" lon="7.33666">
        <ele>783.79998779297</ele>
        <time>2015-11-14T10:31:40.000Z</time>
      </trkpt>
      <trkpt lat="43.98578" lon="7.33639">
        <ele>782</ele>
        <time>2015-11-14T10:31:47.000Z</time>
      </trkpt>
      <trkpt lat="43.98573" lon="7.33612">
        <ele>766</ele>
        <time>2015-11-14T10:31:53.000Z</time>
      </trkpt>
      <trkpt lat="43.98569" lon="7.33601">
        <ele>757.20001220703</ele>
        <time>2015-11-14T10:31:56.000Z</time>
      </trkpt>
      <trkpt lat="43.98561" lon="7.33575">
        <ele>740.20001220703</ele>
        <time>2015-11-14T10:32:03.000Z</time>
      </trkpt>
      <trkpt lat="43.98558" lon="7.33547">
        <ele>731.59997558594</ele>
        <time>2015-11-14T10:32:10.000Z</time>
      </trkpt>
      <trkpt lat="43.98555" lon="7.33519">
        <ele>722.59997558594</ele>
        <time>2015-11-14T10:32:17.000Z</time>
      </trkpt>
      <trkpt lat="43.98551" lon="7.33492">
        <ele>715</ele>
        <time>2015-11-14T10:32:24.000Z</time>
      </trkpt>
      <trkpt lat="43.98551" lon="7.33465">
        <ele>717.59997558594</ele>
        <time>2015-11-14T10:32:31.000Z</time>
      </trkpt>
      <trkpt lat="43.98559" lon="7.33442">
        <ele>722.59997558594</ele>
        <time>2015-11-14T10:32:38.000Z</time>
      </trkpt>
      <trkpt lat="43.9857" lon="7.33431">
        <ele>722.20001220703</ele>
        <time>2015-11-14T10:32:46.000Z</time>
      </trkpt>
      <trkpt lat="43.98573" lon="7.3343">
        <ele>722.40002441406</ele>
        <time>2015-11-14T10:32:50.000Z</time>
      </trkpt>
      <trkpt lat="43.98578" lon="7.33435">
        <ele>724.59997558594</ele>
        <time>2015-11-14T10:34:44.000Z</time>
      </trkpt>
      <trkpt lat="43.98587" lon="7.33447">
        <ele>729.79998779297</ele>
        <time>2015-11-14T10:35:27.000Z</time>
      </trkpt>
      <trkpt lat="43.98589" lon="7.33451">
        <ele>731.20001220703</ele>
        <time>2015-11-14T10:35:31.000Z</time>
      </trkpt>
      <trkpt lat="43.98604" lon="7.33466">
        <ele>738.20001220703</ele>
        <time>2015-11-14T10:35:49.000Z</time>
      </trkpt>
      <trkpt lat="43.9862" lon="7.33478">
        <ele>745.59997558594</ele>
        <time>2015-11-14T10:36:04.000Z</time>
      </trkpt>
      <trkpt lat="43.98634" lon="7.33485">
        <ele>751.59997558594</ele>
        <time>2015-11-14T10:36:16.000Z</time>
      </trkpt>
      <trkpt lat="43.98638" lon="7.33488">
        <ele>753.40002441406</ele>
        <time>2015-11-14T10:36:20.000Z</time>
      </trkpt>
      <trkpt lat="43.98644" lon="7.33493">
        <ele>756.40002441406</ele>
        <time>2015-11-14T10:36:26.000Z</time>
      </trkpt>
      <trkpt lat="43.98658" lon="7.33509">
        <ele>769</ele>
        <time>2015-11-14T10:36:38.000Z</time>
      </trkpt>
      <trkpt lat="43.98664" lon="7.33515">
        <ele>774.59997558594</ele>
        <time>2015-11-14T10:36:43.000Z</time>
      </trkpt>
      <trkpt lat="43.98665" lon="7.33516">
        <ele>775.40002441406</ele>
        <time>2015-11-14T10:36:44.000Z</time>
      </trkpt>
      <trkpt lat="43.98681" lon="7.33522">
        <ele>784</ele>
        <time>2015-11-14T10:37:04.000Z</time>
      </trkpt>
      <trkpt lat="43.98684" lon="7.33522">
        <ele>785</ele>
        <time>2015-11-14T10:37:06.000Z</time>
      </trkpt>
      <trkpt lat="43.98698" lon="7.33525">
        <ele>788.40002441406</ele>
        <time>2015-11-14T10:37:15.000Z</time>
      </trkpt>
      <trkpt lat="43.98713" lon="7.33517">
        <ele>782.40002441406</ele>
        <time>2015-11-14T10:37:23.000Z</time>
      </trkpt>
      <trkpt lat="43.98723" lon="7.33518">
        <ele>782.20001220703</ele>
        <time>2015-11-14T10:37:29.000Z</time>
      </trkpt>
      <trkpt lat="43.98741" lon="7.33532">
        <ele>790</ele>
        <time>2015-11-14T10:37:39.000Z</time>
      </trkpt>
      <trkpt lat="43.98758" lon="7.3354">
        <ele>794.20001220703</ele>
        <time>2015-11-14T10:37:49.000Z</time>
      </trkpt>
      <trkpt lat="43.98776" lon="7.33548">
        <ele>798</ele>
        <time>2015-11-14T10:38:00.000Z</time>
      </trkpt>
      <trkpt lat="43.98793" lon="7.33559">
        <ele>799.79998779297</ele>
        <time>2015-11-14T10:38:10.000Z</time>
      </trkpt>
      <trkpt lat="43.98803" lon="7.3356">
        <ele>796.79998779297</ele>
        <time>2015-11-14T10:38:17.000Z</time>
      </trkpt>
      <trkpt lat="43.98784" lon="7.33559">
        <ele>802.59997558594</ele>
        <time>2015-11-14T10:38:30.000Z</time>
      </trkpt>
      <trkpt lat="43.98765" lon="7.33559">
        <ele>806.79998779297</ele>
        <time>2015-11-14T10:38:41.000Z</time>
      </trkpt>
      <trkpt lat="43.98749" lon="7.3356">
        <ele>809</ele>
        <time>2015-11-14T10:38:51.000Z</time>
      </trkpt>
      <trkpt lat="43.98759" lon="7.33564">
        <ele>811</ele>
        <time>2015-11-14T10:38:58.000Z</time>
      </trkpt>
      <trkpt lat="43.98776" lon="7.33574">
        <ele>816</ele>
        <time>2015-11-14T10:39:08.000Z</time>
      </trkpt>
      <trkpt lat="43.98787" lon="7.3358">
        <ele>816.40002441406</ele>
        <time>2015-11-14T10:39:16.000Z</time>
      </trkpt>
      <trkpt lat="43.98781" lon="7.33581">
        <ele>819</ele>
        <time>2015-11-14T10:39:23.000Z</time>
      </trkpt>
      <trkpt lat="43.98766" lon="7.3358">
        <ele>821.20001220703</ele>
        <time>2015-11-14T10:39:33.000Z</time>
      </trkpt>
      <trkpt lat="43.98748" lon="7.33576">
        <ele>819.40002441406</ele>
        <time>2015-11-14T10:39:44.000Z</time>
      </trkpt>
      <trkpt lat="43.98729" lon="7.3357">
        <ele>816</ele>
        <time>2015-11-14T10:39:54.000Z</time>
      </trkpt>
      <trkpt lat="43.98722" lon="7.33569">
        <ele>815.79998779297</ele>
        <time>2015-11-14T10:39:58.000Z</time>
      </trkpt>
      <trkpt lat="43.98737" lon="7.33583">
        <ele>824.40002441406</ele>
        <time>2015-11-14T10:40:11.000Z</time>
      </trkpt>
      <trkpt lat="43.98752" lon="7.33599">
        <ele>832.20001220703</ele>
        <time>2015-11-14T10:40:24.000Z</time>
      </trkpt>
      <trkpt lat="43.98758" lon="7.33605">
        <ele>835</ele>
        <time>2015-11-14T10:40:29.000Z</time>
      </trkpt>
      <trkpt lat="43.98765" lon="7.3361">
        <ele>837.59997558594</ele>
        <time>2015-11-14T10:40:35.000Z</time>
      </trkpt>
      <trkpt lat="43.98775" lon="7.33616">
        <ele>840.40002441406</ele>
        <time>2015-11-14T10:40:42.000Z</time>
      </trkpt>
      <trkpt lat="43.98779" lon="7.33619">
        <ele>840.79998779297</ele>
        <time>2015-11-14T10:40:46.000Z</time>
      </trkpt>
      <trkpt lat="43.9877" lon="7.33619">
        <ele>842.59997558594</ele>
        <time>2015-11-14T10:40:55.000Z</time>
      </trkpt>
      <trkpt lat="43.98751" lon="7.33616">
        <ele>841.59997558594</ele>
        <time>2015-11-14T10:41:07.000Z</time>
      </trkpt>
      <trkpt lat="43.98735" lon="7.33607">
        <ele>837.59997558594</ele>
        <time>2015-11-14T10:41:19.000Z</time>
      </trkpt>
      <trkpt lat="43.98736" lon="7.33609">
        <ele>838.79998779297</ele>
        <time>2015-11-14T10:41:21.000Z</time>
      </trkpt>
      <trkpt lat="43.98742" lon="7.33616">
        <ele>842</ele>
        <time>2015-11-14T10:41:26.000Z</time>
      </trkpt>
      <trkpt lat="43.98757" lon="7.33631">
        <ele>849.79998779297</ele>
        <time>2015-11-14T10:41:35.000Z</time>
      </trkpt>
      <trkpt lat="43.98767" lon="7.33641">
        <ele>854.40002441406</ele>
        <time>2015-11-14T10:41:42.000Z</time>
      </trkpt>
      <trkpt lat="43.9878" lon="7.33655">
        <ele>860.59997558594</ele>
        <time>2015-11-14T10:41:51.000Z</time>
      </trkpt>
      <trkpt lat="43.98797" lon="7.33665">
        <ele>860.79998779297</ele>
        <time>2015-11-14T10:42:04.000Z</time>
      </trkpt>
      <trkpt lat="43.98804" lon="7.33671">
        <ele>861</ele>
        <time>2015-11-14T10:42:12.000Z</time>
      </trkpt>
      <trkpt lat="43.98816" lon="7.33682">
        <ele>862.59997558594</ele>
        <time>2015-11-14T10:42:22.000Z</time>
      </trkpt>
      <trkpt lat="43.98823" lon="7.33689">
        <ele>863.59997558594</ele>
        <time>2015-11-14T10:42:27.000Z</time>
      </trkpt>
      <trkpt lat="43.9884" lon="7.33702">
        <ele>864</ele>
        <time>2015-11-14T10:42:39.000Z</time>
      </trkpt>
      <trkpt lat="43.98857" lon="7.33712">
        <ele>863.40002441406</ele>
        <time>2015-11-14T10:42:50.000Z</time>
      </trkpt>
      <trkpt lat="43.98874" lon="7.33724">
        <ele>864.40002441406</ele>
        <time>2015-11-14T10:43:00.000Z</time>
      </trkpt>
      <trkpt lat="43.9888" lon="7.33729">
        <ele>865.79998779297</ele>
        <time>2015-11-14T10:43:03.000Z</time>
      </trkpt>
      <trkpt lat="43.98874" lon="7.33732">
        <ele>868.40002441406</ele>
        <time>2015-11-14T10:43:09.000Z</time>
      </trkpt>
      <trkpt lat="43.98869" lon="7.33736">
        <ele>871.40002441406</ele>
        <time>2015-11-14T10:43:14.000Z</time>
      </trkpt>
      <trkpt lat="43.98858" lon="7.33739">
        <ele>875.20001220703</ele>
        <time>2015-11-14T10:43:23.000Z</time>
      </trkpt>
      <trkpt lat="43.98851" lon="7.33738">
        <ele>877.20001220703</ele>
        <time>2015-11-14T10:43:28.000Z</time>
      </trkpt>
      <trkpt lat="43.98832" lon="7.33729">
        <ele>879</ele>
        <time>2015-11-14T10:43:38.000Z</time>
      </trkpt>
      <trkpt lat="43.98814" lon="7.33723">
        <ele>881.79998779297</ele>
        <time>2015-11-14T10:43:49.000Z</time>
      </trkpt>
      <trkpt lat="43.98796" lon="7.33712">
        <ele>882.20001220703</ele>
        <time>2015-11-14T10:43:59.000Z</time>
      </trkpt>
      <trkpt lat="43.98788" lon="7.33706">
        <ele>882</ele>
        <time>2015-11-14T10:44:03.000Z</time>
      </trkpt>
      <trkpt lat="43.9879" lon="7.33709">
        <ele>882.79998779297</ele>
        <time>2015-11-14T10:44:07.000Z</time>
      </trkpt>
      <trkpt lat="43.98794" lon="7.33713">
        <ele>883.59997558594</ele>
        <time>2015-11-14T10:44:11.000Z</time>
      </trkpt>
      <trkpt lat="43.98804" lon="7.33728">
        <ele>887</ele>
        <time>2015-11-14T10:44:20.000Z</time>
      </trkpt>
      <trkpt lat="43.98817" lon="7.33746">
        <ele>891</ele>
        <time>2015-11-14T10:44:32.000Z</time>
      </trkpt>
      <trkpt lat="43.98833" lon="7.3376">
        <ele>892.79998779297</ele>
        <time>2015-11-14T10:44:45.000Z</time>
      </trkpt>
      <trkpt lat="43.98845" lon="7.3377">
        <ele>893.79998779297</ele>
        <time>2015-11-14T10:44:55.000Z</time>
      </trkpt>
      <trkpt lat="43.98851" lon="7.33772">
        <ele>892.79998779297</ele>
        <time>2015-11-14T10:44:59.000Z</time>
      </trkpt>
      <trkpt lat="43.98858" lon="7.33776">
        <ele>892.40002441406</ele>
        <time>2015-11-14T10:45:05.000Z</time>
      </trkpt>
      <trkpt lat="43.9887" lon="7.33782">
        <ele>893.20001220703</ele>
        <time>2015-11-14T10:45:12.000Z</time>
      </trkpt>
      <trkpt lat="43.98888" lon="7.33791">
        <ele>894.20001220703</ele>
        <time>2015-11-14T10:45:21.000Z</time>
      </trkpt>
      <trkpt lat="43.98906" lon="7.33797">
        <ele>894.40002441406</ele>
        <time>2015-11-14T10:45:31.000Z</time>
      </trkpt>
      <trkpt lat="43.98921" lon="7.33807">
        <ele>896.20001220703</ele>
        <time>2015-11-14T10:45:39.000Z</time>
      </trkpt>
      <trkpt lat="43.98929" lon="7.33812">
        <ele>897</ele>
        <time>2015-11-14T10:45:44.000Z</time>
      </trkpt>
      <trkpt lat="43.98945" lon="7.33825">
        <ele>900.20001220703</ele>
        <time>2015-11-14T10:45:55.000Z</time>
      </trkpt>
      <trkpt lat="43.9896" lon="7.33842">
        <ele>905</ele>
        <time>2015-11-14T10:46:05.000Z</time>
      </trkpt>
      <trkpt lat="43.98966" lon="7.33849">
        <ele>906.79998779297</ele>
        <time>2015-11-14T10:46:10.000Z</time>
      </trkpt>
      <trkpt lat="43.98972" lon="7.33855">
        <ele>908.40002441406</ele>
        <time>2015-11-14T10:46:14.000Z</time>
      </trkpt>
      <trkpt lat="43.98984" lon="7.33871">
        <ele>912.59997558594</ele>
        <time>2015-11-14T10:46:23.000Z</time>
      </trkpt>
      <trkpt lat="43.9899" lon="7.33875">
        <ele>913.40002441406</ele>
        <time>2015-11-14T10:46:27.000Z</time>
      </trkpt>
      <trkpt lat="43.98998" lon="7.3388">
        <ele>913.40002441406</ele>
        <time>2015-11-14T10:46:33.000Z</time>
      </trkpt>
      <trkpt lat="43.99014" lon="7.33893">
        <ele>915.59997558594</ele>
        <time>2015-11-14T10:46:45.000Z</time>
      </trkpt>
      <trkpt lat="43.99019" lon="7.33897">
        <ele>916.40002441406</ele>
        <time>2015-11-14T10:46:47.000Z</time>
      </trkpt>
      <trkpt lat="43.9903" lon="7.33902">
        <ele>916.59997558594</ele>
        <time>2015-11-14T10:46:52.000Z</time>
      </trkpt>
      <trkpt lat="43.99047" lon="7.33912">
        <ele>918</ele>
        <time>2015-11-14T10:46:59.000Z</time>
      </trkpt>
      <trkpt lat="43.99057" lon="7.33915">
        <ele>917.20001220703</ele>
        <time>2015-11-14T10:47:04.000Z</time>
      </trkpt>
      <trkpt lat="43.99076" lon="7.33921">
        <ele>915.79998779297</ele>
        <time>2015-11-14T10:47:13.000Z</time>
      </trkpt>
      <trkpt lat="43.99077" lon="7.33921">
        <ele>915.59997558594</ele>
        <time>2015-11-14T10:47:14.000Z</time>
      </trkpt>
      <trkpt lat="43.9908" lon="7.33923">
        <ele>915.79998779297</ele>
        <time>2015-11-14T10:47:17.000Z</time>
      </trkpt>
      <trkpt lat="43.99084" lon="7.3393">
        <ele>917.59997558594</ele>
        <time>2015-11-14T10:47:38.000Z</time>
      </trkpt>
      <trkpt lat="43.99088" lon="7.33942">
        <ele>921.20001220703</ele>
        <time>2015-11-14T10:49:51.000Z</time>
      </trkpt>
      <trkpt lat="43.99087" lon="7.33945">
        <ele>922.40002441406</ele>
        <time>2015-11-14T10:50:24.000Z</time>
      </trkpt>
      <trkpt lat="43.99091" lon="7.33951">
        <ele>924.20001220703</ele>
        <time>2015-11-14T10:50:29.000Z</time>
      </trkpt>
      <trkpt lat="43.99102" lon="7.33963">
        <ele>926.20001220703</ele>
        <time>2015-11-14T10:50:45.000Z</time>
      </trkpt>
      <trkpt lat="43.99108" lon="7.33976">
        <ele>930.20001220703</ele>
        <time>2015-11-14T10:50:56.000Z</time>
      </trkpt>
      <trkpt lat="43.99101" lon="7.33984">
        <ele>934.59997558594</ele>
        <time>2015-11-14T10:51:18.000Z</time>
      </trkpt>
      <trkpt lat="43.99098" lon="7.33993">
        <ele>938.59997558594</ele>
        <time>2015-11-14T10:51:25.000Z</time>
      </trkpt>
      <trkpt lat="43.991" lon="7.33996">
        <ele>939.79998779297</ele>
        <time>2015-11-14T10:51:28.000Z</time>
      </trkpt>
      <trkpt lat="43.991" lon="7.34004">
        <ele>941.40002441406</ele>
        <time>2015-11-14T10:51:34.000Z</time>
      </trkpt>
      <trkpt lat="43.99084" lon="7.34008">
        <ele>946.20001220703</ele>
        <time>2015-11-14T10:51:59.000Z</time>
      </trkpt>
      <trkpt lat="43.99066" lon="7.34016">
        <ele>952.20001220703</ele>
        <time>2015-11-14T10:52:16.000Z</time>
      </trkpt>
      <trkpt lat="43.99049" lon="7.34029">
        <ele>959.79998779297</ele>
        <time>2015-11-14T10:52:32.000Z</time>
      </trkpt>
      <trkpt lat="43.99031" lon="7.34036">
        <ele>966.79998779297</ele>
        <time>2015-11-14T10:52:45.000Z</time>
      </trkpt>
      <trkpt lat="43.99013" lon="7.34031">
        <ele>971.40002441406</ele>
        <time>2015-11-14T10:52:55.000Z</time>
      </trkpt>
      <trkpt lat="43.99006" lon="7.34027">
        <ele>973</ele>
        <time>2015-11-14T10:52:59.000Z</time>
      </trkpt>
      <trkpt lat="43.98991" lon="7.34018">
        <ele>976</ele>
        <time>2015-11-14T10:53:09.000Z</time>
      </trkpt>
      <trkpt lat="43.98983" lon="7.3401">
        <ele>976.79998779297</ele>
        <time>2015-11-14T10:53:15.000Z</time>
      </trkpt>
      <trkpt lat="43.98979" lon="7.34009">
        <ele>977.79998779297</ele>
        <time>2015-11-14T10:53:19.000Z</time>
      </trkpt>
      <trkpt lat="43.98971" lon="7.3401">
        <ele>980.59997558594</ele>
        <time>2015-11-14T10:53:24.000Z</time>
      </trkpt>
      <trkpt lat="43.98968" lon="7.34007">
        <ele>981.20001220703</ele>
        <time>2015-11-14T10:53:26.000Z</time>
      </trkpt>
      <trkpt lat="43.98951" lon="7.34003">
        <ele>986.20001220703</ele>
        <time>2015-11-14T10:53:42.000Z</time>
      </trkpt>
      <trkpt lat="43.98946" lon="7.34002">
        <ele>987.59997558594</ele>
        <time>2015-11-14T10:53:45.000Z</time>
      </trkpt>
      <trkpt lat="43.98933" lon="7.33994">
        <ele>987.20001220703</ele>
        <time>2015-11-14T10:53:54.000Z</time>
      </trkpt>
      <trkpt lat="43.98928" lon="7.33994">
        <ele>987</ele>
        <time>2015-11-14T10:53:58.000Z</time>
      </trkpt>
      <trkpt lat="43.98927" lon="7.33994">
        <ele>987.20001220703</ele>
        <time>2015-11-14T10:53:59.000Z</time>
      </trkpt>
      <trkpt lat="43.98921" lon="7.33993">
        <ele>987.20001220703</ele>
        <time>2015-11-14T10:54:05.000Z</time>
      </trkpt>
      <trkpt lat="43.98912" lon="7.33996">
        <ele>988.79998779297</ele>
        <time>2015-11-14T10:54:13.000Z</time>
      </trkpt>
      <trkpt lat="43.98906" lon="7.33992">
        <ele>987.40002441406</ele>
        <time>2015-11-14T10:54:18.000Z</time>
      </trkpt>
      <trkpt lat="43.98887" lon="7.3399">
        <ele>987.40002441406</ele>
        <time>2015-11-14T10:54:36.000Z</time>
      </trkpt>
      <trkpt lat="43.98884" lon="7.3399">
        <ele>987.59997558594</ele>
        <time>2015-11-14T10:54:39.000Z</time>
      </trkpt>
      <trkpt lat="43.98877" lon="7.33998">
        <ele>991.40002441406</ele>
        <time>2015-11-14T10:54:47.000Z</time>
      </trkpt>
      <trkpt lat="43.98868" lon="7.34004">
        <ele>994.59997558594</ele>
        <time>2015-11-14T10:54:57.000Z</time>
      </trkpt>
      <trkpt lat="43.9886" lon="7.34004">
        <ele>995.40002441406</ele>
        <time>2015-11-14T10:55:01.000Z</time>
      </trkpt>
      <trkpt lat="43.9884" lon="7.34002">
        <ele>990.20001220703</ele>
        <time>2015-11-14T10:55:14.000Z</time>
      </trkpt>
      <trkpt lat="43.98834" lon="7.34003">
        <ele>988.79998779297</ele>
        <time>2015-11-14T10:55:18.000Z</time>
      </trkpt>
      <trkpt lat="43.9883" lon="7.34004">
        <ele>988.59997558594</ele>
        <time>2015-11-14T10:55:22.000Z</time>
      </trkpt>
      <trkpt lat="43.98811" lon="7.33997">
        <ele>980.40002441406</ele>
        <time>2015-11-14T10:55:36.000Z</time>
      </trkpt>
      <trkpt lat="43.98797" lon="7.33971">
        <ele>971</ele>
        <time>2015-11-14T10:55:45.000Z</time>
      </trkpt>
      <trkpt lat="43.98789" lon="7.33973">
        <ele>969.59997558594</ele>
        <time>2015-11-14T10:55:51.000Z</time>
      </trkpt>
      <trkpt lat="43.98796" lon="7.33995">
        <ele>976.79998779297</ele>
        <time>2015-11-14T10:56:10.000Z</time>
      </trkpt>
      <trkpt lat="43.98803" lon="7.34019">
        <ele>989.40002441406</ele>
        <time>2015-11-14T10:56:27.000Z</time>
      </trkpt>
      <trkpt lat="43.98805" lon="7.34022">
        <ele>991.40002441406</ele>
        <time>2015-11-14T10:56:29.000Z</time>
      </trkpt>
      <trkpt lat="43.98819" lon="7.34039">
        <ele>1003</ele>
        <time>2015-11-14T10:56:40.000Z</time>
      </trkpt>
      <trkpt lat="43.98824" lon="7.34047">
        <ele>1008.4000244141</ele>
        <time>2015-11-14T10:56:44.000Z</time>
      </trkpt>
      <trkpt lat="43.98836" lon="7.34066">
        <ele>1020.200012207</ele>
        <time>2015-11-14T10:56:52.000Z</time>
      </trkpt>
      <trkpt lat="43.98851" lon="7.3408">
        <ele>1030.8000488281</ele>
        <time>2015-11-14T10:57:01.000Z</time>
      </trkpt>
      <trkpt lat="43.98853" lon="7.34081">
        <ele>1031.5999755859</ele>
        <time>2015-11-14T10:57:02.000Z</time>
      </trkpt>
      <trkpt lat="43.98863" lon="7.34085">
        <ele>1034.1999511719</ele>
        <time>2015-11-14T10:57:09.000Z</time>
      </trkpt>
      <trkpt lat="43.98865" lon="7.34084">
        <ele>1034</ele>
        <time>2015-11-14T10:57:11.000Z</time>
      </trkpt>
      <trkpt lat="43.98875" lon="7.34087">
        <ele>1034.1999511719</ele>
        <time>2015-11-14T10:57:19.000Z</time>
      </trkpt>
      <trkpt lat="43.98876" lon="7.34086">
        <ele>1033.4000244141</ele>
        <time>2015-11-14T10:57:21.000Z</time>
      </trkpt>
      <trkpt lat="43.98881" lon="7.34089">
        <ele>1034.4000244141</ele>
        <time>2015-11-14T10:57:26.000Z</time>
      </trkpt>
      <trkpt lat="43.98897" lon="7.34105">
        <ele>1039.5999755859</ele>
        <time>2015-11-14T10:57:39.000Z</time>
      </trkpt>
      <trkpt lat="43.98909" lon="7.34122">
        <ele>1045.8000488281</ele>
        <time>2015-11-14T10:57:48.000Z</time>
      </trkpt>
      <trkpt lat="43.98922" lon="7.3414">
        <ele>1052.4000244141</ele>
        <time>2015-11-14T10:58:04.000Z</time>
      </trkpt>
      <trkpt lat="43.98921" lon="7.34133">
        <ele>1049.5999755859</ele>
        <time>2015-11-14T10:58:05.000Z</time>
      </trkpt>
      <trkpt lat="43.9892" lon="7.34125">
        <ele>1046.1999511719</ele>
        <time>2015-11-14T10:58:10.000Z</time>
      </trkpt>
      <trkpt lat="43.98921" lon="7.34121">
        <ele>1044.5999755859</ele>
        <time>2015-11-14T10:58:14.000Z</time>
      </trkpt>
      <trkpt lat="43.98922" lon="7.34123">
        <ele>1045.1999511719</ele>
        <time>2015-11-14T10:58:15.000Z</time>
      </trkpt>
      <trkpt lat="43.98928" lon="7.34133">
        <ele>1048.8000488281</ele>
        <time>2015-11-14T10:58:21.000Z</time>
      </trkpt>
      <trkpt lat="43.98934" lon="7.34148">
        <ele>1054.5999755859</ele>
        <time>2015-11-14T10:58:30.000Z</time>
      </trkpt>
      <trkpt lat="43.98941" lon="7.34159">
        <ele>1059</ele>
        <time>2015-11-14T10:58:39.000Z</time>
      </trkpt>
      <trkpt lat="43.98945" lon="7.34166">
        <ele>1060</ele>
        <time>2015-11-14T10:58:44.000Z</time>
      </trkpt>
      <trkpt lat="43.98958" lon="7.34181">
        <ele>1057.4000244141</ele>
        <time>2015-11-14T10:58:54.000Z</time>
      </trkpt>
      <trkpt lat="43.98969" lon="7.34192">
        <ele>1054.1999511719</ele>
        <time>2015-11-14T10:59:07.000Z</time>
      </trkpt>
      <trkpt lat="43.9897" lon="7.34186">
        <ele>1051.8000488281</ele>
        <time>2015-11-14T10:59:11.000Z</time>
      </trkpt>
      <trkpt lat="43.98975" lon="7.34192">
        <ele>1050.8000488281</ele>
        <time>2015-11-14T10:59:22.000Z</time>
      </trkpt>
      <trkpt lat="43.9896" lon="7.34188">
        <ele>1058.5999755859</ele>
        <time>2015-11-14T10:59:47.000Z</time>
      </trkpt>
      <trkpt lat="43.98941" lon="7.34182">
        <ele>1068.8000488281</ele>
        <time>2015-11-14T11:00:04.000Z</time>
      </trkpt>
      <trkpt lat="43.98924" lon="7.3418">
        <ele>1070</ele>
        <time>2015-11-14T11:00:22.000Z</time>
      </trkpt>
      <trkpt lat="43.98907" lon="7.34169">
        <ele>1067.4000244141</ele>
        <time>2015-11-14T11:00:37.000Z</time>
      </trkpt>
      <trkpt lat="43.98891" lon="7.34156">
        <ele>1063.8000488281</ele>
        <time>2015-11-14T11:00:55.000Z</time>
      </trkpt>
      <trkpt lat="43.9889" lon="7.34156">
        <ele>1063.8000488281</ele>
        <time>2015-11-14T11:00:56.000Z</time>
      </trkpt>
      <trkpt lat="43.98898" lon="7.34177">
        <ele>1072.1999511719</ele>
        <time>2015-11-14T11:01:13.000Z</time>
      </trkpt>
      <trkpt lat="43.98898" lon="7.34186">
        <ele>1076.1999511719</ele>
        <time>2015-11-14T11:01:19.000Z</time>
      </trkpt>
      <trkpt lat="43.98901" lon="7.34209">
        <ele>1085.4000244141</ele>
        <time>2015-11-14T11:01:47.000Z</time>
      </trkpt>
      <trkpt lat="43.98905" lon="7.34212">
        <ele>1086</ele>
        <time>2015-11-14T11:01:51.000Z</time>
      </trkpt>
      <trkpt lat="43.98916" lon="7.34232">
        <ele>1093.5999755859</ele>
        <time>2015-11-14T11:02:07.000Z</time>
      </trkpt>
      <trkpt lat="43.98917" lon="7.34233">
        <ele>1094</ele>
        <time>2015-11-14T11:02:08.000Z</time>
      </trkpt>
      <trkpt lat="43.98923" lon="7.34243">
        <ele>1097.5999755859</ele>
        <time>2015-11-14T11:02:15.000Z</time>
      </trkpt>
      <trkpt lat="43.98911" lon="7.34234">
        <ele>1095.8000488281</ele>
        <time>2015-11-14T11:02:35.000Z</time>
      </trkpt>
      <trkpt lat="43.98907" lon="7.34232">
        <ele>1095.5999755859</ele>
        <time>2015-11-14T11:02:38.000Z</time>
      </trkpt>
      <trkpt lat="43.989" lon="7.34229">
        <ele>1095.1999511719</ele>
        <time>2015-11-14T11:02:43.000Z</time>
      </trkpt>
      <trkpt lat="43.98882" lon="7.34226">
        <ele>1097.8000488281</ele>
        <time>2015-11-14T11:03:02.000Z</time>
      </trkpt>
      <trkpt lat="43.98863" lon="7.34222">
        <ele>1099.5999755859</ele>
        <time>2015-11-14T11:03:20.000Z</time>
      </trkpt>
      <trkpt lat="43.98862" lon="7.34223">
        <ele>1100</ele>
        <time>2015-11-14T11:03:21.000Z</time>
      </trkpt>
      <trkpt lat="43.98847" lon="7.34207">
        <ele>1088.1999511719</ele>
        <time>2015-11-14T11:03:36.000Z</time>
      </trkpt>
      <trkpt lat="43.98847" lon="7.34208">
        <ele>1089</ele>
        <time>2015-11-14T11:03:37.000Z</time>
      </trkpt>
      <trkpt lat="43.98849" lon="7.34217">
        <ele>1094.4000244141</ele>
        <time>2015-11-14T11:03:42.000Z</time>
      </trkpt>
      <trkpt lat="43.98857" lon="7.34233">
        <ele>1105.5999755859</ele>
        <time>2015-11-14T11:03:50.000Z</time>
      </trkpt>
      <trkpt lat="43.9887" lon="7.34253">
        <ele>1112.4000244141</ele>
        <time>2015-11-14T11:03:59.000Z</time>
      </trkpt>
      <trkpt lat="43.98872" lon="7.34262">
        <ele>1114.8000488281</ele>
        <time>2015-11-14T11:04:08.000Z</time>
      </trkpt>
      <trkpt lat="43.98877" lon="7.34265">
        <ele>1114.4000244141</ele>
        <time>2015-11-14T11:04:20.000Z</time>
      </trkpt>
      <trkpt lat="43.98882" lon="7.34274">
        <ele>1117</ele>
        <time>2015-11-14T11:04:47.000Z</time>
      </trkpt>
      <trkpt lat="43.98864" lon="7.34269">
        <ele>1121.5999755859</ele>
        <time>2015-11-14T11:05:06.000Z</time>
      </trkpt>
      <trkpt lat="43.98854" lon="7.34266">
        <ele>1120.4000244141</ele>
        <time>2015-11-14T11:05:15.000Z</time>
      </trkpt>
      <trkpt lat="43.98862" lon="7.34289">
        <ele>1131.8000488281</ele>
        <time>2015-11-14T11:05:45.000Z</time>
      </trkpt>
      <trkpt lat="43.98863" lon="7.34291">
        <ele>1132.1999511719</ele>
        <time>2015-11-14T11:05:47.000Z</time>
      </trkpt>
      <trkpt lat="43.98845" lon="7.3429">
        <ele>1128.5999755859</ele>
        <time>2015-11-14T11:06:12.000Z</time>
      </trkpt>
      <trkpt lat="43.98841" lon="7.34285">
        <ele>1124.8000488281</ele>
        <time>2015-11-14T11:06:14.000Z</time>
      </trkpt>
      <trkpt lat="43.98848" lon="7.34306">
        <ele>1137.8000488281</ele>
        <time>2015-11-14T11:06:37.000Z</time>
      </trkpt>
      <trkpt lat="43.98859" lon="7.34327">
        <ele>1151.5999755859</ele>
        <time>2015-11-14T11:07:02.000Z</time>
      </trkpt>
      <trkpt lat="43.98858" lon="7.34346">
        <ele>1159.1999511719</ele>
        <time>2015-11-14T11:07:38.000Z</time>
      </trkpt>
      <trkpt lat="43.98846" lon="7.34358">
        <ele>1160.4000244141</ele>
        <time>2015-11-14T11:08:09.000Z</time>
      </trkpt>
      <trkpt lat="43.98837" lon="7.34373">
        <ele>1162.5999755859</ele>
        <time>2015-11-14T11:08:42.000Z</time>
      </trkpt>
      <trkpt lat="43.98822" lon="7.34386">
        <ele>1163.4000244141</ele>
        <time>2015-11-14T11:09:06.000Z</time>
      </trkpt>
      <trkpt lat="43.98807" lon="7.34392">
        <ele>1162</ele>
        <time>2015-11-14T11:09:23.000Z</time>
      </trkpt>
      <trkpt lat="43.98807" lon="7.34395">
        <ele>1163.1999511719</ele>
        <time>2015-11-14T11:09:27.000Z</time>
      </trkpt>
      <trkpt lat="43.98812" lon="7.3441">
        <ele>1170.4000244141</ele>
        <time>2015-11-14T11:09:56.000Z</time>
      </trkpt>
      <trkpt lat="43.98804" lon="7.34428">
        <ele>1172.4000244141</ele>
        <time>2015-11-14T11:10:38.000Z</time>
      </trkpt>
      <trkpt lat="43.98804" lon="7.34435">
        <ele>1173.1999511719</ele>
        <time>2015-11-14T11:10:44.000Z</time>
      </trkpt>
      <trkpt lat="43.98801" lon="7.34433">
        <ele>1172.4000244141</ele>
        <time>2015-11-14T11:10:53.000Z</time>
      </trkpt>
      <trkpt lat="43.988" lon="7.34431">
        <ele>1171.8000488281</ele>
        <time>2015-11-14T11:10:55.000Z</time>
      </trkpt>
      <trkpt lat="43.98796" lon="7.34418">
        <ele>1169</ele>
        <time>2015-11-14T11:11:02.000Z</time>
      </trkpt>
      <trkpt lat="43.98794" lon="7.34416">
        <ele>1168.1999511719</ele>
        <time>2015-11-14T11:11:04.000Z</time>
      </trkpt>
      <trkpt lat="43.98791" lon="7.34415">
        <ele>1167.4000244141</ele>
        <time>2015-11-14T11:11:06.000Z</time>
      </trkpt>
      <trkpt lat="43.98783" lon="7.34408">
        <ele>1162.4000244141</ele>
        <time>2015-11-14T11:13:54.000Z</time>
      </trkpt>
      <trkpt lat="43.98792" lon="7.34415">
        <ele>1167.5999755859</ele>
        <time>2015-11-14T11:16:16.000Z</time>
      </trkpt>
      <trkpt lat="43.98797" lon="7.34421">
        <ele>1169.5999755859</ele>
        <time>2015-11-14T11:20:15.000Z</time>
      </trkpt>
      <trkpt lat="43.98798" lon="7.34432">
        <ele>1171.5999755859</ele>
        <time>2015-11-14T11:20:52.000Z</time>
      </trkpt>
      <trkpt lat="43.98802" lon="7.34437">
        <ele>1173.1999511719</ele>
        <time>2015-11-14T11:20:56.000Z</time>
      </trkpt>
      <trkpt lat="43.98803" lon="7.34434">
        <ele>1173</ele>
        <time>2015-11-14T11:21:02.000Z</time>
      </trkpt>
      <trkpt lat="43.98812" lon="7.34433">
        <ele>1175</ele>
        <time>2015-11-14T11:21:07.000Z</time>
      </trkpt>
      <trkpt lat="43.98816" lon="7.34432">
        <ele>1175.8000488281</ele>
        <time>2015-11-14T11:21:10.000Z</time>
      </trkpt>
      <trkpt lat="43.98817" lon="7.34422">
        <ele>1174.8000488281</ele>
        <time>2015-11-14T11:21:14.000Z</time>
      </trkpt>
      <trkpt lat="43.98822" lon="7.34407">
        <ele>1172</ele>
        <time>2015-11-14T11:21:26.000Z</time>
      </trkpt>
      <trkpt lat="43.98819" lon="7.34401">
        <ele>1169</ele>
        <time>2015-11-14T11:21:29.000Z</time>
      </trkpt>
      <trkpt lat="43.98815" lon="7.34396">
        <ele>1165.5999755859</ele>
        <time>2015-11-14T11:21:32.000Z</time>
      </trkpt>
      <trkpt lat="43.98802" lon="7.34382">
        <ele>1156.5999755859</ele>
        <time>2015-11-14T11:21:41.000Z</time>
      </trkpt>
      <trkpt lat="43.98818" lon="7.34365">
        <ele>1154.1999511719</ele>
        <time>2015-11-14T11:21:50.000Z</time>
      </trkpt>
      <trkpt lat="43.98833" lon="7.34356">
        <ele>1155.8000488281</ele>
        <time>2015-11-14T11:22:00.000Z</time>
      </trkpt>
      <trkpt lat="43.98835" lon="7.34356">
        <ele>1156.1999511719</ele>
        <time>2015-11-14T11:22:01.000Z</time>
      </trkpt>
      <trkpt lat="43.9885" lon="7.3436">
        <ele>1162</ele>
        <time>2015-11-14T11:22:13.000Z</time>
      </trkpt>
      <trkpt lat="43.98853" lon="7.34345">
        <ele>1157.5999755859</ele>
        <time>2015-11-14T11:22:28.000Z</time>
      </trkpt>
      <trkpt lat="43.9886" lon="7.34346">
        <ele>1158.4000244141</ele>
        <time>2015-11-14T11:22:32.000Z</time>
      </trkpt>
      <trkpt lat="43.98864" lon="7.34347">
        <ele>1156.5999755859</ele>
        <time>2015-11-14T11:22:35.000Z</time>
      </trkpt>
      <trkpt lat="43.98862" lon="7.34327">
        <ele>1150.8000488281</ele>
        <time>2015-11-14T11:22:47.000Z</time>
      </trkpt>
      <trkpt lat="43.98857" lon="7.34319">
        <ele>1147.8000488281</ele>
        <time>2015-11-14T11:22:51.000Z</time>
      </trkpt>
      <trkpt lat="43.98858" lon="7.34313">
        <ele>1145</ele>
        <time>2015-11-14T11:22:57.000Z</time>
      </trkpt>
      <trkpt lat="43.98846" lon="7.34294">
        <ele>1131</ele>
        <time>2015-11-14T11:23:04.000Z</time>
      </trkpt>
      <trkpt lat="43.9884" lon="7.34279">
        <ele>1121.8000488281</ele>
        <time>2015-11-14T11:23:10.000Z</time>
      </trkpt>
      <trkpt lat="43.98859" lon="7.34286">
        <ele>1131.8000488281</ele>
        <time>2015-11-14T11:23:17.000Z</time>
      </trkpt>
      <trkpt lat="43.98864" lon="7.34287">
        <ele>1130.5999755859</ele>
        <time>2015-11-14T11:23:21.000Z</time>
      </trkpt>
      <trkpt lat="43.98857" lon="7.34275">
        <ele>1126</ele>
        <time>2015-11-14T11:23:25.000Z</time>
      </trkpt>
      <trkpt lat="43.98846" lon="7.34253">
        <ele>1111</ele>
        <time>2015-11-14T11:23:33.000Z</time>
      </trkpt>
      <trkpt lat="43.98847" lon="7.34251">
        <ele>1110.1999511719</ele>
        <time>2015-11-14T11:23:34.000Z</time>
      </trkpt>
      <trkpt lat="43.98862" lon="7.34258">
        <ele>1116.8000488281</ele>
        <time>2015-11-14T11:23:40.000Z</time>
      </trkpt>
      <trkpt lat="43.98879" lon="7.34272">
        <ele>1117</ele>
        <time>2015-11-14T11:23:46.000Z</time>
      </trkpt>
      <trkpt lat="43.98888" lon="7.34281">
        <ele>1117.8000488281</ele>
        <time>2015-11-14T11:23:51.000Z</time>
      </trkpt>
      <trkpt lat="43.98881" lon="7.34268">
        <ele>1114.5999755859</ele>
        <time>2015-11-14T11:23:56.000Z</time>
      </trkpt>
      <trkpt lat="43.98869" lon="7.34248">
        <ele>1111</ele>
        <time>2015-11-14T11:24:03.000Z</time>
      </trkpt>
      <trkpt lat="43.98858" lon="7.34229">
        <ele>1103.5999755859</ele>
        <time>2015-11-14T11:24:09.000Z</time>
      </trkpt>
      <trkpt lat="43.98846" lon="7.34209">
        <ele>1089.4000244141</ele>
        <time>2015-11-14T11:24:14.000Z</time>
      </trkpt>
      <trkpt lat="43.98839" lon="7.34196">
        <ele>1080</ele>
        <time>2015-11-14T11:24:19.000Z</time>
      </trkpt>
      <trkpt lat="43.98856" lon="7.34203">
        <ele>1090.1999511719</ele>
        <time>2015-11-14T11:24:27.000Z</time>
      </trkpt>
      <trkpt lat="43.98861" lon="7.34205">
        <ele>1091.5999755859</ele>
        <time>2015-11-14T11:24:29.000Z</time>
      </trkpt>
      <trkpt lat="43.98878" lon="7.34216">
        <ele>1093.4000244141</ele>
        <time>2015-11-14T11:24:36.000Z</time>
      </trkpt>
      <trkpt lat="43.98898" lon="7.34226">
        <ele>1094.4000244141</ele>
        <time>2015-11-14T11:24:43.000Z</time>
      </trkpt>
      <trkpt lat="43.98915" lon="7.34236">
        <ele>1096</ele>
        <time>2015-11-14T11:24:49.000Z</time>
      </trkpt>
      <trkpt lat="43.98931" lon="7.34247">
        <ele>1098</ele>
        <time>2015-11-14T11:24:55.000Z</time>
      </trkpt>
      <trkpt lat="43.98919" lon="7.34225">
        <ele>1089.5999755859</ele>
        <time>2015-11-14T11:25:03.000Z</time>
      </trkpt>
      <trkpt lat="43.98906" lon="7.34208">
        <ele>1084.1999511719</ele>
        <time>2015-11-14T11:25:10.000Z</time>
      </trkpt>
      <trkpt lat="43.98895" lon="7.34185">
        <ele>1075.8000488281</ele>
        <time>2015-11-14T11:25:16.000Z</time>
      </trkpt>
      <trkpt lat="43.98887" lon="7.34157">
        <ele>1065.1999511719</ele>
        <time>2015-11-14T11:25:23.000Z</time>
      </trkpt>
      <trkpt lat="43.98881" lon="7.3414">
        <ele>1057.5999755859</ele>
        <time>2015-11-14T11:25:29.000Z</time>
      </trkpt>
      <trkpt lat="43.98892" lon="7.34146">
        <ele>1059.1999511719</ele>
        <time>2015-11-14T11:25:34.000Z</time>
      </trkpt>
      <trkpt lat="43.98906" lon="7.34162">
        <ele>1064.5999755859</ele>
        <time>2015-11-14T11:25:40.000Z</time>
      </trkpt>
      <trkpt lat="43.98925" lon="7.34172">
        <ele>1066.5999755859</ele>
        <time>2015-11-14T11:25:47.000Z</time>
      </trkpt>
      <trkpt lat="43.98945" lon="7.34179">
        <ele>1064.8000488281</ele>
        <time>2015-11-14T11:25:53.000Z</time>
      </trkpt>
      <trkpt lat="43.98964" lon="7.34189">
        <ele>1056.4000244141</ele>
        <time>2015-11-14T11:25:59.000Z</time>
      </trkpt>
      <trkpt lat="43.98977" lon="7.34192">
        <ele>1050</ele>
        <time>2015-11-14T11:26:05.000Z</time>
      </trkpt>
      <trkpt lat="43.98965" lon="7.34173">
        <ele>1051.1999511719</ele>
        <time>2015-11-14T11:26:12.000Z</time>
      </trkpt>
      <trkpt lat="43.98951" lon="7.34155">
        <ele>1052.1999511719</ele>
        <time>2015-11-14T11:26:19.000Z</time>
      </trkpt>
      <trkpt lat="43.98939" lon="7.34136">
        <ele>1049</ele>
        <time>2015-11-14T11:26:25.000Z</time>
      </trkpt>
      <trkpt lat="43.98931" lon="7.34113">
        <ele>1039.8000488281</ele>
        <time>2015-11-14T11:26:32.000Z</time>
      </trkpt>
      <trkpt lat="43.9892" lon="7.3409">
        <ele>1030.8000488281</ele>
        <time>2015-11-14T11:26:39.000Z</time>
      </trkpt>
      <trkpt lat="43.98904" lon="7.34073">
        <ele>1024.5999755859</ele>
        <time>2015-11-14T11:26:45.000Z</time>
      </trkpt>
      <trkpt lat="43.98888" lon="7.34056">
        <ele>1017.799987793</ele>
        <time>2015-11-14T11:26:51.000Z</time>
      </trkpt>
      <trkpt lat="43.9887" lon="7.34048">
        <ele>1015.5999755859</ele>
        <time>2015-11-14T11:26:57.000Z</time>
      </trkpt>
      <trkpt lat="43.98851" lon="7.34041">
        <ele>1011.5999755859</ele>
        <time>2015-11-14T11:27:03.000Z</time>
      </trkpt>
      <trkpt lat="43.98833" lon="7.34031">
        <ele>1002.4000244141</ele>
        <time>2015-11-14T11:27:10.000Z</time>
      </trkpt>
      <trkpt lat="43.98818" lon="7.34014">
        <ele>990.59997558594</ele>
        <time>2015-11-14T11:27:16.000Z</time>
      </trkpt>
      <trkpt lat="43.98805" lon="7.33996">
        <ele>979</ele>
        <time>2015-11-14T11:27:22.000Z</time>
      </trkpt>
      <trkpt lat="43.98793" lon="7.33976">
        <ele>971</ele>
        <time>2015-11-14T11:27:28.000Z</time>
      </trkpt>
      <trkpt lat="43.9879" lon="7.33969">
        <ele>969</ele>
        <time>2015-11-14T11:27:30.000Z</time>
      </trkpt>
      <trkpt lat="43.9879" lon="7.33968">
        <ele>968.40002441406</ele>
        <time>2015-11-14T11:27:31.000Z</time>
      </trkpt>
      <trkpt lat="43.98809" lon="7.33973">
        <ele>974.20001220703</ele>
        <time>2015-11-14T11:27:39.000Z</time>
      </trkpt>
      <trkpt lat="43.98829" lon="7.3398">
        <ele>980.79998779297</ele>
        <time>2015-11-14T11:27:46.000Z</time>
      </trkpt>
      <trkpt lat="43.98837" lon="7.33979">
        <ele>982.40002441406</ele>
        <time>2015-11-14T11:27:49.000Z</time>
      </trkpt>
      <trkpt lat="43.98856" lon="7.33965">
        <ele>978</ele>
        <time>2015-11-14T11:27:56.000Z</time>
      </trkpt>
      <trkpt lat="43.98872" lon="7.33952">
        <ele>972</ele>
        <time>2015-11-14T11:28:02.000Z</time>
      </trkpt>
      <trkpt lat="43.98884" lon="7.33948">
        <ele>969.40002441406</ele>
        <time>2015-11-14T11:28:05.000Z</time>
      </trkpt>
      <trkpt lat="43.98902" lon="7.33948">
        <ele>967.40002441406</ele>
        <time>2015-11-14T11:28:10.000Z</time>
      </trkpt>
      <trkpt lat="43.98921" lon="7.33954">
        <ele>967.79998779297</ele>
        <time>2015-11-14T11:28:16.000Z</time>
      </trkpt>
      <trkpt lat="43.98939" lon="7.33965">
        <ele>970.79998779297</ele>
        <time>2015-11-14T11:28:22.000Z</time>
      </trkpt>
      <trkpt lat="43.98959" lon="7.33972">
        <ele>968.20001220703</ele>
        <time>2015-11-14T11:28:28.000Z</time>
      </trkpt>
      <trkpt lat="43.98976" lon="7.33978">
        <ele>965.59997558594</ele>
        <time>2015-11-14T11:28:33.000Z</time>
      </trkpt>
      <trkpt lat="43.98993" lon="7.33989">
        <ele>965.40002441406</ele>
        <time>2015-11-14T11:28:38.000Z</time>
      </trkpt>
      <trkpt lat="43.99011" lon="7.34001">
        <ele>964.59997558594</ele>
        <time>2015-11-14T11:28:44.000Z</time>
      </trkpt>
      <trkpt lat="43.99032" lon="7.34001">
        <ele>958</ele>
        <time>2015-11-14T11:28:51.000Z</time>
      </trkpt>
      <trkpt lat="43.99049" lon="7.33993">
        <ele>951</ele>
        <time>2015-11-14T11:28:57.000Z</time>
      </trkpt>
      <trkpt lat="43.99068" lon="7.33992">
        <ele>945.59997558594</ele>
        <time>2015-11-14T11:29:02.000Z</time>
      </trkpt>
      <trkpt lat="43.99087" lon="7.33996">
        <ele>943</ele>
        <time>2015-11-14T11:29:07.000Z</time>
      </trkpt>
      <trkpt lat="43.99098" lon="7.33997">
        <ele>940.20001220703</ele>
        <time>2015-11-14T11:29:12.000Z</time>
      </trkpt>
      <trkpt lat="43.99094" lon="7.33982">
        <ele>935</ele>
        <time>2015-11-14T11:29:18.000Z</time>
      </trkpt>
      <trkpt lat="43.99108" lon="7.33973">
        <ele>929</ele>
        <time>2015-11-14T11:29:28.000Z</time>
      </trkpt>
      <trkpt lat="43.99096" lon="7.33954">
        <ele>924.40002441406</ele>
        <time>2015-11-14T11:29:35.000Z</time>
      </trkpt>
      <trkpt lat="43.99095" lon="7.33952">
        <ele>923.79998779297</ele>
        <time>2015-11-14T11:29:36.000Z</time>
      </trkpt>
      <trkpt lat="43.99087" lon="7.33941">
        <ele>921.20001220703</ele>
        <time>2015-11-14T11:29:43.000Z</time>
      </trkpt>
      <trkpt lat="43.99087" lon="7.33943">
        <ele>922</ele>
        <time>2015-11-14T11:31:19.000Z</time>
      </trkpt>
      <trkpt lat="43.99091" lon="7.33947">
        <ele>922.59997558594</ele>
        <time>2015-11-14T11:33:33.000Z</time>
      </trkpt>
      <trkpt lat="43.99109" lon="7.33956">
        <ele>922.20001220703</ele>
        <time>2015-11-14T11:33:48.000Z</time>
      </trkpt>
      <trkpt lat="43.99129" lon="7.33964">
        <ele>914.40002441406</ele>
        <time>2015-11-14T11:33:55.000Z</time>
      </trkpt>
      <trkpt lat="43.99145" lon="7.33975">
        <ele>909.20001220703</ele>
        <time>2015-11-14T11:34:04.000Z</time>
      </trkpt>
      <trkpt lat="43.99156" lon="7.33996">
        <ele>911.20001220703</ele>
        <time>2015-11-14T11:34:13.000Z</time>
      </trkpt>
      <trkpt lat="43.99159" lon="7.3402">
        <ele>910.59997558594</ele>
        <time>2015-11-14T11:34:21.000Z</time>
      </trkpt>
      <trkpt lat="43.99164" lon="7.34039">
        <ele>909</ele>
        <time>2015-11-14T11:34:28.000Z</time>
      </trkpt>
      <trkpt lat="43.99164" lon="7.34052">
        <ele>909.20001220703</ele>
        <time>2015-11-14T11:34:32.000Z</time>
      </trkpt>
      <trkpt lat="43.99166" lon="7.34079">
        <ele>913</ele>
        <time>2015-11-14T11:34:40.000Z</time>
      </trkpt>
      <trkpt lat="43.99168" lon="7.34108">
        <ele>915.40002441406</ele>
        <time>2015-11-14T11:34:48.000Z</time>
      </trkpt>
      <trkpt lat="43.99173" lon="7.34134">
        <ele>914.59997558594</ele>
        <time>2015-11-14T11:34:56.000Z</time>
      </trkpt>
      <trkpt lat="43.99176" lon="7.3414">
        <ele>913.59997558594</ele>
        <time>2015-11-14T11:34:58.000Z</time>
      </trkpt>
      <trkpt lat="43.99181" lon="7.34113">
        <ele>906.59997558594</ele>
        <time>2015-11-14T11:35:09.000Z</time>
      </trkpt>
      <trkpt lat="43.99183" lon="7.34106">
        <ele>904.40002441406</ele>
        <time>2015-11-14T11:35:11.000Z</time>
      </trkpt>
      <trkpt lat="43.99187" lon="7.34081">
        <ele>898</ele>
        <time>2015-11-14T11:35:19.000Z</time>
      </trkpt>
      <trkpt lat="43.9919" lon="7.34055">
        <ele>895.20001220703</ele>
        <time>2015-11-14T11:35:27.000Z</time>
      </trkpt>
      <trkpt lat="43.99191" lon="7.3403">
        <ele>893.59997558594</ele>
        <time>2015-11-14T11:35:34.000Z</time>
      </trkpt>
      <trkpt lat="43.99189" lon="7.34014">
        <ele>893.79998779297</ele>
        <time>2015-11-14T11:35:39.000Z</time>
      </trkpt>
      <trkpt lat="43.99193" lon="7.34028">
        <ele>892</ele>
        <time>2015-11-14T11:35:45.000Z</time>
      </trkpt>
      <trkpt lat="43.99201" lon="7.34051">
        <ele>886.79998779297</ele>
        <time>2015-11-14T11:35:53.000Z</time>
      </trkpt>
      <trkpt lat="43.99202" lon="7.34054">
        <ele>886.79998779297</ele>
        <time>2015-11-14T11:35:54.000Z</time>
      </trkpt>
      <trkpt lat="43.99206" lon="7.3408">
        <ele>884.79998779297</ele>
        <time>2015-11-14T11:36:01.000Z</time>
      </trkpt>
      <trkpt lat="43.99209" lon="7.34104">
        <ele>886</ele>
        <time>2015-11-14T11:36:09.000Z</time>
      </trkpt>
      <trkpt lat="43.9922" lon="7.34126">
        <ele>881.40002441406</ele>
        <time>2015-11-14T11:36:15.000Z</time>
      </trkpt>
      <trkpt lat="43.99231" lon="7.3415">
        <ele>877</ele>
        <time>2015-11-14T11:36:21.000Z</time>
      </trkpt>
      <trkpt lat="43.99245" lon="7.34173">
        <ele>869.79998779297</ele>
        <time>2015-11-14T11:36:27.000Z</time>
      </trkpt>
      <trkpt lat="43.99258" lon="7.34196">
        <ele>863.59997558594</ele>
        <time>2015-11-14T11:36:34.000Z</time>
      </trkpt>
      <trkpt lat="43.99262" lon="7.34221">
        <ele>863.20001220703</ele>
        <time>2015-11-14T11:36:41.000Z</time>
      </trkpt>
      <trkpt lat="43.99265" lon="7.34249">
        <ele>864</ele>
        <time>2015-11-14T11:36:48.000Z</time>
      </trkpt>
      <trkpt lat="43.99267" lon="7.34263">
        <ele>864.59997558594</ele>
        <time>2015-11-14T11:36:51.000Z</time>
      </trkpt>
      <trkpt lat="43.99269" lon="7.34271">
        <ele>864.79998779297</ele>
        <time>2015-11-14T11:36:55.000Z</time>
      </trkpt>
      <trkpt lat="43.99272" lon="7.34245">
        <ele>858.40002441406</ele>
        <time>2015-11-14T11:37:04.000Z</time>
      </trkpt>
      <trkpt lat="43.99275" lon="7.34227">
        <ele>855</ele>
        <time>2015-11-14T11:37:09.000Z</time>
      </trkpt>
      <trkpt lat="43.9928" lon="7.34207">
        <ele>849.79998779297</ele>
        <time>2015-11-14T11:37:15.000Z</time>
      </trkpt>
      <trkpt lat="43.99283" lon="7.34211">
        <ele>848.40002441406</ele>
        <time>2015-11-14T11:37:19.000Z</time>
      </trkpt>
      <trkpt lat="43.99286" lon="7.34238">
        <ele>848.79998779297</ele>
        <time>2015-11-14T11:37:27.000Z</time>
      </trkpt>
      <trkpt lat="43.9929" lon="7.34259">
        <ele>853.79998779297</ele>
        <time>2015-11-14T11:37:34.000Z</time>
      </trkpt>
      <trkpt lat="43.99294" lon="7.34243">
        <ele>844.40002441406</ele>
        <time>2015-11-14T11:37:41.000Z</time>
      </trkpt>
      <trkpt lat="43.993" lon="7.34217">
        <ele>838.40002441406</ele>
        <time>2015-11-14T11:37:50.000Z</time>
      </trkpt>
      <trkpt lat="43.99302" lon="7.34192">
        <ele>834.59997558594</ele>
        <time>2015-11-14T11:37:57.000Z</time>
      </trkpt>
      <trkpt lat="43.99302" lon="7.34191">
        <ele>834.59997558594</ele>
        <time>2015-11-14T11:37:58.000Z</time>
      </trkpt>
      <trkpt lat="43.99299" lon="7.34217">
        <ele>838.59997558594</ele>
        <time>2015-11-14T11:38:07.000Z</time>
      </trkpt>
      <trkpt lat="43.99307" lon="7.3424">
        <ele>836</ele>
        <time>2015-11-14T11:38:14.000Z</time>
      </trkpt>
      <trkpt lat="43.99309" lon="7.34242">
        <ele>835</ele>
        <time>2015-11-14T11:38:15.000Z</time>
      </trkpt>
      <trkpt lat="43.99311" lon="7.34229">
        <ele>832.40002441406</ele>
        <time>2015-11-14T11:38:21.000Z</time>
      </trkpt>
      <trkpt lat="43.99316" lon="7.34205">
        <ele>826.59997558594</ele>
        <time>2015-11-14T11:38:28.000Z</time>
      </trkpt>
      <trkpt lat="43.99323" lon="7.34181">
        <ele>818</ele>
        <time>2015-11-14T11:38:35.000Z</time>
      </trkpt>
      <trkpt lat="43.99323" lon="7.34154">
        <ele>813.59997558594</ele>
        <time>2015-11-14T11:38:43.000Z</time>
      </trkpt>
      <trkpt lat="43.99322" lon="7.34133">
        <ele>810.79998779297</ele>
        <time>2015-11-14T11:38:49.000Z</time>
      </trkpt>
      <trkpt lat="43.99325" lon="7.34132">
        <ele>808.40002441406</ele>
        <time>2015-11-14T11:38:53.000Z</time>
      </trkpt>
      <trkpt lat="43.99333" lon="7.34155">
        <ele>807.40002441406</ele>
        <time>2015-11-14T11:39:01.000Z</time>
      </trkpt>
      <trkpt lat="43.99332" lon="7.34182">
        <ele>811.59997558594</ele>
        <time>2015-11-14T11:39:09.000Z</time>
      </trkpt>
      <trkpt lat="43.99338" lon="7.34202">
        <ele>811</ele>
        <time>2015-11-14T11:39:16.000Z</time>
      </trkpt>
      <trkpt lat="43.99354" lon="7.34214">
        <ele>801.59997558594</ele>
        <time>2015-11-14T11:39:25.000Z</time>
      </trkpt>
      <trkpt lat="43.99367" lon="7.34232">
        <ele>801.40002441406</ele>
        <time>2015-11-14T11:39:46.000Z</time>
      </trkpt>
      <trkpt lat="43.99381" lon="7.3423">
        <ele>800.59997558594</ele>
        <time>2015-11-14T11:40:21.000Z</time>
      </trkpt>
      <trkpt lat="43.99396" lon="7.34227">
        <ele>799.40002441406</ele>
        <time>2015-11-14T11:40:47.000Z</time>
      </trkpt>
      <trkpt lat="43.99414" lon="7.34227">
        <ele>798.79998779297</ele>
        <time>2015-11-14T11:41:00.000Z</time>
      </trkpt>
      <trkpt lat="43.99435" lon="7.34231">
        <ele>795.20001220703</ele>
        <time>2015-11-14T11:41:08.000Z</time>
      </trkpt>
      <trkpt lat="43.99453" lon="7.34234">
        <ele>792.59997558594</ele>
        <time>2015-11-14T11:41:15.000Z</time>
      </trkpt>
      <trkpt lat="43.99472" lon="7.3424">
        <ele>793</ele>
        <time>2015-11-14T11:41:22.000Z</time>
      </trkpt>
      <trkpt lat="43.99492" lon="7.34244">
        <ele>792.40002441406</ele>
        <time>2015-11-14T11:41:30.000Z</time>
      </trkpt>
      <trkpt lat="43.9951" lon="7.34249">
        <ele>792.59997558594</ele>
        <time>2015-11-14T11:41:37.000Z</time>
      </trkpt>
      <trkpt lat="43.99527" lon="7.34257">
        <ele>793.59997558594</ele>
        <time>2015-11-14T11:41:45.000Z</time>
      </trkpt>
      <trkpt lat="43.9953" lon="7.34258">
        <ele>793</ele>
        <time>2015-11-14T11:41:47.000Z</time>
      </trkpt>
      <trkpt lat="43.99528" lon="7.34251">
        <ele>790.59997558594</ele>
        <time>2015-11-14T11:41:53.000Z</time>
      </trkpt>
      <trkpt lat="43.99512" lon="7.34237">
        <ele>786.40002441406</ele>
        <time>2015-11-14T11:42:00.000Z</time>
      </trkpt>
      <trkpt lat="43.99493" lon="7.34227">
        <ele>783.79998779297</ele>
        <time>2015-11-14T11:42:07.000Z</time>
      </trkpt>
      <trkpt lat="43.99475" lon="7.34215">
        <ele>780.20001220703</ele>
        <time>2015-11-14T11:42:14.000Z</time>
      </trkpt>
      <trkpt lat="43.99456" lon="7.34205">
        <ele>778</ele>
        <time>2015-11-14T11:42:21.000Z</time>
      </trkpt>
      <trkpt lat="43.99436" lon="7.34197">
        <ele>777.59997558594</ele>
        <time>2015-11-14T11:42:28.000Z</time>
      </trkpt>
      <trkpt lat="43.99418" lon="7.3419">
        <ele>781.20001220703</ele>
        <time>2015-11-14T11:42:34.000Z</time>
      </trkpt>
      <trkpt lat="43.99398" lon="7.34185">
        <ele>786.59997558594</ele>
        <time>2015-11-14T11:42:41.000Z</time>
      </trkpt>
      <trkpt lat="43.99378" lon="7.34182">
        <ele>792.40002441406</ele>
        <time>2015-11-14T11:42:48.000Z</time>
      </trkpt>
      <trkpt lat="43.99376" lon="7.34181">
        <ele>792.59997558594</ele>
        <time>2015-11-14T11:42:49.000Z</time>
      </trkpt>
      <trkpt lat="43.99371" lon="7.3416">
        <ele>785.59997558594</ele>
        <time>2015-11-14T11:42:54.000Z</time>
      </trkpt>
      <trkpt lat="43.99373" lon="7.34132">
        <ele>780.59997558594</ele>
        <time>2015-11-14T11:43:01.000Z</time>
      </trkpt>
      <trkpt lat="43.99375" lon="7.34106">
        <ele>776.40002441406</ele>
        <time>2015-11-14T11:43:06.000Z</time>
      </trkpt>
      <trkpt lat="43.99375" lon="7.34079">
        <ele>768.79998779297</ele>
        <time>2015-11-14T11:43:13.000Z</time>
      </trkpt>
      <trkpt lat="43.99371" lon="7.34052">
        <ele>768.20001220703</ele>
        <time>2015-11-14T11:43:21.000Z</time>
      </trkpt>
      <trkpt lat="43.99363" lon="7.3403">
        <ele>770</ele>
        <time>2015-11-14T11:43:28.000Z</time>
      </trkpt>
      <trkpt lat="43.99358" lon="7.34004">
        <ele>770.20001220703</ele>
        <time>2015-11-14T11:43:34.000Z</time>
      </trkpt>
      <trkpt lat="43.99355" lon="7.33976">
        <ele>768.79998779297</ele>
        <time>2015-11-14T11:43:42.000Z</time>
      </trkpt>
      <trkpt lat="43.99356" lon="7.33955">
        <ele>766.20001220703</ele>
        <time>2015-11-14T11:43:48.000Z</time>
      </trkpt>
      <trkpt lat="43.99356" lon="7.3394">
        <ele>764.59997558594</ele>
        <time>2015-11-14T11:43:52.000Z</time>
      </trkpt>
      <trkpt lat="43.99355" lon="7.33924">
        <ele>763.59997558594</ele>
        <time>2015-11-14T11:43:56.000Z</time>
      </trkpt>
      <trkpt lat="43.99352" lon="7.33915">
        <ele>764.40002441406</ele>
        <time>2015-11-14T11:44:01.000Z</time>
      </trkpt>
      <trkpt lat="43.99352" lon="7.33915">
        <ele>764.40002441406</ele>
        <time>2015-11-14T11:44:02.000Z</time>
      </trkpt>
      <trkpt lat="43.99355" lon="7.3389">
        <ele>761</ele>
        <time>2015-11-14T11:44:14.000Z</time>
      </trkpt>
      <trkpt lat="43.99356" lon="7.33864">
        <ele>759.20001220703</ele>
        <time>2015-11-14T11:44:20.000Z</time>
      </trkpt>
      <trkpt lat="43.99359" lon="7.33836">
        <ele>757</ele>
        <time>2015-11-14T11:44:26.000Z</time>
      </trkpt>
      <trkpt lat="43.99355" lon="7.33807">
        <ele>754.79998779297</ele>
        <time>2015-11-14T11:44:32.000Z</time>
      </trkpt>
      <trkpt lat="43.99354" lon="7.3378">
        <ele>750.59997558594</ele>
        <time>2015-11-14T11:44:39.000Z</time>
      </trkpt>
      <trkpt lat="43.99344" lon="7.33756">
        <ele>751.20001220703</ele>
        <time>2015-11-14T11:44:46.000Z</time>
      </trkpt>
      <trkpt lat="43.99333" lon="7.33732">
        <ele>750.79998779297</ele>
        <time>2015-11-14T11:44:53.000Z</time>
      </trkpt>
      <trkpt lat="43.99323" lon="7.33711">
        <ele>750</ele>
        <time>2015-11-14T11:45:00.000Z</time>
      </trkpt>
      <trkpt lat="43.99314" lon="7.33689">
        <ele>748.40002441406</ele>
        <time>2015-11-14T11:45:08.000Z</time>
      </trkpt>
      <trkpt lat="43.99305" lon="7.33667">
        <ele>746.40002441406</ele>
        <time>2015-11-14T11:45:15.000Z</time>
      </trkpt>
      <trkpt lat="43.99298" lon="7.33643">
        <ele>745.59997558594</ele>
        <time>2015-11-14T11:45:23.000Z</time>
      </trkpt>
      <trkpt lat="43.99293" lon="7.33619">
        <ele>744.20001220703</ele>
        <time>2015-11-14T11:45:31.000Z</time>
      </trkpt>
      <trkpt lat="43.99283" lon="7.33596">
        <ele>744.79998779297</ele>
        <time>2015-11-14T11:45:38.000Z</time>
      </trkpt>
      <trkpt lat="43.99276" lon="7.33569">
        <ele>743.40002441406</ele>
        <time>2015-11-14T11:45:45.000Z</time>
      </trkpt>
      <trkpt lat="43.9927" lon="7.33544">
        <ele>740.79998779297</ele>
        <time>2015-11-14T11:45:51.000Z</time>
      </trkpt>
      <trkpt lat="43.99264" lon="7.33519">
        <ele>738.20001220703</ele>
        <time>2015-11-14T11:45:58.000Z</time>
      </trkpt>
      <trkpt lat="43.99257" lon="7.33496">
        <ele>735.79998779297</ele>
        <time>2015-11-14T11:46:05.000Z</time>
      </trkpt>
      <trkpt lat="43.99249" lon="7.33471">
        <ele>730.20001220703</ele>
        <time>2015-11-14T11:46:12.000Z</time>
      </trkpt>
      <trkpt lat="43.9924" lon="7.33449">
        <ele>726.59997558594</ele>
        <time>2015-11-14T11:46:19.000Z</time>
      </trkpt>
      <trkpt lat="43.99227" lon="7.33431">
        <ele>725.20001220703</ele>
        <time>2015-11-14T11:46:27.000Z</time>
      </trkpt>
      <trkpt lat="43.99209" lon="7.3342">
        <ele>726.59997558594</ele>
        <time>2015-11-14T11:46:34.000Z</time>
      </trkpt>
      <trkpt lat="43.9919" lon="7.33415">
        <ele>729.40002441406</ele>
        <time>2015-11-14T11:46:41.000Z</time>
      </trkpt>
      <trkpt lat="43.99172" lon="7.33405">
        <ele>727.20001220703</ele>
        <time>2015-11-14T11:46:47.000Z</time>
      </trkpt>
      <trkpt lat="43.99164" lon="7.33396">
        <ele>725.59997558594</ele>
        <time>2015-11-14T11:46:51.000Z</time>
      </trkpt>
      <trkpt lat="43.99177" lon="7.33385">
        <ele>721.20001220703</ele>
        <time>2015-11-14T11:47:03.000Z</time>
      </trkpt>
      <trkpt lat="43.99176" lon="7.33381">
        <ele>719.79998779297</ele>
        <time>2015-11-14T11:47:09.000Z</time>
      </trkpt>
      <trkpt lat="43.99164" lon="7.33363">
        <ele>715.59997558594</ele>
        <time>2015-11-14T11:47:21.000Z</time>
      </trkpt>
      <trkpt lat="43.99164" lon="7.33356">
        <ele>713.20001220703</ele>
        <time>2015-11-14T11:47:24.000Z</time>
      </trkpt>
      <trkpt lat="43.99158" lon="7.33344">
        <ele>709.79998779297</ele>
        <time>2015-11-14T11:47:31.000Z</time>
      </trkpt>
      <trkpt lat="43.99155" lon="7.33336">
        <ele>707.79998779297</ele>
        <time>2015-11-14T11:47:36.000Z</time>
      </trkpt>
      <trkpt lat="43.99145" lon="7.33313">
        <ele>704.40002441406</ele>
        <time>2015-11-14T11:47:45.000Z</time>
      </trkpt>
      <trkpt lat="43.99134" lon="7.33293">
        <ele>703</ele>
        <time>2015-11-14T11:47:53.000Z</time>
      </trkpt>
      <trkpt lat="43.99124" lon="7.33269">
        <ele>700.79998779297</ele>
        <time>2015-11-14T11:48:01.000Z</time>
      </trkpt>
      <trkpt lat="43.99119" lon="7.33243">
        <ele>696</ele>
        <time>2015-11-14T11:48:09.000Z</time>
      </trkpt>
      <trkpt lat="43.99107" lon="7.33221">
        <ele>695.40002441406</ele>
        <time>2015-11-14T11:48:17.000Z</time>
      </trkpt>
      <trkpt lat="43.99099" lon="7.33213">
        <ele>694.59997558594</ele>
        <time>2015-11-14T11:48:21.000Z</time>
      </trkpt>
    </trkseg>
  </trk>
</gpx>